Provisional Data: Tuscarora Creek near Woodhull, NY


Please select a monitoring station.
Please select start date.
Please select start date.

Toggle Unit: C/F Toggle Unit: C/F
Sample Time Temperature (C) Temperature (F) Specific Conductivity (mS/cm) pH   Turbidity (NTU+) DO (mg/L)
12/4/2020 12:00:00 AM 1.49 34.682 0.457 9.73 2.93 13.47
12/4/2020 12:15:00 AM 1.48 34.664 0.458 9.71 2.93 13.46
12/4/2020 12:30:00 AM 1.48 34.664 0.458 9.7 2.99 13.45
12/4/2020 12:45:00 AM 1.47 34.646 0.458 9.7 3.06 13.44
12/4/2020 1:00:00 AM 1.47 34.646 0.458 9.7 3.08 13.44
12/4/2020 1:15:00 AM 1.48 34.664 0.458 9.71 3.1 13.44
12/4/2020 1:30:00 AM 1.49 34.682 0.458 9.7 3.06 13.43
12/4/2020 1:45:00 AM 1.49 34.682 0.459 9.69 3.08 13.42
12/4/2020 2:00:00 AM 1.5 34.7 0.459 9.69 2.98 13.41
12/4/2020 2:15:00 AM 1.5 34.7 0.459 9.69 3.02 13.41
12/4/2020 2:30:00 AM 1.51 34.718 0.459 9.68 3.05 13.4
12/4/2020 2:45:00 AM 1.5 34.7 0.46 9.62 2.96 13.4
12/4/2020 3:00:00 AM 1.49 34.682 0.46 9.62 2.96 13.4
12/4/2020 3:15:00 AM 1.49 34.682 0.46 9.61 3 13.4
12/4/2020 3:30:00 AM 1.47 34.646 0.46 9.61 3 13.4
12/4/2020 3:45:00 AM 1.46 34.628 0.461 9.6 2.99 13.4
12/4/2020 4:00:00 AM 1.43 34.574 0.461 9.59 3 13.4
12/4/2020 4:15:00 AM 1.43 34.574 0.461 9.59 2.95 13.4
12/4/2020 4:30:00 AM 1.41 34.538 0.461 9.58 3 13.41
12/4/2020 4:45:00 AM 1.41 34.538 0.462 9.59 2.93 13.4
12/4/2020 5:00:00 AM 1.4 34.52 0.462 9.59 2.9 13.4
12/4/2020 5:15:00 AM 1.41 34.538 0.462 9.59 2.9 13.4
12/4/2020 5:30:00 AM 1.41 34.538 0.462 9.59 2.96 13.4
12/4/2020 5:45:00 AM 1.42 34.556 0.462 9.61 2.94 13.41
12/4/2020 6:00:00 AM 1.43 34.574 0.463 9.61 2.91 13.39
12/4/2020 6:15:00 AM 1.44 34.592 0.463 9.62 2.94 13.39
12/4/2020 6:30:00 AM 1.45 34.61 0.464 9.62 2.98 13.39
12/4/2020 6:45:00 AM 1.44 34.592 0.464 9.61 2.97 13.39
12/4/2020 7:00:00 AM 1.46 34.628 0.464 9.61 3.02 13.38
12/4/2020 7:15:00 AM 1.47 34.646 0.463 9.63 2.95 13.39
12/4/2020 7:30:00 AM 1.48 34.664 0.463 9.64 2.94 13.37
12/4/2020 7:45:00 AM 1.49 34.682 0.464 9.63 3.04 13.38
12/4/2020 8:00:00 AM 1.51 34.718 0.463 9.64 2.95 13.34
12/4/2020 8:15:00 AM 1.52 34.736 0.463 9.67 2.97 13.39
12/4/2020 8:30:00 AM 1.54 34.772 0.463 9.67 2.96 13.41
12/4/2020 8:45:00 AM 1.56 34.808 0.463 9.71 2.92 13.46
12/4/2020 9:00:00 AM 1.61 34.898 0.462 9.76 2.93 13.52
12/4/2020 9:15:00 AM 1.65 34.97 0.462 9.87 2.94 13.63
12/4/2020 9:30:00 AM 1.7 35.06 0.462 9.94 2.91 13.75
12/4/2020 9:45:00 AM 1.77 35.186 0.46 10.02 2.92 13.92
12/4/2020 10:00:00 AM 1.84 35.312 0.46 10.04 2.87 13.97
12/4/2020 10:15:00 AM 1.92 35.456 0.461 10.07 2.86 14.06
12/4/2020 10:30:00 AM 2 35.6 0.461 10.12 2.87 14.22
12/4/2020 10:45:00 AM 2.1 35.78 0.46 10.19 2.9 14.36
12/4/2020 11:00:00 AM 2.24 36.032 0.46 10.25 2.92 14.48
12/4/2020 11:15:00 AM 2.42 36.356 0.459 10.34 2.91 14.59
12/4/2020 11:30:00 AM 2.5 36.5 0.46 10.34 2.89 14.69
12/4/2020 11:45:00 AM 2.66 36.788 0.46 10.39 2.9 14.76
12/4/2020 12:00:00 PM 2.84 37.112 0.46 10.46 2.81 14.85
12/4/2020 12:15:00 PM 2.91 37.238 0.46 10.46 2.91 14.84
12/4/2020 12:30:00 PM 3.03 37.454 0.46 10.43 3.35 14.84
12/4/2020 12:45:00 PM 3.2 37.76 0.459 10.48 2.87 14.9
12/4/2020 1:00:00 PM 3.33 37.994 0.458 10.56 2.8 14.99
12/4/2020 1:15:00 PM 3.48 38.264 0.457 10.62 2.94 15
12/4/2020 1:30:00 PM 3.64 38.552 0.457 10.68 2.81 15.1
12/4/2020 1:45:00 PM 3.75 38.75 0.456 10.76 2.94 15.17
12/4/2020 2:00:00 PM 3.89 39.002 0.455 10.79 3.61 15.2
12/4/2020 2:15:00 PM 4.01 39.218 0.455 10.82 2.93 15.2
12/4/2020 2:30:00 PM 4.12 39.416 0.453 10.89 3.19 15.19
12/4/2020 2:45:00 PM 4.17 39.506 0.453 10.92 2.78 15.17
12/4/2020 3:00:00 PM 4.21 39.578 0.453 10.99 2.78 15.14
12/4/2020 3:15:00 PM 4.22 39.596 0.453 11.02 2.79 15.05
12/4/2020 3:30:00 PM 4.22 39.596 0.453 11.05 2.89 14.95
12/4/2020 3:45:00 PM 4.22 39.596 0.452 11.05 2.77 14.86
12/4/2020 4:00:00 PM 4.24 39.632 0.452 11.04 2.8 14.73
12/4/2020 4:15:00 PM 4.25 39.65 0.452 11.03 2.85 14.62
12/4/2020 4:30:00 PM 4.24 39.632 0.451 11.03 2.76 14.48
12/4/2020 4:45:00 PM 4.22 39.596 0.453 10.99 2.78 14.37
12/4/2020 5:00:00 PM 4.19 39.542 0.453 10.97 2.88 14.26
12/4/2020 5:15:00 PM 4.14 39.452 0.453 10.93 2.92 14.13
12/4/2020 5:30:00 PM 4.07 39.326 0.453 10.88 2.84 14
12/4/2020 5:45:00 PM 4.01 39.218 0.453 10.84 2.92 13.85
12/4/2020 6:00:00 PM 3.95 39.11 0.453 10.77 2.84 13.68
12/4/2020 6:15:00 PM 3.88 38.984 0.453 10.71 2.93 13.5
12/4/2020 6:30:00 PM 3.88 38.984 0.455 10.71 2.96 13.49
12/4/2020 6:45:00 PM 3.84 38.912 0.455 10.64 2.89 13.4
12/4/2020 7:00:00 PM 3.78 38.804 0.455 10.63 3.7 13.32
12/4/2020 7:15:00 PM 3.7 38.66 0.456 10.53 3.17 13.17
12/4/2020 7:30:00 PM 3.68 38.624 0.457 10.48 3.05 13.11
12/4/2020 7:45:00 PM 3.66 38.588 0.458 10.44 3 13.06
12/4/2020 8:00:00 PM 3.64 38.552 0.459 10.41 3.15 13.03
12/4/2020 8:15:00 PM 3.6 38.48 0.459 10.37 3.02 12.94
12/4/2020 8:30:00 PM 3.58 38.444 0.46 10.35 3 12.89
12/4/2020 8:45:00 PM 3.57 38.426 0.46 10.32 3.24 12.83
12/4/2020 9:00:00 PM 3.56 38.408 0.461 10.27 3.03 12.8
12/4/2020 9:15:00 PM 3.56 38.408 0.461 10.26 3.21 12.77
12/4/2020 9:30:00 PM 3.55 38.39 0.461 10.26 3.03 12.74
12/4/2020 9:45:00 PM 3.55 38.39 0.462 10.22 3.22 12.69
12/4/2020 10:00:00 PM 3.56 38.408 0.462 10.19 2.95 12.68
12/4/2020 10:15:00 PM 3.56 38.408 0.462 10.18 2.96 12.65
12/4/2020 10:30:00 PM 3.58 38.444 0.462 10.2 2.87 12.62
12/4/2020 10:45:00 PM 3.59 38.462 0.462 10.17 3.15 12.6
12/4/2020 11:00:00 PM 3.6 38.48 0.462 10.16 3.02 12.58
12/4/2020 11:15:00 PM 3.62 38.516 0.463 10.13 2.96 12.56
12/4/2020 11:30:00 PM 3.63 38.534 0.462 10.12 3.01 12.54
12/4/2020 11:45:00 PM 3.64 38.552 0.463 10.11 2.95 12.53
12/5/2020 12:00:00 AM 3.66 38.588 0.463 10.11 3.06 12.51
12/5/2020 12:15:00 AM 3.68 38.624 0.461 10.11 3 12.5
12/5/2020 12:30:00 AM 3.69 38.642 0.462 10.12 2.97 12.49
12/5/2020 12:45:00 AM 3.69 38.642 0.462 10.11 2.95 12.46
12/5/2020 1:00:00 AM 3.71 38.678 0.462 10.11 3.06 12.45
12/5/2020 1:15:00 AM 3.71 38.678 0.462 10.14 3.02 12.44
12/5/2020 1:30:00 AM 3.73 38.714 0.461 10.13 3.18 12.43
12/5/2020 1:45:00 AM 3.73 38.714 0.462 10.13 3.08 12.42
12/5/2020 2:00:00 AM 3.73 38.714 0.462 10.12 3.03 12.4
12/5/2020 2:15:00 AM 3.74 38.732 0.462 10.12 3.1 12.4
12/5/2020 2:30:00 AM 3.73 38.714 0.462 10.11 2.94 12.39
12/5/2020 2:45:00 AM 3.75 38.75 0.462 10.11 3.13 12.39
12/5/2020 3:00:00 AM 3.75 38.75 0.462 10.11 7.98 12.38
12/5/2020 3:15:00 AM 3.75 38.75 0.462 10.1 2.99 12.39
12/5/2020 3:30:00 AM 3.74 38.732 0.463 10.1 3.12 12.36
12/5/2020 3:45:00 AM 3.74 38.732 0.464 10.08 3.34 12.36
12/5/2020 4:00:00 AM 3.74 38.732 0.464 10.08 3.04 12.35
12/5/2020 4:15:00 AM 3.74 38.732 0.465 10.06 3.05 12.35
12/5/2020 4:30:00 AM 3.74 38.732 0.465 10.06 3.02 12.34
12/5/2020 4:45:00 AM 3.73 38.714 0.465 10.05 3.2 12.35
12/5/2020 5:00:00 AM 3.72 38.696 0.465 10.05 3.09 12.35
12/5/2020 5:15:00 AM 3.72 38.696 0.465 10.07 3.04 12.35
12/5/2020 5:30:00 AM 3.72 38.696 0.465 10.08 3.14 12.35
12/5/2020 5:45:00 AM 3.7 38.66 0.465 10.06 3.07 12.36
12/5/2020 6:00:00 AM 3.69 38.642 0.466 10.04 3.01 12.37
12/5/2020 6:15:00 AM 3.67 38.606 0.466 10.04 3.12 12.36
12/5/2020 6:30:00 AM 3.67 38.606 0.467 10.03 3.02 12.37
12/5/2020 6:45:00 AM 3.65 38.57 0.466 10.03 3.65 12.37
12/5/2020 7:00:00 AM 3.64 38.552 0.467 10.04 3.09 12.37
12/5/2020 7:15:00 AM 3.63 38.534 0.468 10.02 3.14 12.38
12/5/2020 7:30:00 AM 3.61 38.498 0.466 10.05 3 12.4
12/5/2020 7:45:00 AM 3.6 38.48 0.467 10.06 3.05 12.4
12/5/2020 8:00:00 AM 3.59 38.462 0.467 10.06 3.04 12.38
12/5/2020 8:15:00 AM 3.57 38.426 0.466 10.08 7.15 12.4
12/5/2020 8:30:00 AM 3.56 38.408 0.467 10.1 4.38 12.43
12/5/2020 8:45:00 AM 3.55 38.39 0.467 10.11 5.37 12.46
12/5/2020 9:00:00 AM 3.55 38.39 0.467 10.12 2.91 12.52
12/5/2020 9:15:00 AM 3.54 38.372 0.466 10.14 2.95 12.6
12/5/2020 9:30:00 AM 3.53 38.354 0.466 10.15 2.9 12.75
12/5/2020 9:45:00 AM 3.53 38.354 0.466 10.18 3.01 12.88
12/5/2020 10:00:00 AM 3.53 38.354 0.466 10.18 2.97 13
12/5/2020 10:15:00 AM 3.53 38.354 0.466 10.2 2.87 13.08
12/5/2020 10:30:00 AM 3.54 38.372 0.466 10.23 2.95 13.16
12/5/2020 10:45:00 AM 3.54 38.372 0.465 10.27 2.95 13.26
12/5/2020 11:00:00 AM 3.55 38.39 0.466 10.25 2.92 13.3
12/5/2020 11:15:00 AM 3.56 38.408 0.465 10.32 3.01 13.46
12/5/2020 11:30:00 AM 3.58 38.444 0.465 10.36 3.06 13.62
12/5/2020 11:45:00 AM 3.61 38.498 0.465 10.37 2.91 13.75
12/5/2020 12:00:00 PM 3.62 38.516 0.465 10.42 2.92 13.84
12/5/2020 12:15:00 PM 3.64 38.552 0.465 10.44 2.97 13.9
12/5/2020 12:30:00 PM 3.69 38.642 0.465 10.48 2.95 14.03
12/5/2020 12:45:00 PM 3.72 38.696 0.465 10.53 2.96 14.16
12/5/2020 1:00:00 PM 3.74 38.732 0.465 10.57 2.9 14.24
12/5/2020 1:15:00 PM 3.78 38.804 0.464 10.61 3 14.36
12/5/2020 1:30:00 PM 3.83 38.894 0.464 10.67 2.88 14.45
12/5/2020 1:45:00 PM 3.86 38.948 0.464 10.67 2.86 14.45
12/5/2020 2:00:00 PM 3.88 38.984 0.464 10.72 2.98 14.51
12/5/2020 2:15:00 PM 3.92 39.056 0.464 10.76 2.94 14.6
12/5/2020 2:30:00 PM 3.95 39.11 0.464 10.8 2.9 14.69
12/5/2020 2:45:00 PM 3.98 39.164 0.464 10.87 2.87 14.75
12/5/2020 3:00:00 PM 4 39.2 0.463 10.92 2.82 14.79
12/5/2020 3:15:00 PM 3.99 39.182 0.462 10.93 2.9 14.77
12/5/2020 3:30:00 PM 3.96 39.128 0.463 10.92 2.98 14.71
12/5/2020 3:45:00 PM 3.93 39.074 0.463 10.93 2.85 14.63
12/5/2020 4:00:00 PM 3.91 39.038 0.463 10.92 2.98 14.54
12/5/2020 4:15:00 PM 3.88 38.984 0.463 10.91 2.82 14.43
12/5/2020 4:30:00 PM 3.86 38.948 0.463 10.89 2.88 14.36
12/5/2020 4:45:00 PM 3.83 38.894 0.463 10.89 2.86 14.26
12/5/2020 5:00:00 PM 3.79 38.822 0.462 10.87 2.85 14.14
12/5/2020 5:15:00 PM 3.75 38.75 0.462 10.85 2.95 14.03
12/5/2020 5:30:00 PM 3.71 38.678 0.463 10.81 2.9 13.94
12/5/2020 5:45:00 PM 3.66 38.588 0.463 10.77 3.08 13.8
12/5/2020 6:00:00 PM 3.63 38.534 0.464 10.72 3.03 13.68
12/5/2020 6:15:00 PM 3.6 38.48 0.464 10.71 2.95 13.57
12/5/2020 6:30:00 PM 3.55 38.39 0.464 10.65 3.03 13.46
12/5/2020 6:45:00 PM 3.52 38.336 0.465 10.6 3.09 13.38
12/5/2020 7:00:00 PM 3.47 38.246 0.465 10.56 3.15 13.29
12/5/2020 7:15:00 PM 3.43 38.174 0.466 10.53 3.08 13.24
12/5/2020 7:30:00 PM 3.38 38.084 0.466 10.46 4 13.14
12/5/2020 7:45:00 PM 3.33 37.994 0.467 10.41 3.17 13.09
12/5/2020 8:00:00 PM 3.3 37.94 0.468 10.37 3.11 13.06
12/5/2020 8:15:00 PM 3.25 37.85 0.468 10.35 3.01 13.01
12/5/2020 8:30:00 PM 3.21 37.778 0.468 10.28 3.08 12.96
12/5/2020 8:45:00 PM 3.18 37.724 0.468 10.25 3 12.93
12/5/2020 9:00:00 PM 3.15 37.67 0.469 10.23 3.04 12.9
12/5/2020 9:15:00 PM 3.1 37.58 0.468 10.21 3.01 12.89
12/5/2020 9:30:00 PM 3.07 37.526 0.469 10.18 3.13 12.87
12/5/2020 9:45:00 PM 3.03 37.454 0.469 10.19 2.98 12.86
12/5/2020 10:00:00 PM 2.99 37.382 0.469 10.19 3.02 12.85
12/5/2020 10:15:00 PM 2.97 37.346 0.469 10.19 3.36 12.84
12/5/2020 10:30:00 PM 2.93 37.274 0.469 10.19 3.18 12.83
12/5/2020 10:45:00 PM 2.91 37.238 0.47 10.2 2.92 12.83
12/5/2020 11:00:00 PM 2.88 37.184 0.47 10.18 3.01 12.83
12/5/2020 11:15:00 PM 2.86 37.148 0.471 10.17 2.96 12.82
12/5/2020 11:30:00 PM 2.82 37.076 0.471 10.16 2.99 12.82
12/5/2020 11:45:00 PM 2.8 37.04 0.471 10.16 3.22 12.81
12/6/2020 12:00:00 AM 2.76 36.968 0.471 10.15 3.62 12.81
12/6/2020 12:15:00 AM 2.73 36.914 0.471 10.15 3.06 12.81
12/6/2020 12:30:00 AM 2.7 36.86 0.471 10.15 3.02 12.82
12/6/2020 12:45:00 AM 2.67 36.806 0.471 10.15 3.09 12.82
12/6/2020 1:00:00 AM 2.63 36.734 0.471 10.14 3.27 12.83
12/6/2020 1:15:00 AM 2.6 36.68 0.471 10.12 3.11 12.84
12/6/2020 1:30:00 AM 2.56 36.608 0.472 10.12 3.01 12.84
12/6/2020 1:45:00 AM 2.55 36.59 0.471 10.12 3.03 12.84
12/6/2020 2:00:00 AM 2.51 36.518 0.471 10.13 3.05 12.86
12/6/2020 2:15:00 AM 2.46 36.428 0.471 10.14 3.12 12.87
12/6/2020 2:30:00 AM 2.44 36.392 0.47 10.14 3.06 12.9
12/6/2020 2:45:00 AM 2.39 36.302 0.47 10.14 2.98 12.89
12/6/2020 3:00:00 AM 2.35 36.23 0.47 10.11 3.16 12.92
12/6/2020 3:15:00 AM 2.33 36.194 0.47 10.09 3.03 12.92
12/6/2020 3:30:00 AM 2.27 36.086 0.471 10.07 2.98 12.93
12/6/2020 3:45:00 AM 2.22 35.996 0.472 10.02 3 12.94
12/6/2020 4:00:00 AM 2.21 35.978 0.472 10.01 3 12.94
12/6/2020 4:15:00 AM 2.18 35.924 0.472 10 2.99 12.95
12/6/2020 4:30:00 AM 2.12 35.816 0.472 10 3.09 12.98
12/6/2020 4:45:00 AM 2.08 35.744 0.473 9.98 3.06 12.99
12/6/2020 5:00:00 AM 2.06 35.708 0.473 9.97 2.99 13
12/6/2020 5:15:00 AM 2.02 35.636 0.475 9.96 3 13
12/6/2020 5:30:00 AM 1.98 35.564 0.475 9.96 3 13.02
12/6/2020 5:45:00 AM 1.94 35.492 0.475 9.94 3.09 13.04
12/6/2020 6:00:00 AM 1.9 35.42 0.475 9.94 3.21 13.05
12/6/2020 6:15:00 AM 1.86 35.348 0.476 9.94 3.22 13.07
12/6/2020 6:30:00 AM 1.83 35.294 0.476 9.93 3.19 13.08
12/6/2020 6:45:00 AM 1.72 35.096 0.476 9.92 3.1 13.12
12/6/2020 7:00:00 AM 1.71 35.078 0.476 9.9 3.01 13.14
12/6/2020 7:15:00 AM 1.67 35.006 0.477 9.89 3.04 13.15
12/6/2020 7:30:00 AM 1.65 34.97 0.477 9.89 3.06 13.15
12/6/2020 7:45:00 AM 1.58 34.844 0.476 9.89 3.1 13.2
12/6/2020 8:00:00 AM 1.55 34.79 0.477 9.88 3.02 13.21
12/6/2020 8:15:00 AM 1.52 34.736 0.477 9.89 2.99 13.23
12/6/2020 8:30:00 AM 1.47 34.646 0.477 9.89 2.99 13.19
12/6/2020 8:45:00 AM 1.46 34.628 0.477 9.9 3.1 13.3
12/6/2020 9:00:00 AM 1.44 34.592 0.477 9.92 3.08 13.35
12/6/2020 9:15:00 AM 1.44 34.592 0.476 9.95 2.98 13.44
12/6/2020 9:30:00 AM 1.44 34.592 0.477 9.96 3.03 13.52
12/6/2020 9:45:00 AM 1.41 34.538 0.476 9.99 2.97 13.6
12/6/2020 10:00:00 AM 1.39 34.502 0.476 10 3 13.71
12/6/2020 10:15:00 AM 1.38 34.484 0.476 10.03 2.95 13.8
12/6/2020 10:30:00 AM 1.38 34.484 0.475 10.11 2.96 14.03
12/6/2020 10:45:00 AM 1.4 34.52 0.475 10.21 2.92 14.16
12/6/2020 11:00:00 AM 1.42 34.556 0.475 10.23 3 14.23
12/6/2020 11:15:00 AM 1.44 34.592 0.476 10.24 2.97 14.29
12/6/2020 11:30:00 AM 1.47 34.646 0.474 10.27 3.02 14.44
12/6/2020 11:45:00 AM 1.49 34.682 0.475 10.27 2.92 14.51
12/6/2020 12:00:00 PM 1.57 34.826 0.475 10.26 2.95 14.58
12/6/2020 12:15:00 PM 1.6 34.88 0.476 10.27 2.94 14.62
12/6/2020 12:30:00 PM 1.69 35.042 0.476 10.33 3 14.74
12/6/2020 12:45:00 PM 1.78 35.204 0.474 10.41 2.87 14.92
12/6/2020 1:00:00 PM 1.88 35.384 0.476 10.51 2.92 15.07
12/6/2020 1:15:00 PM 1.97 35.546 0.474 10.54 2.87 15.28
12/6/2020 1:30:00 PM 2.05 35.69 0.475 10.48 2.95 15.31
12/6/2020 1:45:00 PM 2.14 35.852 0.472 10.55 2.9 15.51
12/6/2020 2:00:00 PM 2.21 35.978 0.473 10.55 2.88 15.58
12/6/2020 2:15:00 PM 2.28 36.104 0.473 10.57 2.84 15.59
12/6/2020 2:30:00 PM 2.3 36.14 0.476 10.52 3.11 15.51
12/6/2020 2:45:00 PM 2.27 36.086 0.472 10.63 2.93 15.51
12/6/2020 3:00:00 PM 2.35 36.23 0.471 10.71 2.81 15.49
12/6/2020 3:15:00 PM 2.3 36.14 0.469 10.77 2.86 15.57
12/6/2020 3:30:00 PM 2.35 36.23 0.469 10.77 2.88 15.55
12/6/2020 3:45:00 PM 2.33 36.194 0.468 10.8 2.77 15.58
12/6/2020 4:00:00 PM 2.29 36.122 0.466 10.84 2.84 15.5
12/6/2020 4:15:00 PM 2.3 36.14 0.466 10.88 3.22 15.47
12/6/2020 4:30:00 PM 2.29 36.122 0.466 10.88 2.91 15.45
12/6/2020 4:45:00 PM 2.23 36.014 0.466 10.87 2.8 15.42
12/6/2020 5:00:00 PM 2.14 35.852 0.464 10.87 2.85 15.31
12/6/2020 5:15:00 PM 2.11 35.798 0.464 10.87 2.94 15.19
12/6/2020 5:30:00 PM 2.05 35.69 0.464 10.85 2.77 15.07
12/6/2020 5:45:00 PM 1.94 35.492 0.465 10.82 2.76 14.9
12/6/2020 6:00:00 PM 1.88 35.384 0.464 10.82 2.86 14.78
12/6/2020 6:15:00 PM 1.84 35.312 0.465 10.78 2.85 14.66
12/6/2020 6:30:00 PM 1.72 35.096 0.464 10.73 2.98 14.52
12/6/2020 6:45:00 PM 1.66 34.988 0.464 10.68 3.04 14.4
12/6/2020 7:00:00 PM 1.62 34.916 0.465 10.66 3 14.35
12/6/2020 7:15:00 PM 1.54 34.772 0.465 10.65 3 14.28
12/6/2020 7:30:00 PM 1.45 34.61 0.465 10.61 2.94 14.21
12/6/2020 7:45:00 PM 1.37 34.466 0.465 10.57 3.06 14.12
12/6/2020 8:00:00 PM 1.28 34.304 0.465 10.55 2.89 14.04
12/6/2020 8:15:00 PM 1.24 34.232 0.466 10.56 2.94 14
12/6/2020 8:30:00 PM 1.18 34.124 0.466 10.5 2.9 13.95
12/6/2020 8:45:00 PM 1.14 34.052 0.466 10.48 2.98 13.91
12/6/2020 9:00:00 PM 1.1 33.98 0.467 10.44 2.96 13.88
12/6/2020 9:15:00 PM 1.05 33.89 0.468 10.4 3.01 13.84
12/6/2020 9:30:00 PM 0.95 33.71 0.467 10.34 2.96 13.82
12/6/2020 9:45:00 PM 0.88 33.584 0.468 10.29 3.02 13.81
12/6/2020 10:00:00 PM 0.81 33.458 0.468 10.24 2.96 13.8
12/6/2020 10:15:00 PM 0.77 33.386 0.469 10.22 2.89 13.8
12/6/2020 10:30:00 PM 0.74 33.332 0.469 10.16 2.82 13.79
12/6/2020 10:45:00 PM 0.75 33.35 0.471 10.14 2.84 13.79
12/6/2020 11:00:00 PM 0.73 33.314 0.47 10.13 2.93 13.76
12/6/2020 11:15:00 PM 0.71 33.278 0.471 10.11 2.86 13.77
12/6/2020 11:30:00 PM 0.69 33.242 0.471 10.12 2.88 13.76
12/6/2020 11:45:00 PM 0.65 33.17 0.471 10.07 2.88 13.78
12/7/2020 12:00:00 AM 0.63 33.134 0.471 10.04 2.85 13.78
12/7/2020 12:15:00 AM 0.61 33.098 0.471 10.03 2.8 13.78
12/7/2020 12:30:00 AM 0.61 33.098 0.472 10.01 2.84 13.77
12/7/2020 12:45:00 AM 0.61 33.098 0.472 10.01 2.86 13.77
12/7/2020 1:00:00 AM 0.62 33.116 0.472 10.01 2.86 13.76
12/7/2020 1:15:00 AM 0.63 33.134 0.472 10 2.83 13.75
12/7/2020 1:30:00 AM 0.63 33.134 0.472 10 2.8 13.74
12/7/2020 1:45:00 AM 0.62 33.116 0.472 9.99 2.82 13.74
12/7/2020 2:00:00 AM 0.63 33.134 0.472 10 2.85 13.73
12/7/2020 2:15:00 AM 0.62 33.116 0.472 10.07 2.78 13.72
12/7/2020 2:30:00 AM 0.62 33.116 0.472 10.13 2.8 13.73
12/7/2020 2:45:00 AM 0.62 33.116 0.471 10.06 2.79 13.72
12/7/2020 3:00:00 AM 0.61 33.098 0.471 10.03 2.85 13.72
12/7/2020 3:15:00 AM 0.62 33.116 0.471 10.02 2.79 13.72
12/7/2020 3:30:00 AM 0.62 33.116 0.471 10.01 2.9 13.71
12/7/2020 3:45:00 AM 0.63 33.134 0.471 10 2.85 13.7
12/7/2020 4:00:00 AM 0.61 33.098 0.471 10 2.92 13.71
12/7/2020 4:15:00 AM 0.6 33.08 0.471 9.99 2.98 13.7
12/7/2020 4:30:00 AM 0.58 33.044 0.471 9.98 2.99 13.72
12/7/2020 4:45:00 AM 0.57 33.026 0.471 9.96 3.06 13.72
12/7/2020 5:00:00 AM 0.56 33.008 0.471 9.95 3.16 13.72
12/7/2020 5:15:00 AM 0.56 33.008 0.471 9.94 3.3 13.72
12/7/2020 5:30:00 AM 0.56 33.008 0.471 9.92 3.35 13.71
12/7/2020 5:45:00 AM 0.54 32.972 0.472 9.9 3.47 13.72
12/7/2020 6:00:00 AM 0.54 32.972 0.472 9.9 3.45 13.71
12/7/2020 6:15:00 AM 0.53 32.954 0.472 9.9 3.61 13.71
12/7/2020 6:30:00 AM 0.51 32.918 0.473 9.9 3.95 13.72
12/7/2020 6:45:00 AM 0.5 32.9 0.473 9.9 3.99 13.73
12/7/2020 7:00:00 AM 0.48 32.864 0.474 9.89 4.33 13.73
12/7/2020 7:15:00 AM 0.48 32.864 0.474 9.89 4.38 13.73
12/7/2020 7:30:00 AM 0.45 32.81 0.475 9.89 4.89 13.73
12/7/2020 7:45:00 AM 0.41 32.738 0.475 9.89 5.58 13.76
12/7/2020 8:00:00 AM 0.36 32.648 0.476 9.9 6.25 13.8
12/7/2020 8:15:00 AM 0.29 32.522 0.476 9.93 7 13.83
12/7/2020 8:30:00 AM 0.24 32.432 0.476 10.01 7.74 13.85
12/7/2020 8:45:00 AM 0.21 32.378 0.477 10.09 8.22 13.89
12/7/2020 9:00:00 AM 0.2 32.36 0.477 10.07 8.53 13.94
12/7/2020 9:15:00 AM 0.19 32.342 0.477 10.08 8.84 14.04
12/7/2020 9:30:00 AM 0.2 32.36 0.478 10.09 9.57 14.2
12/7/2020 9:45:00 AM 0.23 32.414 0.478 10.14 10.71 14.33
12/7/2020 10:00:00 AM 0.32 32.576 0.481 10.16 10.71 14.52
12/7/2020 10:15:00 AM 0.39 32.702 0.482 10.16 11.69 14.65
12/7/2020 10:30:00 AM 0.45 32.81 0.479 10.21 12.24 14.88
12/7/2020 10:45:00 AM 0.49 32.882 0.48 10.22 12.03 14.98
12/7/2020 11:00:00 AM 0.61 33.098 0.478 10.28 12.96 15.17
12/7/2020 11:15:00 AM 0.7 33.26 0.477 10.26 13.16 15.31
12/7/2020 11:30:00 AM 0.76 33.368 0.478 10.25 12.75 15.26
12/7/2020 11:45:00 AM 0.74 33.332 0.478 10.25 12.43 15.27
12/7/2020 12:00:00 PM 0.69 33.242 0.475 10.34 13.02 15.45
12/7/2020 12:15:00 PM 0.64 33.152 0.471 10.41 13.26 15.51
12/7/2020 12:30:00 PM 0.66 33.188 0.471 10.42 13.04 15.64
12/7/2020 12:45:00 PM 0.72 33.296 0.471 10.43 14.01 15.77
12/7/2020 1:00:00 PM 0.83 33.494 0.473 10.41 12.52 15.85
12/7/2020 1:15:00 PM 0.96 33.728 0.474 10.46 12.74 15.98
12/7/2020 1:30:00 PM 1.05 33.89 0.474 10.5 12.41 16.08
12/7/2020 1:45:00 PM 1.15 34.07 0.474 10.6 12.33 16.07
12/7/2020 2:00:00 PM 1.21 34.178 0.472 10.68 11.83 16.11
12/7/2020 2:15:00 PM 1.21 34.178 0.472 10.68 11.82 16.08
12/7/2020 2:30:00 PM 1.24 34.232 0.471 10.72 11.34 16.07
12/7/2020 2:45:00 PM 1.25 34.25 0.47 10.82 10.76 16.09
12/7/2020 3:00:00 PM 1.25 34.25 0.469 10.89 10.47 16.11
12/7/2020 3:15:00 PM 1.26 34.268 0.468 10.9 10.24 16.12
12/7/2020 3:30:00 PM 1.24 34.232 0.467 10.94 9.56 16.13
12/7/2020 3:45:00 PM 1.23 34.214 0.465 10.99 8.67 16.1
12/7/2020 4:00:00 PM 1.2 34.16 0.465 11.01 8.17 16.05
12/7/2020 4:15:00 PM 1.16 34.088 0.465 11.01 7.8 15.98
12/7/2020 4:30:00 PM 1.12 34.016 0.465 10.98 7.41 15.91
12/7/2020 4:45:00 PM 1.09 33.962 0.465 10.92 7.17 15.84
12/7/2020 5:00:00 PM 1.03 33.854 0.465 10.89 6.66 15.73
12/7/2020 5:15:00 PM 0.95 33.71 0.465 10.85 6.15 15.62
12/7/2020 5:30:00 PM 0.87 33.566 0.465 10.81 5.82 15.46
12/7/2020 5:45:00 PM 0.78 33.404 0.465 10.76 5.52 15.3
12/7/2020 6:00:00 PM 0.69 33.242 0.465 10.71 5.34 15.13
12/7/2020 6:15:00 PM 0.61 33.098 0.464 10.67 5.14 14.99
12/7/2020 6:30:00 PM 0.54 32.972 0.464 10.64 5.03 14.87
12/7/2020 6:45:00 PM 0.46 32.828 0.465 10.58 5.04 14.78
12/7/2020 7:00:00 PM 0.4 32.72 0.465 10.56 5.05 14.7
12/7/2020 7:15:00 PM 0.33 32.594 0.466 10.5 4.93 14.64
12/7/2020 7:30:00 PM 0.26 32.468 0.467 10.47 5.15 14.58
12/7/2020 7:45:00 PM 0.21 32.378 0.469 10.42 5.05 14.53
12/7/2020 8:00:00 PM 0.16 32.288 0.471 10.36 5.18 14.48
12/7/2020 8:15:00 PM 0.17 32.306 0.473 10.32 5.25 14.41
12/7/2020 8:30:00 PM 0.28 32.504 0.473 10.32 5.26 14.35
12/7/2020 8:45:00 PM 0.32 32.576 0.474 10.41 5.13 14.32
12/7/2020 9:00:00 PM 0.27 32.486 0.474 10.34 5.09 14.31
12/7/2020 9:15:00 PM 0.27 32.486 0.475 10.32 5.16 14.26
12/7/2020 9:30:00 PM 0.26 32.468 0.475 10.3 5.12 14.23
12/7/2020 9:45:00 PM 0.23 32.414 0.476 10.28 4.79 14.21
12/7/2020 10:00:00 PM 0.19 32.342 0.478 10.26 4.85 14.18
12/7/2020 10:15:00 PM 0.17 32.306 0.479 10.24 4.77 14.15
12/7/2020 10:30:00 PM 0.17 32.306 0.48 10.24 4.64 14.12
12/7/2020 10:45:00 PM 0.16 32.288 0.482 10.23 4.68 14.11
12/7/2020 11:00:00 PM 0.17 32.306 0.483 10.22 4.64 14.09
12/7/2020 11:15:00 PM 0.17 32.306 0.483 10.21 4.54 14.06
12/7/2020 11:30:00 PM 0.17 32.306 0.484 10.2 4.4 14.05
12/7/2020 11:45:00 PM 0.16 32.288 0.484 10.18 4.4 14.04
12/8/2020 12:00:00 AM 0.16 32.288 0.485 10.15 4.43 14.03
12/8/2020 12:15:00 AM 0.15 32.27 0.486 10.12 4.4 14.03
12/8/2020 12:30:00 AM 0.15 32.27 0.486 10.12 4.19 14.02
12/8/2020 12:45:00 AM 0.16 32.288 0.486 10.11 4.31 13.99
12/8/2020 1:00:00 AM 0.14 32.252 0.487 10.1 4.07 14.01
12/8/2020 1:15:00 AM 0.15 32.27 0.487 10.1 3.99 14
12/8/2020 1:30:00 AM 0.14 32.252 0.488 10.12 3.93 13.99
12/8/2020 1:45:00 AM 0.13 32.234 0.488 10.12 3.95 13.98
12/8/2020 2:00:00 AM 0.12 32.216 0.489 10.12 3.91 13.98
12/8/2020 2:15:00 AM 0.1 32.18 0.489 10.11 3.94 13.98
12/8/2020 2:30:00 AM 0.09 32.162 0.489 10.14 3.85 13.99
12/8/2020 2:45:00 AM 0.12 32.216 0.489 10.15 3.89 13.97
12/8/2020 3:00:00 AM 0.11 32.198 0.49 10.15 3.78 13.95
12/8/2020 3:15:00 AM 0.11 32.198 0.49 10.16 3.78 13.96
12/8/2020 3:30:00 AM 0.1 32.18 0.491 10.16 3.76 13.97
12/8/2020 3:45:00 AM 0.11 32.198 0.49 10.17 4.02 13.95
12/8/2020 4:00:00 AM 0.13 32.234 0.491 10.19 3.66 13.93
12/8/2020 4:15:00 AM 0.11 32.198 0.49 10.21 3.64 13.95
12/8/2020 4:30:00 AM 0.13 32.234 0.49 10.21 3.77 13.92
12/8/2020 4:45:00 AM 0.13 32.234 0.49 10.23 3.67 13.91
12/8/2020 5:00:00 AM 0.14 32.252 0.49 10.25 3.67 13.9
12/8/2020 5:15:00 AM 0.13 32.234 0.49 10.27 3.54 13.92
12/8/2020 5:30:00 AM 0.13 32.234 0.492 10.27 3.63 13.9
12/8/2020 5:45:00 AM 0.12 32.216 0.492 10.28 3.6 13.92
12/8/2020 6:00:00 AM 0.14 32.252 0.492 10.28 3.59 13.87
12/8/2020 6:15:00 AM 0.15 32.27 0.49 10.28 3.55 13.87
12/8/2020 6:30:00 AM 0.16 32.288 0.492 10.28 3.55 13.84
12/8/2020 6:45:00 AM 0.15 32.27 0.492 10.29 3.61 13.9
12/8/2020 7:00:00 AM 0.17 32.306 0.49 10.3 3.46 13.83
12/8/2020 7:15:00 AM 0.19 32.342 0.492 10.32 3.48 13.85
12/8/2020 7:30:00 AM 0.2 32.36 0.493 10.32 3.51 13.77
12/8/2020 7:45:00 AM 0.21 32.378 0.491 10.32 3.49 13.83
12/8/2020 8:00:00 AM 0.21 32.378 0.49 10.34 3.48 13.83
12/8/2020 8:15:00 AM 0.26 32.468 0.491 10.32 3.53 13.82
12/8/2020 8:30:00 AM 0.23 32.414 0.489 10.35 3.46 13.83
12/8/2020 8:45:00 AM 0.28 32.504 0.49 10.33 3.39 13.82
12/8/2020 9:00:00 AM 0.28 32.504 0.49 10.35 3.38 13.86
12/8/2020 9:15:00 AM 0.32 32.576 0.49 10.33 3.38 13.92
12/8/2020 9:30:00 AM 0.27 32.486 0.489 10.35 3.27 13.97
12/8/2020 9:45:00 AM 0.32 32.576 0.489 10.35 3.31 14.1
12/8/2020 10:00:00 AM 0.34 32.612 0.49 10.36 3.23 14.11
12/8/2020 10:15:00 AM 0.31 32.558 0.486 10.41 3.22 14.27
12/8/2020 10:30:00 AM 0.23 32.414 0.484 10.51 3.16 14.77
12/8/2020 10:45:00 AM 0.21 32.378 0.483 10.53 5.79 14.96
12/8/2020 11:00:00 AM 0.23 32.414 0.484 10.59 3.83 15.23
12/8/2020 11:15:00 AM 0.26 32.468 0.485 10.62 3.27 15.36
12/8/2020 11:30:00 AM 0.26 32.468 0.48 10.7 3.22 15.5
12/8/2020 11:45:00 AM 0.34 32.612 0.481 10.71 3.19 15.53
12/8/2020 12:00:00 PM 0.37 32.666 0.48 10.73 3.23 15.65
12/8/2020 12:15:00 PM 0.36 32.648 0.475 10.82 3.51 15.74
12/8/2020 12:30:00 PM 0.53 32.954 0.478 10.79 3.24 15.78
12/8/2020 12:45:00 PM 0.74 33.332 0.478 10.86 3.29 15.84
12/8/2020 1:00:00 PM 0.87 33.566 0.475 10.95 3.38 15.9
12/8/2020 1:15:00 PM 0.97 33.746 0.473 10.99 3.26 15.97
12/8/2020 1:30:00 PM 1.05 33.89 0.473 11.02 3.49 16.01
12/8/2020 1:45:00 PM 1.09 33.962 0.472 11.03 3.35 16.05
12/8/2020 2:00:00 PM 1.1 33.98 0.473 11.02 3.33 16.07
12/8/2020 2:15:00 PM 1.08 33.944 0.474 11.01 3.34 16.06
12/8/2020 2:30:00 PM 1.05 33.89 0.474 10.99 3.34 16.03
12/8/2020 2:45:00 PM 1.01 33.818 0.474 11.01 3.46 16.03
12/8/2020 3:00:00 PM 0.98 33.764 0.473 10.99 3.51 16.05
12/8/2020 3:15:00 PM 0.97 33.746 0.472 11.07 3.66 16.03
12/8/2020 3:30:00 PM 0.96 33.728 0.472 11.17 3.76 16.04
12/8/2020 3:45:00 PM 0.93 33.674 0.471 11.2 4.05 16.02
12/8/2020 4:00:00 PM 0.87 33.566 0.47 11.21 4.38 15.98
12/8/2020 4:15:00 PM 0.8 33.44 0.47 11.2 4.82 15.94
12/8/2020 4:30:00 PM 0.73 33.314 0.469 11.17 5.18 15.89
12/8/2020 4:45:00 PM 0.66 33.188 0.47 11.12 5.54 15.8
12/8/2020 5:00:00 PM 0.59 33.062 0.47 11.06 5.96 15.73
12/8/2020 5:15:00 PM 0.51 32.918 0.472 11.02 6.29 15.62
12/8/2020 5:30:00 PM 0.42 32.756 0.474 10.96 6.52 15.48
12/8/2020 5:45:00 PM 0.37 32.666 0.476 10.9 6.61 15.37
12/8/2020 6:00:00 PM 0.32 32.576 0.478 10.85 6.7 15.25
12/8/2020 6:15:00 PM 0.26 32.468 0.481 10.81 6.68 15.12
12/8/2020 6:30:00 PM 0.23 32.414 0.483 10.76 6.71 15.01
12/8/2020 6:45:00 PM 0.18 32.324 0.485 10.7 6.67 14.9
12/8/2020 7:00:00 PM 0.15 32.27 0.487 10.66 6.61 14.82
12/8/2020 7:15:00 PM 0.11 32.198 0.489 10.63 6.52 14.75
12/8/2020 7:30:00 PM 0.07 32.126 0.491 10.57 6.38 14.66
12/8/2020 7:45:00 PM 0.05 32.09 0.492 10.52 6.21 14.61
12/8/2020 8:00:00 PM 0.02 32.036 0.493 10.49 6.38 14.55
12/8/2020 8:15:00 PM 0.01 32.018 0.494 10.45 6.26 14.51
12/8/2020 8:30:00 PM 0.06 32.108 0.494 10.43 6.14 14.46
12/8/2020 8:45:00 PM 0.1 32.18 0.494 10.41 6.17 14.45
12/8/2020 9:00:00 PM 0.14 32.252 0.495 10.4 5.94 14.4
12/8/2020 9:15:00 PM 0.13 32.234 0.495 10.38 5.77 14.35
12/8/2020 9:30:00 PM 0.1 32.18 0.496 10.34 5.55 14.32
12/8/2020 9:45:00 PM 0.08 32.144 0.497 10.32 5.42 14.29
12/8/2020 10:00:00 PM 0.09 32.162 0.497 10.29 5.24 14.25
12/8/2020 10:15:00 PM 0.07 32.126 0.497 10.27 5.1 14.24
12/8/2020 10:30:00 PM 0.09 32.162 0.498 10.25 5.01 14.21
12/8/2020 10:45:00 PM 0.09 32.162 0.498 10.23 4.85 14.18
12/8/2020 11:00:00 PM 0.07 32.126 0.497 10.22 4.57 14.17
12/8/2020 11:15:00 PM 0.05 32.09 0.498 10.2 4.46 14.16
12/8/2020 11:30:00 PM 0.05 32.09 0.498 10.2 4.42 14.15
12/8/2020 11:45:00 PM 0.04 32.072 0.498 10.18 4.5 14.07
12/9/2020 12:00:00 AM 0.04 32.072 0.498 10.2 4.09 14.08
12/9/2020 12:15:00 AM 0.04 32.072 0.498 10.2 3.93 14.1
12/9/2020 12:30:00 AM 0.05 32.09 0.498 10.2 3.93 14.07
12/9/2020 12:45:00 AM 0.04 32.072 0.498 10.22 3.97 14.02
12/9/2020 1:00:00 AM 0.05 32.09 0.498 10.23 3.89 14.02
12/9/2020 1:15:00 AM 0.05 32.09 0.498 10.25 3.91 14.02
12/9/2020 1:30:00 AM 0.05 32.09 0.497 10.26 3.92 13.96
12/9/2020 1:45:00 AM 0.04 32.072 0.497 10.29 3.93 13.96
12/9/2020 2:00:00 AM 0.04 32.072 0.497 10.31 3.89 13.94
12/9/2020 2:15:00 AM 0.04 32.072 0.497 10.34 3.93 13.95
12/9/2020 2:30:00 AM 0.04 32.072 0.496 10.34 3.72 13.95
12/9/2020 2:45:00 AM 0.04 32.072 0.496 10.31 3.83 13.97
12/9/2020 3:00:00 AM 0.04 32.072 0.496 10.28 3.81 13.93
12/9/2020 3:15:00 AM 0.04 32.072 0.495 10.26 3.73 13.97
12/9/2020 3:30:00 AM 0.04 32.072 0.495 10.24 3.73 13.97
12/9/2020 3:45:00 AM 0.05 32.09 0.495 10.23 4.1 13.97
12/9/2020 4:00:00 AM 0.06 32.108 0.495 10.22 3.83 13.96
12/9/2020 4:15:00 AM 0.07 32.126 0.495 10.2 3.82 13.96
12/9/2020 4:30:00 AM 0.05 32.09 0.494 10.18 3.82 13.96
12/9/2020 4:45:00 AM 0.05 32.09 0.495 10.16 3.76 13.96
12/9/2020 5:00:00 AM 0.07 32.126 0.493 10.16 3.69 13.94
12/9/2020 5:15:00 AM 0.06 32.108 0.493 10.15 3.7 13.93
12/9/2020 5:30:00 AM 0.07 32.126 0.493 10.16 3.81 13.91
12/9/2020 5:45:00 AM 0.08 32.144 0.494 10.14 3.56 13.91
12/9/2020 6:00:00 AM 0.09 32.162 0.493 10.14 3.56 13.89
12/9/2020 6:15:00 AM 0.08 32.144 0.491 10.14 3.61 13.89
12/9/2020 6:30:00 AM 0.07 32.126 0.491 10.14 3.52 13.91
12/9/2020 6:45:00 AM 0.07 32.126 0.49 10.13 3.5 13.91
12/9/2020 7:00:00 AM 0.08 32.144 0.49 10.15 3.46 13.89
12/9/2020 7:15:00 AM 0.09 32.162 0.49 10.14 3.43 13.9
12/9/2020 7:30:00 AM 0.11 32.198 0.491 10.13 3.46 13.88
12/9/2020 7:45:00 AM 0.1 32.18 0.491 10.13 3.39 13.88
12/9/2020 8:00:00 AM 0.1 32.18 0.492 10.12 3.41 13.88
12/9/2020 8:15:00 AM 0.11 32.198 0.492 10.11 3.44 13.88
12/9/2020 8:30:00 AM 0.11 32.198 0.493 10.11 3.45 13.87
12/9/2020 8:45:00 AM 0.12 32.216 0.494 10.11 3.46 13.87
12/9/2020 9:00:00 AM 0.12 32.216 0.494 10.12 3.66 13.9
12/9/2020 9:15:00 AM 0.12 32.216 0.494 10.12 3.52 13.94
12/9/2020 9:30:00 AM 0.12 32.216 0.495 10.12 3.49 13.99
12/9/2020 9:45:00 AM 0.11 32.198 0.495 10.12 3.57 14.05
12/9/2020 10:00:00 AM 0.12 32.216 0.495 10.13 3.55 14.1
12/9/2020 10:15:00 AM 0.15 32.27 0.495 10.14 3.57 14.21
12/9/2020 10:30:00 AM 0.17 32.306 0.495 10.16 3.54 14.34
12/9/2020 10:45:00 AM 0.21 32.378 0.495 10.17 3.74 14.47
12/9/2020 11:00:00 AM 0.25 32.45 0.495 10.19 3.55 14.6
12/9/2020 11:15:00 AM 0.27 32.486 0.495 10.2 3.5 14.72
12/9/2020 11:30:00 AM 0.3 32.54 0.494 10.23 3.48 14.81
12/9/2020 11:45:00 AM 0.34 32.612 0.494 10.24 3.63 14.9
12/9/2020 12:00:00 PM 0.36 32.648 0.492 10.29 3.51 14.98
12/9/2020 12:15:00 PM 0.36 32.648 0.492 10.28 3.5 15.02
12/9/2020 12:30:00 PM 0.37 32.666 0.49 10.31 3.51 15.09
12/9/2020 12:45:00 PM 0.37 32.666 0.49 10.32 3.45 15.12
12/9/2020 1:00:00 PM 0.38 32.684 0.488 10.34 3.46 15.14
12/9/2020 1:15:00 PM 0.39 32.702 0.485 10.38 3.36 15.19
12/9/2020 1:30:00 PM 0.4 32.72 0.484 10.4 3.31 15.26
12/9/2020 1:45:00 PM 0.41 32.738 0.483 10.43 3.33 15.32
12/9/2020 2:00:00 PM 0.41 32.738 0.483 10.42 3.29 15.31
12/9/2020 2:15:00 PM 0.43 32.774 0.482 10.42 3.24 15.29
12/9/2020 2:30:00 PM 0.44 32.792 0.481 10.43 3.37 15.28
12/9/2020 2:45:00 PM 0.46 32.828 0.482 10.42 3.3 15.29
12/9/2020 3:00:00 PM 0.47 32.846 0.481 10.43 3.27 15.27
12/9/2020 3:15:00 PM 0.48 32.864 0.48 10.45 3.21 15.25
12/9/2020 3:30:00 PM 0.49 32.882 0.481 10.44 3.23 15.21
12/9/2020 3:45:00 PM 0.5 32.9 0.482 10.44 3.21 15.19
12/9/2020 4:00:00 PM 0.51 32.918 0.482 10.42 3.2 15.18
12/9/2020 4:15:00 PM 0.51 32.918 0.483 10.44 3.32 15.14
12/9/2020 4:30:00 PM 0.52 32.936 0.483 10.43 3.25 15.1
12/9/2020 4:45:00 PM 0.53 32.954 0.485 10.41 3.33 15.03
12/9/2020 5:00:00 PM 0.52 32.936 0.485 10.4 3.18 14.97
12/9/2020 5:15:00 PM 0.53 32.954 0.486 10.37 3.1 14.88
12/9/2020 5:30:00 PM 0.53 32.954 0.487 10.34 3.12 14.79
12/9/2020 5:45:00 PM 0.53 32.954 0.488 10.3 3.14 14.7
12/9/2020 6:00:00 PM 0.53 32.954 0.488 10.3 3.08 14.61
12/9/2020 6:15:00 PM 0.53 32.954 0.489 10.27 3.09 14.52
12/9/2020 6:30:00 PM 0.54 32.972 0.489 10.24 3.11 14.45
12/9/2020 6:45:00 PM 0.54 32.972 0.49 10.22 3.14 14.39
12/9/2020 7:00:00 PM 0.54 32.972 0.49 10.19 3.2 14.32
12/9/2020 7:15:00 PM 0.54 32.972 0.49 10.19 3.11 14.28
12/9/2020 7:30:00 PM 0.55 32.99 0.49 10.16 3.17 14.24
12/9/2020 7:45:00 PM 0.55 32.99 0.49 10.15 3.14 14.19
12/9/2020 8:00:00 PM 0.56 33.008 0.49 10.11 3.26 14.14
12/9/2020 8:15:00 PM 0.56 33.008 0.49 10.09 3.33 14.1
12/9/2020 8:30:00 PM 0.57 33.026 0.49 10.07 3.27 14.06
12/9/2020 8:45:00 PM 0.56 33.008 0.49 10.05 3.35 14.01
12/9/2020 9:00:00 PM 0.58 33.044 0.49 10.04 3.26 13.97
12/9/2020 9:15:00 PM 0.58 33.044 0.489 10.04 3.41 13.94
12/9/2020 9:30:00 PM 0.59 33.062 0.489 10.02 3.43 13.9
12/9/2020 9:45:00 PM 0.59 33.062 0.489 10 3.44 13.87
12/9/2020 10:00:00 PM 0.6 33.08 0.489 9.99 3.48 13.84
12/9/2020 10:15:00 PM 0.59 33.062 0.488 9.98 3.63 13.83
12/9/2020 10:30:00 PM 0.6 33.08 0.488 10.02 3.54 13.81
12/9/2020 10:45:00 PM 0.59 33.062 0.488 9.99 3.56 13.81
12/9/2020 11:00:00 PM 0.61 33.098 0.488 9.97 3.44 13.77
12/9/2020 11:15:00 PM 0.62 33.116 0.488 9.94 3.47 13.75
12/9/2020 11:30:00 PM 0.63 33.134 0.488 9.93 3.24 13.74
12/9/2020 11:45:00 PM 0.64 33.152 0.487 9.92 3.17 13.72
12/10/2020 12:00:00 AM 0.65 33.17 0.486 9.92 3.2 13.71
12/10/2020 12:15:00 AM 0.66 33.188 0.486 9.92 3.29 13.7
12/10/2020 12:30:00 AM 0.66 33.188 0.487 9.91 3.41 13.7
12/10/2020 12:45:00 AM 0.67 33.206 0.487 9.92 3.43 13.68
12/10/2020 1:00:00 AM 0.67 33.206 0.486 9.93 3.43 13.68
12/10/2020 1:15:00 AM 0.67 33.206 0.486 9.93 3.46 13.67
12/10/2020 1:30:00 AM 0.69 33.242 0.486 9.91 3.64 13.66
12/10/2020 1:45:00 AM 0.7 33.26 0.486 9.9 3.22 13.65
12/10/2020 2:00:00 AM 0.7 33.26 0.486 9.89 3.25 13.65
12/10/2020 2:15:00 AM 0.71 33.278 0.486 9.88 3.39 13.64
12/10/2020 2:30:00 AM 0.72 33.296 0.486 9.87 3.37 13.64
12/10/2020 2:45:00 AM 0.73 33.314 0.487 9.88 3.83 13.64
12/10/2020 3:00:00 AM 0.74 33.332 0.488 9.86 3.38 13.61
12/10/2020 3:15:00 AM 0.75 33.35 0.489 9.86 3.34 13.61
12/10/2020 3:30:00 AM 0.76 33.368 0.487 9.86 3.44 13.62
12/10/2020 3:45:00 AM 0.79 33.422 0.495 9.85 3.76 13.6
12/10/2020 4:00:00 AM 0.79 33.422 0.488 9.85 3.31 13.6
12/10/2020 4:15:00 AM 0.79 33.422 0.488 9.85 3.06 13.61
12/10/2020 4:30:00 AM 0.79 33.422 0.488 9.86 3.06 13.61
12/10/2020 4:45:00 AM 0.78 33.404 0.487 9.86 3.06 13.61
12/10/2020 5:00:00 AM 0.78 33.404 0.487 9.86 3.07 13.61
12/10/2020 5:15:00 AM 0.77 33.386 0.487 9.85 3.03 13.62
12/10/2020 5:30:00 AM 0.78 33.404 0.487 9.84 2.97 13.62
12/10/2020 5:45:00 AM 0.77 33.386 0.487 9.83 3.08 13.61
12/10/2020 6:00:00 AM 0.78 33.404 0.488 9.84 3.01 13.6
12/10/2020 6:15:00 AM 0.8 33.44 0.487 9.83 3.12 13.59
12/10/2020 6:30:00 AM 0.81 33.458 0.487 9.81 3.11 13.59
12/10/2020 6:45:00 AM 0.81 33.458 0.486 9.83 3.16 13.6
12/10/2020 7:00:00 AM 0.82 33.476 0.487 9.82 3.1 13.58
12/10/2020 7:15:00 AM 0.82 33.476 0.486 9.83 3.2 13.58
12/10/2020 7:30:00 AM 0.83 33.494 0.486 9.81 3.08 13.6
12/10/2020 7:45:00 AM 0.83 33.494 0.485 9.82 3.06 13.6
12/10/2020 8:00:00 AM 0.83 33.494 0.485 9.82 2.94 13.62
12/10/2020 8:15:00 AM 0.83 33.494 0.485 9.81 2.95 13.64
12/10/2020 8:30:00 AM 0.83 33.494 0.485 9.81 3.11 13.63
12/10/2020 8:45:00 AM 0.82 33.476 0.485 9.83 2.94 13.66
12/10/2020 9:00:00 AM 0.82 33.476 0.485 9.82 2.93 13.67
12/10/2020 9:15:00 AM 0.83 33.494 0.484 9.84 2.99 13.76
12/10/2020 9:30:00 AM 0.87 33.566 0.484 9.84 2.99 13.86
12/10/2020 9:45:00 AM 0.91 33.638 0.485 9.87 2.9 14.01
12/10/2020 10:00:00 AM 0.96 33.728 0.485 9.89 2.9 14.17
12/10/2020 10:15:00 AM 1 33.8 0.485 9.93 2.88 14.31
12/10/2020 10:30:00 AM 1.07 33.926 0.485 9.99 2.91 14.5
12/10/2020 10:45:00 AM 1.15 34.07 0.485 10.03 2.92 14.73
12/10/2020 11:00:00 AM 1.23 34.214 0.484 10.1 2.9 14.96
12/10/2020 11:15:00 AM 1.28 34.304 0.483 10.13 2.86 15.07
12/10/2020 11:30:00 AM 1.34 34.412 0.484 10.15 2.92 15.16
12/10/2020 11:45:00 AM 1.4 34.52 0.483 10.23 2.88 15.26
12/10/2020 12:00:00 PM 1.45 34.61 0.483 10.35 2.91 15.34
12/10/2020 12:15:00 PM 1.53 34.754 0.482 10.4 2.87 15.44
12/10/2020 12:30:00 PM 1.6 34.88 0.482 10.42 2.86 15.56
12/10/2020 12:45:00 PM 1.65 34.97 0.482 10.43 2.83 15.61
12/10/2020 1:00:00 PM 1.77 35.186 0.48 10.5 2.92 15.77
12/10/2020 1:15:00 PM 1.89 35.402 0.477 10.59 2.87 15.89
12/10/2020 1:30:00 PM 1.94 35.492 0.477 10.61 2.96 15.97
12/10/2020 1:45:00 PM 2.02 35.636 0.478 10.63 2.85 16
12/10/2020 2:00:00 PM 2.12 35.816 0.477 10.67 3.3 16.04
12/10/2020 2:15:00 PM 2.19 35.942 0.476 10.69 2.91 16.07
12/10/2020 2:30:00 PM 2.29 36.122 0.475 10.77 2.86 16.11
12/10/2020 2:45:00 PM 2.34 36.212 0.474 10.8 2.9 16.12
12/10/2020 3:00:00 PM 2.38 36.284 0.474 10.81 2.87 16.13
12/10/2020 3:15:00 PM 2.42 36.356 0.473 10.88 2.91 16.14
12/10/2020 3:30:00 PM 2.47 36.446 0.472 10.91 3.08 16.1
12/10/2020 3:45:00 PM 2.52 36.536 0.471 10.95 3.38 16.1
12/10/2020 4:00:00 PM 2.58 36.644 0.469 10.99 2.97 16.08
12/10/2020 4:15:00 PM 2.6 36.68 0.468 11.05 2.93 16.06
12/10/2020 4:30:00 PM 2.61 36.698 0.468 11.07 2.91 16.03
12/10/2020 4:45:00 PM 2.62 36.716 0.467 11.09 2.97 15.96
12/10/2020 5:00:00 PM 2.59 36.662 0.467 11.07 2.91 15.9
12/10/2020 5:15:00 PM 2.57 36.626 0.467 11.08 2.87 15.79
12/10/2020 5:30:00 PM 2.53 36.554 0.466 11.09 2.95 15.61
12/10/2020 5:45:00 PM 2.48 36.464 0.465 11.07 2.85 15.46
12/10/2020 6:00:00 PM 2.41 36.338 0.464 11.04 2.98 15.22
12/10/2020 6:15:00 PM 2.35 36.23 0.464 11.01 2.85 15.07
12/10/2020 6:30:00 PM 2.29 36.122 0.464 10.99 2.89 14.87
12/10/2020 6:45:00 PM 2.25 36.05 0.465 10.96 2.95 14.71
12/10/2020 7:00:00 PM 2.2 35.96 0.465 10.93 3.01 14.59
12/10/2020 7:15:00 PM 2.14 35.852 0.465 10.89 3.02 14.46
12/10/2020 7:30:00 PM 2.09 35.762 0.465 10.85 2.97 14.35
12/10/2020 7:45:00 PM 2.02 35.636 0.465 10.82 3.01 14.24
12/10/2020 8:00:00 PM 1.94 35.492 0.466 10.77 2.99 14.16
12/10/2020 8:15:00 PM 1.85 35.33 0.466 10.73 3.04 14.08
12/10/2020 8:30:00 PM 1.77 35.186 0.466 10.68 2.98 14.03
12/10/2020 8:45:00 PM 1.68 35.024 0.467 10.61 2.91 13.96
12/10/2020 9:00:00 PM 1.59 34.862 0.468 10.55 2.98 13.92
12/10/2020 9:15:00 PM 1.51 34.718 0.468 10.46 2.97 13.86
12/10/2020 9:30:00 PM 1.43 34.574 0.469 10.41 2.97 13.82
12/10/2020 9:45:00 PM 1.33 34.394 0.47 10.33 3.18 13.79
12/10/2020 10:00:00 PM 1.25 34.25 0.47 10.29 2.93 13.76
12/10/2020 10:15:00 PM 1.17 34.106 0.471 10.25 2.96 13.75
12/10/2020 10:30:00 PM 1.28 34.304 0.476 10.22 3.05 13.66
12/10/2020 10:45:00 PM 1.5 34.7 0.481 10.25 3.23 13.67
12/10/2020 11:00:00 PM 1.69 35.042 0.477 10.34 3.24 13.89
12/10/2020 11:15:00 PM 1.82 35.276 0.477 10.34 3.11 13.98
12/10/2020 11:30:00 PM 1.88 35.384 0.475 10.37 3.22 13.91
12/10/2020 11:45:00 PM 1.86 35.348 0.473 10.41 2.98 13.84
12/11/2020 12:00:00 AM 1.82 35.276 0.475 10.38 3.04 13.81
12/11/2020 12:15:00 AM 1.73 35.114 0.476 10.32 2.98 13.73
12/11/2020 12:30:00 AM 1.66 34.988 0.478 10.23 3.04 13.66
12/11/2020 12:45:00 AM 1.6 34.88 0.479 10.2 3.01 13.56
12/11/2020 1:00:00 AM 1.52 34.736 0.481 10.11 3.01 13.48
12/11/2020 1:15:00 AM 1.42 34.556 0.481 10.04 3.05 13.47
12/11/2020 1:30:00 AM 1.33 34.394 0.481 9.99 3.08 13.4
12/11/2020 1:45:00 AM 1.23 34.214 0.483 9.91 3 13.37
12/11/2020 2:00:00 AM 1.11 33.998 0.485 9.9 3.01 13.37
12/11/2020 2:15:00 AM 1.03 33.854 0.485 9.86 3 13.33
12/11/2020 2:30:00 AM 0.92 33.656 0.485 9.81 3.09 13.37
12/11/2020 2:45:00 AM 0.84 33.512 0.486 9.79 3.05 13.37
12/11/2020 3:00:00 AM 0.76 33.368 0.484 9.77 3.03 13.37
12/11/2020 3:15:00 AM 0.72 33.296 0.487 9.75 3.05 13.38
12/11/2020 3:30:00 AM 0.65 33.17 0.487 9.73 3.03 13.46
12/11/2020 3:45:00 AM 0.61 33.098 0.487 9.74 3.05 13.37
12/11/2020 4:00:00 AM 0.68 33.224 0.492 9.69 3.26 13.24
12/11/2020 4:15:00 AM 0.6 33.08 0.49 9.69 3.1 13.25
12/11/2020 4:30:00 AM 0.59 33.062 0.489 9.65 2.99 13.32
12/11/2020 4:45:00 AM 0.6 33.08 0.49 9.65 3.08 13.37
12/11/2020 5:00:00 AM 0.6 33.08 0.489 9.64 2.97 13.39
12/11/2020 5:15:00 AM 0.58 33.044 0.488 9.63 2.98 13.43
12/11/2020 5:30:00 AM 0.56 33.008 0.488 9.65 2.99 13.44
12/11/2020 5:45:00 AM 0.55 32.99 0.487 9.67 2.96 13.5
12/11/2020 6:00:00 AM 0.56 33.008 0.487 9.67 3.43 13.51
12/11/2020 6:15:00 AM 0.53 32.954 0.485 9.67 3.04 13.56
12/11/2020 6:30:00 AM 0.56 33.008 0.487 9.66 3.02 13.51
12/11/2020 6:45:00 AM 0.57 33.026 0.488 9.64 3.02 13.5
12/11/2020 7:00:00 AM 0.56 33.008 0.485 9.65 3.05 13.44
12/11/2020 7:15:00 AM 0.52 32.936 0.486 9.64 3.46 13.51
12/11/2020 7:30:00 AM 0.56 33.008 0.489 9.61 3.19 13.49
12/11/2020 7:45:00 AM 0.55 32.99 0.488 9.63 3.26 13.53
12/11/2020 8:00:00 AM 0.57 33.026 0.487 9.64 3.11 13.63
12/11/2020 8:15:00 AM 0.56 33.008 0.487 9.66 3.42 13.66
12/11/2020 8:30:00 AM 0.58 33.044 0.487 9.65 3.5 13.7
12/11/2020 8:45:00 AM 0.59 33.062 0.485 9.65 3.46 13.73
12/11/2020 9:00:00 AM 0.61 33.098 0.486 9.66 3.27 13.74
12/11/2020 9:15:00 AM 0.63 33.134 0.486 9.67 3.19 13.85
12/11/2020 9:30:00 AM 0.63 33.134 0.486 9.69 3.12 14.04
12/11/2020 9:45:00 AM 0.65 33.17 0.486 9.7 3.11 14.21
12/11/2020 10:00:00 AM 0.65 33.17 0.485 9.71 3.09 14.34
12/11/2020 10:15:00 AM 0.67 33.206 0.489 9.66 3.1 14.38
12/11/2020 10:30:00 AM 0.69 33.242 0.488 9.65 3.03 14.43
12/11/2020 10:45:00 AM 0.76 33.368 0.491 9.64 3.04 14.41
12/11/2020 11:00:00 AM 0.9 33.62 0.49 9.62 3.12 14.61
12/11/2020 11:15:00 AM 0.97 33.746 0.487 9.64 3.14 14.71
12/11/2020 11:30:00 AM 1.01 33.818 0.486 9.71 3.16 14.78
12/11/2020 11:45:00 AM 1.05 33.89 0.486 9.73 3.11 14.84
12/11/2020 12:00:00 PM 1.11 33.998 0.485 9.74 3.13 14.73
12/11/2020 12:15:00 PM 0.95 33.71 0.483 9.98 3.02 15.29
12/11/2020 12:30:00 PM 1.06 33.908 0.483 10.11 3.08 15.89
12/11/2020 12:45:00 PM 1.24 34.232 0.482 10.23 3.06 16.05
12/11/2020 1:00:00 PM 1.46 34.628 0.479 10.32 3.04 16.18
12/11/2020 1:15:00 PM 1.65 34.97 0.479 10.37 3 16.27
12/11/2020 1:30:00 PM 1.81 35.258 0.478 10.42 3.06 16.31
12/11/2020 1:45:00 PM 1.93 35.474 0.477 10.45 3.13 16.32
12/11/2020 2:00:00 PM 1.98 35.564 0.476 10.48 3.08 16.34
12/11/2020 2:15:00 PM 2 35.6 0.476 10.5 3.47 16.37
12/11/2020 2:30:00 PM 1.97 35.546 0.476 10.48 3.85 16.35
12/11/2020 2:45:00 PM 1.94 35.492 0.475 10.5 3.31 16.34
12/11/2020 3:00:00 PM 1.93 35.474 0.473 10.54 3.46 16.32
12/11/2020 3:15:00 PM 1.94 35.492 0.47 10.59 3.67 16.31
12/11/2020 3:30:00 PM 1.96 35.528 0.469 10.64 3.86 16.3
12/11/2020 3:45:00 PM 1.98 35.564 0.468 10.69 4.02 16.28
12/11/2020 4:00:00 PM 2.01 35.618 0.465 10.75 4.24 16.25
12/11/2020 4:15:00 PM 2.04 35.672 0.464 10.79 4.67 16.17
12/11/2020 4:30:00 PM 2.05 35.69 0.462 10.82 4.95 16.06
12/11/2020 4:45:00 PM 2.06 35.708 0.462 10.83 5.29 15.98
12/11/2020 5:00:00 PM 2.07 35.726 0.461 10.83 5.41 15.9
12/11/2020 5:15:00 PM 2.07 35.726 0.461 10.84 5.43 15.81
12/11/2020 5:30:00 PM 2.09 35.762 0.461 10.83 5.74 15.65
12/11/2020 5:45:00 PM 2.09 35.762 0.461 10.82 5.64 15.56
12/11/2020 6:00:00 PM 2.08 35.744 0.461 10.82 5.74 15.4
12/11/2020 6:15:00 PM 2.07 35.726 0.462 10.79 5.94 15.16
12/11/2020 6:30:00 PM 2.05 35.69 0.462 10.78 5.86 15.03
12/11/2020 6:45:00 PM 2.03 35.654 0.463 10.78 5.69 14.94
12/11/2020 7:00:00 PM 2.01 35.618 0.464 10.76 5.67 14.84
12/11/2020 7:15:00 PM 1.97 35.546 0.464 10.76 5.71 14.78
12/11/2020 7:30:00 PM 1.93 35.474 0.465 10.71 5.62 14.68
12/11/2020 7:45:00 PM 1.87 35.366 0.467 10.68 5.63 14.52
12/11/2020 8:00:00 PM 1.82 35.276 0.468 10.63 5.5 14.38
12/11/2020 8:15:00 PM 1.78 35.204 0.469 10.59 5.48 14.28
12/11/2020 8:30:00 PM 1.74 35.132 0.47 10.57 5.37 14.2
12/11/2020 8:45:00 PM 1.71 35.078 0.471 10.53 5.24 14.11
12/11/2020 9:00:00 PM 1.66 34.988 0.472 10.49 5.2 14.01
12/11/2020 9:15:00 PM 1.61 34.898 0.473 10.43 5.06 13.95
12/11/2020 9:30:00 PM 1.57 34.826 0.475 10.38 4.95 13.87
12/11/2020 9:45:00 PM 1.51 34.718 0.475 10.34 4.89 13.82
12/11/2020 10:00:00 PM 1.46 34.628 0.476 10.28 4.9 13.78
12/11/2020 10:15:00 PM 1.39 34.502 0.477 10.24 4.61 13.75
12/11/2020 10:30:00 PM 1.31 34.358 0.478 10.19 4.55 13.72
12/11/2020 10:45:00 PM 1.23 34.214 0.479 10.14 4.34 13.71
12/11/2020 11:00:00 PM 1.17 34.106 0.48 10.12 4.4 13.7
12/11/2020 11:15:00 PM 1.12 34.016 0.481 10.1 4.25 13.7
12/11/2020 11:30:00 PM 1.09 33.962 0.481 10.08 4.1 13.69
12/11/2020 11:45:00 PM 1.03 33.854 0.483 10.06 4.12 13.69
12/12/2020 12:00:00 AM 0.98 33.764 0.483 10.04 4.11 13.69
12/12/2020 12:15:00 AM 0.99 33.782 0.484 10.03 4 13.7
12/12/2020 12:30:00 AM 0.99 33.782 0.484 10.02 3.98 13.67
12/12/2020 12:45:00 AM 0.94 33.692 0.485 10 3.92 13.69
12/12/2020 1:00:00 AM 0.93 33.674 0.485 9.99 4 13.68
12/12/2020 1:15:00 AM 0.88 33.584 0.486 9.98 3.86 13.71
12/12/2020 1:30:00 AM 0.83 33.494 0.487 9.97 3.88 13.71
12/12/2020 1:45:00 AM 0.81 33.458 0.487 9.96 3.71 13.72
12/12/2020 2:00:00 AM 0.78 33.404 0.487 9.96 3.69 13.73
12/12/2020 2:15:00 AM 0.81 33.458 0.488 9.93 3.74 13.69
12/12/2020 2:30:00 AM 0.83 33.494 0.489 9.91 3.78 13.65
12/12/2020 2:45:00 AM 0.82 33.476 0.489 9.91 3.73 13.62
12/12/2020 3:00:00 AM 0.79 33.422 0.488 9.9 3.64 13.58
12/12/2020 3:15:00 AM 0.72 33.296 0.488 9.9 3.74 13.7
12/12/2020 3:30:00 AM 0.67 33.206 0.486 9.91 3.76 13.72
12/12/2020 3:45:00 AM 0.67 33.206 0.487 9.9 3.58 13.73
12/12/2020 4:00:00 AM 0.64 33.152 0.488 9.89 3.6 13.71
12/12/2020 4:15:00 AM 0.63 33.134 0.487 9.87 3.49 13.71
12/12/2020 4:30:00 AM 0.6 33.08 0.489 9.87 3.55 13.69
12/12/2020 4:45:00 AM 0.63 33.134 0.488 9.86 3.61 13.64
12/12/2020 5:00:00 AM 0.6 33.08 0.489 9.87 3.54 13.65
12/12/2020 5:15:00 AM 0.58 33.044 0.489 9.86 3.43 13.69
12/12/2020 5:30:00 AM 0.57 33.026 0.49 9.86 3.4 13.65
12/12/2020 5:45:00 AM 0.52 32.936 0.487 9.86 3.46 13.76
12/12/2020 6:00:00 AM 0.48 32.864 0.488 9.87 3.34 13.78
12/12/2020 6:15:00 AM 0.52 32.936 0.49 9.84 3.39 13.71
12/12/2020 6:30:00 AM 0.53 32.954 0.489 9.83 3.38 13.61
12/12/2020 6:45:00 AM 0.56 33.008 0.487 9.83 3.62 13.61
12/12/2020 7:00:00 AM 0.55 32.99 0.486 9.82 3.33 13.67
12/12/2020 7:15:00 AM 0.54 32.972 0.486 9.83 3.4 13.67
12/12/2020 7:30:00 AM 0.54 32.972 0.486 9.82 3.37 13.69
12/12/2020 7:45:00 AM 0.51 32.918 0.484 9.82 3.28 13.72
12/12/2020 8:00:00 AM 0.49 32.882 0.484 9.82 3.34 13.73
12/12/2020 8:15:00 AM 0.49 32.882 0.483 9.81 3.4 13.74
12/12/2020 8:30:00 AM 0.48 32.864 0.483 9.82 3.3 13.76
12/12/2020 8:45:00 AM 0.5 32.9 0.483 9.81 3.29 13.77
12/12/2020 9:00:00 AM 0.51 32.918 0.483 9.8 3.39 13.76
12/12/2020 9:15:00 AM 0.54 32.972 0.483 9.8 3.28 13.8
12/12/2020 9:30:00 AM 0.56 33.008 0.483 9.8 3.21 13.81
12/12/2020 9:45:00 AM 0.55 32.99 0.481 9.82 3.22 13.95
12/12/2020 10:00:00 AM 0.59 33.062 0.482 9.83 3.21 14.02
12/12/2020 10:15:00 AM 0.63 33.134 0.482 9.85 3.2 14.22
12/12/2020 10:30:00 AM 0.67 33.206 0.482 9.87 3.19 14.35
12/12/2020 10:45:00 AM 0.77 33.386 0.481 9.94 3.14 14.62
12/12/2020 11:00:00 AM 0.85 33.53 0.48 9.97 3.16 14.84
12/12/2020 11:15:00 AM 0.92 33.656 0.48 10.01 3.19 14.94
12/12/2020 11:30:00 AM 1.05 33.89 0.479 10.09 3.22 15.17
12/12/2020 11:45:00 AM 1.17 34.106 0.478 10.17 3.2 15.41
12/12/2020 12:00:00 PM 1.28 34.304 0.477 10.23 3.14 15.58
12/12/2020 12:15:00 PM 1.41 34.538 0.476 10.27 3.19 15.69
12/12/2020 12:30:00 PM 1.53 34.754 0.475 10.33 3.18 15.78
12/12/2020 12:45:00 PM 1.63 34.934 0.475 10.37 3.12 15.86
12/12/2020 1:00:00 PM 1.74 35.132 0.474 10.42 3.2 15.93
12/12/2020 1:15:00 PM 1.87 35.366 0.474 10.48 3.27 16.02
12/12/2020 1:30:00 PM 1.98 35.564 0.473 10.53 3.33 16.08
12/12/2020 1:45:00 PM 2.11 35.798 0.473 10.6 3.26 16.1
12/12/2020 2:00:00 PM 2.23 36.014 0.472 10.64 3.3 16.14
12/12/2020 2:15:00 PM 2.37 36.266 0.47 10.72 3.3 16.16
12/12/2020 2:30:00 PM 2.53 36.554 0.469 10.78 3.36 16.2
12/12/2020 2:45:00 PM 2.7 36.86 0.469 10.84 3.55 16.23
12/12/2020 3:00:00 PM 2.82 37.076 0.468 10.89 3.37 16.23
12/12/2020 3:15:00 PM 2.94 37.292 0.467 10.92 3.44 16.21
12/12/2020 3:30:00 PM 2.99 37.382 0.468 10.92 3.43 16.2
12/12/2020 3:45:00 PM 3.05 37.49 0.468 10.92 3.36 16.11
12/12/2020 4:00:00 PM 3.09 37.562 0.469 10.92 3.45 16.04
12/12/2020 4:15:00 PM 3.16 37.688 0.469 10.95 3.49 15.95
12/12/2020 4:30:00 PM 3.21 37.778 0.468 11.04 3.53 15.9
12/12/2020 4:45:00 PM 3.25 37.85 0.468 11.11 3.57 15.85
12/12/2020 5:00:00 PM 3.31 37.958 0.467 11.13 3.56 15.77
12/12/2020 5:15:00 PM 3.36 38.048 0.467 11.15 3.55 15.62
12/12/2020 5:30:00 PM 3.37 38.066 0.467 11.14 3.96 15.47
12/12/2020 5:45:00 PM 3.4 38.12 0.466 11.14 3.55 15.23
12/12/2020 6:00:00 PM 3.41 38.138 0.466 11.16 3.61 15.03
12/12/2020 6:15:00 PM 3.44 38.192 0.466 11.14 3.84 14.81
12/12/2020 6:30:00 PM 3.45 38.21 0.466 11.16 3.77 14.64
12/12/2020 6:45:00 PM 3.48 38.264 0.467 11.13 3.69 14.42
12/12/2020 7:00:00 PM 3.51 38.318 0.467 11.11 3.92 14.2
12/12/2020 7:15:00 PM 3.52 38.336 0.467 11.08 3.74 14.08
12/12/2020 7:30:00 PM 3.54 38.372 0.468 11.08 3.76 13.91
12/12/2020 7:45:00 PM 3.53 38.354 0.468 11.02 3.83 13.83
12/12/2020 8:00:00 PM 3.53 38.354 0.469 10.99 3.85 13.75
12/12/2020 8:15:00 PM 3.54 38.372 0.469 10.95 3.82 13.63
12/12/2020 8:30:00 PM 3.53 38.354 0.469 10.91 3.82 13.51
12/12/2020 8:45:00 PM 3.49 38.282 0.47 10.86 3.84 13.43
12/12/2020 9:00:00 PM 3.44 38.192 0.471 10.78 3.87 13.34
12/12/2020 9:15:00 PM 3.38 38.084 0.471 10.72 4 13.27
12/12/2020 9:30:00 PM 3.32 37.976 0.471 10.72 3.81 13.24
12/12/2020 9:45:00 PM 3.29 37.922 0.472 10.68 3.83 13.22
12/12/2020 10:00:00 PM 3.26 37.868 0.472 10.6 3.74 13.17
12/12/2020 10:15:00 PM 3.21 37.778 0.473 10.55 3.78 13.09
12/12/2020 10:30:00 PM 3.17 37.706 0.474 10.45 3.64 13.02
12/12/2020 10:45:00 PM 3.14 37.652 0.475 10.38 3.65 12.94
12/12/2020 11:00:00 PM 3.12 37.616 0.476 10.33 3.73 12.89
12/12/2020 11:15:00 PM 3.12 37.616 0.477 10.27 3.87 12.85
12/12/2020 11:30:00 PM 3.12 37.616 0.477 10.22 3.57 12.82
12/12/2020 11:45:00 PM 3.1 37.58 0.477 10.21 3.51 12.82
12/13/2020 12:00:00 AM 3.08 37.544 0.477 10.19 3.61 12.8
12/13/2020 12:15:00 AM 3.05 37.49 0.477 10.2 3.52 12.8
12/13/2020 12:30:00 AM 3 37.4 0.476 10.19 3.4 12.82
12/13/2020 12:45:00 AM 2.93 37.274 0.476 10.19 3.43 12.82
12/13/2020 1:00:00 AM 2.85 37.13 0.476 10.16 3.37 12.82
12/13/2020 1:15:00 AM 2.79 37.022 0.476 10.14 3.31 12.82
12/13/2020 1:30:00 AM 2.77 36.986 0.476 10.1 3.39 12.81
12/13/2020 1:45:00 AM 2.75 36.95 0.477 10.08 3.34 12.8
12/13/2020 2:00:00 AM 2.74 36.932 0.477 10.05 3.3 12.77
12/13/2020 2:15:00 AM 2.74 36.932 0.478 10.03 3.3 12.73
12/13/2020 2:30:00 AM 2.76 36.968 0.479 10.02 3.34 12.73
12/13/2020 2:45:00 AM 2.79 37.022 0.479 9.99 4.92 12.7
12/13/2020 3:00:00 AM 2.83 37.094 0.479 9.99 4.14 12.69
12/13/2020 3:15:00 AM 2.89 37.202 0.478 9.98 3.4 12.7
12/13/2020 3:30:00 AM 2.92 37.256 0.478 9.98 3.27 12.69
12/13/2020 3:45:00 AM 2.96 37.328 0.478 9.97 3.28 12.67
12/13/2020 4:00:00 AM 2.95 37.31 0.478 9.97 3.16 12.64
12/13/2020 4:15:00 AM 2.93 37.274 0.479 9.95 3.21 12.66
12/13/2020 4:30:00 AM 2.91 37.238 0.479 9.95 3.37 12.67
12/13/2020 4:45:00 AM 2.89 37.202 0.479 9.94 3.22 12.66
12/13/2020 5:00:00 AM 2.88 37.184 0.479 9.95 3.22 12.65
12/13/2020 5:15:00 AM 2.88 37.184 0.479 9.96 3.34 12.65
12/13/2020 5:30:00 AM 2.88 37.184 0.479 9.93 3.22 12.65
12/13/2020 5:45:00 AM 2.89 37.202 0.48 9.93 3.16 12.66
12/13/2020 6:00:00 AM 2.9 37.22 0.48 9.94 3.11 12.64
12/13/2020 6:15:00 AM 2.9 37.22 0.479 9.92 3.22 12.63
12/13/2020 6:30:00 AM 2.92 37.256 0.479 9.92 3.1 12.63
12/13/2020 6:45:00 AM 2.93 37.274 0.479 9.93 3.12 12.63
12/13/2020 7:00:00 AM 2.94 37.292 0.479 9.95 3.17 12.63
12/13/2020 7:15:00 AM 2.95 37.31 0.479 9.95 3.28 12.62
12/13/2020 7:30:00 AM 2.96 37.328 0.48 9.94 3.27 12.56
12/13/2020 7:45:00 AM 2.99 37.382 0.481 9.93 3.36 12.55
12/13/2020 8:00:00 AM 3 37.4 0.482 9.91 3.33 12.51
12/13/2020 8:15:00 AM 3.02 37.436 0.482 9.91 3.28 12.52
12/13/2020 8:30:00 AM 3.03 37.454 0.482 9.9 3.23 12.51
12/13/2020 8:45:00 AM 3.04 37.472 0.482 9.89 3.17 12.5
12/13/2020 9:00:00 AM 3.05 37.49 0.482 9.89 3.44 12.54
12/13/2020 9:15:00 AM 3.11 37.598 0.481 9.9 3.13 12.55
12/13/2020 9:30:00 AM 3.14 37.652 0.481 9.91 3.18 12.56
12/13/2020 9:45:00 AM 3.18 37.724 0.481 9.92 3.19 12.6
12/13/2020 10:00:00 AM 3.18 37.724 0.481 9.93 3.17 12.6
12/13/2020 10:15:00 AM 3.22 37.796 0.48 9.94 3.07 12.73
12/13/2020 10:30:00 AM 3.27 37.886 0.48 9.94 3.07 12.83
12/13/2020 10:45:00 AM 3.32 37.976 0.479 9.99 3.09 12.97
12/13/2020 11:00:00 AM 3.38 38.084 0.478 10.05 3.07 13.21
12/13/2020 11:15:00 AM 3.41 38.138 0.479 10.06 3.17 13.31
12/13/2020 11:30:00 AM 3.47 38.246 0.479 10.07 3.03 13.46
12/13/2020 11:45:00 AM 3.5 38.3 0.479 10.1 3.07 13.55
12/13/2020 12:00:00 PM 3.56 38.408 0.479 10.11 3.07 13.75
12/13/2020 12:15:00 PM 3.64 38.552 0.478 10.2 2.97 13.94
12/13/2020 12:30:00 PM 3.71 38.678 0.477 10.26 2.99 14.14
12/13/2020 12:45:00 PM 3.73 38.714 0.476 10.28 2.98 14.2
12/13/2020 1:00:00 PM 3.71 38.678 0.477 10.28 3.06 14.1
12/13/2020 1:15:00 PM 3.72 38.696 0.477 10.3 2.95 14.09
12/13/2020 1:30:00 PM 3.73 38.714 0.477 10.29 3 14.12
12/13/2020 1:45:00 PM 3.76 38.768 0.477 10.33 2.97 14.14
12/13/2020 2:00:00 PM 3.8 38.84 0.476 10.34 2.9 14.27
12/13/2020 2:15:00 PM 3.82 38.876 0.476 10.35 2.94 14.33
12/13/2020 2:30:00 PM 3.84 38.912 0.476 10.36 2.94 14.37
12/13/2020 2:45:00 PM 3.89 39.002 0.475 10.39 2.88 14.42
12/13/2020 3:00:00 PM 4.1 39.38 0.473 10.53 2.95 14.71
12/13/2020 3:15:00 PM 4.2 39.56 0.472 10.61 2.92 14.89
12/13/2020 3:30:00 PM 4.31 39.758 0.471 10.71 3.06 15.04
12/13/2020 3:45:00 PM 4.35 39.83 0.47 10.75 3.08 15.1
12/13/2020 4:00:00 PM 4.4 39.92 0.469 10.81 3.01 15.13
12/13/2020 4:15:00 PM 4.4 39.92 0.468 10.84 2.99 15.15
12/13/2020 4:30:00 PM 4.39 39.902 0.467 10.92 2.98 15.19
12/13/2020 4:45:00 PM 4.37 39.866 0.465 10.98 2.98 15.17
12/13/2020 5:00:00 PM 4.37 39.866 0.465 10.97 3.06 15.14
12/13/2020 5:15:00 PM 4.34 39.812 0.464 10.97 3 15.06
12/13/2020 5:30:00 PM 4.3 39.74 0.464 11.01 4.65 14.98
12/13/2020 5:45:00 PM 4.29 39.722 0.463 11.01 2.96 14.86
12/13/2020 6:00:00 PM 4.26 39.668 0.463 10.99 3.04 14.75
12/13/2020 6:15:00 PM 4.23 39.614 0.463 10.97 3.03 14.65
12/13/2020 6:30:00 PM 4.22 39.596 0.463 10.92 2.97 14.53
12/13/2020 6:45:00 PM 4.19 39.542 0.463 10.89 2.97 14.37
12/13/2020 7:00:00 PM 4.14 39.452 0.464 10.88 2.99 14.08
12/13/2020 7:15:00 PM 4.1 39.38 0.464 10.88 2.98 13.89
12/13/2020 7:30:00 PM 4.06 39.308 0.464 10.86 3.04 13.7
12/13/2020 7:45:00 PM 4.04 39.272 0.465 10.83 3.32 13.59
12/13/2020 8:00:00 PM 4.02 39.236 0.465 10.82 3.34 13.56
12/13/2020 8:15:00 PM 4 39.2 0.465 10.78 3.35 13.51
12/13/2020 8:30:00 PM 3.98 39.164 0.467 10.77 3.29 13.35
12/13/2020 8:45:00 PM 3.97 39.146 0.468 10.73 3.11 13.28
12/13/2020 9:00:00 PM 3.94 39.092 0.468 10.72 3.24 13.24
12/13/2020 9:15:00 PM 3.91 39.038 0.469 10.66 3.11 13.17
12/13/2020 9:30:00 PM 3.9 39.02 0.469 10.62 3.13 13.08
12/13/2020 9:45:00 PM 3.9 39.02 0.469 10.64 3.06 13.13
12/13/2020 10:00:00 PM 3.81 38.858 0.47 10.57 3.17 13.06
12/13/2020 10:15:00 PM 3.77 38.786 0.471 10.52 3.33 12.94
12/13/2020 10:30:00 PM 3.77 38.786 0.472 10.51 3.18 12.93
12/13/2020 10:45:00 PM 3.71 38.678 0.471 10.46 3.21 12.88
12/13/2020 11:00:00 PM 3.65 38.57 0.472 10.37 3.04 12.84
12/13/2020 11:15:00 PM 3.63 38.534 0.472 10.32 3.03 12.8
12/13/2020 11:30:00 PM 3.58 38.444 0.472 10.27 3.08 12.76
12/13/2020 11:45:00 PM 3.53 38.354 0.472 10.21 3.09 12.73
12/14/2020 12:00:00 AM 3.52 38.336 0.473 10.21 3.19 12.7
12/14/2020 12:15:00 AM 3.48 38.264 0.473 10.17 3.16 12.7
12/14/2020 12:30:00 AM 3.48 38.264 0.473 10.19 3.2 12.69
12/14/2020 12:45:00 AM 3.42 38.156 0.473 10.13 3.01 12.69
12/14/2020 1:00:00 AM 3.39 38.102 0.473 10.09 3.17 12.66
12/14/2020 1:15:00 AM 3.36 38.048 0.473 10.05 3.13 12.66
12/14/2020 1:30:00 AM 3.34 38.012 0.473 10.07 3.11 12.65
12/14/2020 1:45:00 AM 3.31 37.958 0.473 10.07 3.02 12.66
12/14/2020 2:00:00 AM 3.29 37.922 0.473 10.05 3.29 12.65
12/14/2020 2:15:00 AM 3.27 37.886 0.473 10.03 3.15 12.64
12/14/2020 2:30:00 AM 3.25 37.85 0.473 9.99 3.06 12.64
12/14/2020 2:45:00 AM 3.23 37.814 0.473 10.01 2.98 12.63
12/14/2020 3:00:00 AM 3.21 37.778 0.473 10.01 3.12 12.63
12/14/2020 3:15:00 AM 3.2 37.76 0.473 10 2.99 12.61
12/14/2020 3:30:00 AM 3.19 37.742 0.473 9.98 3.05 12.61
12/14/2020 3:45:00 AM 3.18 37.724 0.473 9.95 3.03 12.61
12/14/2020 4:00:00 AM 3.16 37.688 0.474 9.97 3.02 12.6
12/14/2020 4:15:00 AM 3.15 37.67 0.474 9.94 3.12 12.6
12/14/2020 4:30:00 AM 3.14 37.652 0.474 9.94 2.96 12.6
12/14/2020 4:45:00 AM 3.13 37.634 0.474 9.95 2.97 12.61
12/14/2020 5:00:00 AM 3.11 37.598 0.474 9.94 2.98 12.59
12/14/2020 5:15:00 AM 3.1 37.58 0.475 9.92 3.02 12.6
12/14/2020 5:30:00 AM 3.08 37.544 0.475 9.91 3.02 12.58
12/14/2020 5:45:00 AM 3.07 37.526 0.475 9.89 2.97 12.59
12/14/2020 6:00:00 AM 3.07 37.526 0.475 9.9 2.96 12.59
12/14/2020 6:15:00 AM 3.06 37.508 0.475 9.89 2.97 12.57
12/14/2020 6:30:00 AM 3.03 37.454 0.476 9.87 3.09 12.59
12/14/2020 6:45:00 AM 3.03 37.454 0.476 9.88 2.99 12.58
12/14/2020 7:00:00 AM 3.01 37.418 0.476 9.88 3.02 12.59
12/14/2020 7:15:00 AM 3 37.4 0.476 9.87 3.05 12.59
12/14/2020 7:30:00 AM 2.97 37.346 0.476 9.9 3.03 12.6
12/14/2020 7:45:00 AM 2.94 37.292 0.476 9.89 3.02 12.61
12/14/2020 8:00:00 AM 2.9 37.22 0.476 9.92 2.99 12.63
12/14/2020 8:15:00 AM 2.86 37.148 0.476 9.93 2.98 12.63
12/14/2020 8:30:00 AM 2.84 37.112 0.476 9.9 3.02 12.64
12/14/2020 8:45:00 AM 2.8 37.04 0.476 9.89 3.02 12.65
12/14/2020 9:00:00 AM 2.78 37.004 0.476 9.86 2.99 12.67
12/14/2020 9:15:00 AM 2.75 36.95 0.476 9.84 3.1 12.69
12/14/2020 9:30:00 AM 2.74 36.932 0.476 9.83 2.95 12.75
12/14/2020 9:45:00 AM 2.73 36.914 0.476 9.87 2.99 12.78
12/14/2020 10:00:00 AM 2.73 36.914 0.476 9.86 2.92 12.81
12/14/2020 10:15:00 AM 2.75 36.95 0.477 9.89 2.9 12.97
12/14/2020 10:30:00 AM 2.77 36.986 0.477 9.93 2.92 13.09
12/14/2020 10:45:00 AM 2.82 37.076 0.477 9.92 2.95 13.19
12/14/2020 11:00:00 AM 2.88 37.184 0.478 9.95 2.95 13.53
12/14/2020 11:15:00 AM 2.93 37.274 0.478 10.06 2.93 13.82
12/14/2020 11:30:00 AM 2.97 37.346 0.479 10.09 3 14.11
12/14/2020 11:45:00 AM 2.98 37.364 0.479 10.1 2.86 14.15
12/14/2020 12:00:00 PM 3.02 37.436 0.479 10.15 2.98 14.26
12/14/2020 12:15:00 PM 3.03 37.454 0.479 10.15 2.99 14.27
12/14/2020 12:30:00 PM 3.04 37.472 0.479 10.2 2.96 14.29
12/14/2020 12:45:00 PM 3.05 37.49 0.479 10.27 2.88 14.32
12/14/2020 1:00:00 PM 3.06 37.508 0.479 10.29 2.99 14.32
12/14/2020 1:15:00 PM 3.11 37.598 0.48 10.27 2.95 14.31
12/14/2020 1:30:00 PM 3.1 37.58 0.479 10.41 2.95 14.47
12/14/2020 1:45:00 PM 3.11 37.598 0.479 10.43 2.89 14.55
12/14/2020 2:00:00 PM 3.12 37.616 0.479 10.4 2.93 14.53
12/14/2020 2:15:00 PM 3.14 37.652 0.479 10.44 2.96 14.53
12/14/2020 2:30:00 PM 3.15 37.67 0.479 10.45 2.92 14.56
12/14/2020 2:45:00 PM 3.16 37.688 0.479 10.42 2.96 14.6
12/14/2020 3:00:00 PM 3.22 37.796 0.478 10.55 2.92 14.77
12/14/2020 3:15:00 PM 3.25 37.85 0.477 10.56 2.86 14.87
12/14/2020 3:30:00 PM 3.25 37.85 0.477 10.56 2.87 14.89
12/14/2020 3:45:00 PM 3.23 37.814 0.477 10.58 2.9 14.88
12/14/2020 4:00:00 PM 3.25 37.85 0.477 10.64 2.92 14.93
12/14/2020 4:15:00 PM 3.26 37.868 0.476 10.67 2.99 14.94
12/14/2020 4:30:00 PM 3.26 37.868 0.476 10.66 2.91 14.93
12/14/2020 4:45:00 PM 3.24 37.832 0.474 10.71 2.94 14.9
12/14/2020 5:00:00 PM 3.23 37.814 0.474 10.69 2.86 14.86
12/14/2020 5:15:00 PM 3.18 37.724 0.474 10.67 2.83 14.8
12/14/2020 5:30:00 PM 3.16 37.688 0.474 10.69 2.88 14.72
12/14/2020 5:45:00 PM 3.18 37.724 0.475 10.64 2.94 14.68
12/14/2020 6:00:00 PM 3.2 37.76 0.476 10.63 3.05 14.66
12/14/2020 6:15:00 PM 3.24 37.832 0.477 10.59 2.88 14.68
12/14/2020 6:30:00 PM 3.25 37.85 0.476 10.62 2.98 14.68
12/14/2020 6:45:00 PM 3.22 37.796 0.475 10.65 2.98 14.66
12/14/2020 7:00:00 PM 3.18 37.724 0.474 10.67 2.92 14.64
12/14/2020 7:15:00 PM 3.12 37.616 0.474 10.64 3.33 14.57
12/14/2020 7:30:00 PM 3.12 37.616 0.474 10.61 2.9 14.55
12/14/2020 7:45:00 PM 3.11 37.598 0.474 10.62 3.09 14.51
12/14/2020 8:00:00 PM 3.09 37.562 0.475 10.6 2.97 14.46
12/14/2020 8:15:00 PM 3.05 37.49 0.475 10.61 3.16 14.4
12/14/2020 8:30:00 PM 3.02 37.436 0.475 10.58 3.01 14.35
12/14/2020 8:45:00 PM 2.87 37.166 0.476 10.58 3.26 14.2
12/14/2020 9:00:00 PM 2.73 36.914 0.478 10.48 3.28 13.99
12/14/2020 9:15:00 PM 2.82 37.076 0.477 10.49 3.11 14.05
12/14/2020 9:30:00 PM 2.84 37.112 0.476 10.5 3.1 14.12
12/14/2020 9:45:00 PM 2.81 37.058 0.477 10.5 2.93 14.05
12/14/2020 10:00:00 PM 2.66 36.788 0.478 10.42 2.99 13.83
12/14/2020 10:15:00 PM 2.43 36.374 0.48 10.28 3.39 13.58
12/14/2020 10:30:00 PM 2.75 36.95 0.477 10.41 3.22 13.89
12/14/2020 10:45:00 PM 2.77 36.986 0.478 10.43 3.21 13.92
12/14/2020 11:00:00 PM 2.67 36.806 0.478 10.42 3.06 13.83
12/14/2020 11:15:00 PM 2.46 36.428 0.48 10.34 3.31 13.63
12/14/2020 11:30:00 PM 2.37 36.266 0.481 10.25 3.2 13.49
12/14/2020 11:45:00 PM 2.42 36.356 0.481 10.27 3.22 13.51
12/15/2020 12:00:00 AM 2.07 35.726 0.482 10.16 3.15 13.36
12/15/2020 12:15:00 AM 1.68 35.024 0.485 10 3.24 13.28
12/15/2020 12:30:00 AM 1.81 35.258 0.484 10.01 3.21 13.31
12/15/2020 12:45:00 AM 2.19 35.942 0.481 10.17 3.22 13.42
12/15/2020 1:00:00 AM 2.27 36.086 0.481 10.24 3.75 13.43
12/15/2020 1:15:00 AM 2.14 35.852 0.481 10.21 3.28 13.39
12/15/2020 1:30:00 AM 2.17 35.906 0.482 10.17 3.49 13.33
12/15/2020 1:45:00 AM 2.28 36.104 0.484 10.16 3.49 13.22
12/15/2020 2:00:00 AM 2.25 36.05 0.485 10.12 3.29 13.2
12/15/2020 2:15:00 AM 2.16 35.888 0.485 10.06 3.31 13.18
12/15/2020 2:30:00 AM 2.27 36.086 0.486 10.1 3.5 13.21
12/15/2020 2:45:00 AM 2.25 36.05 0.483 10.14 3.31 13.24
12/15/2020 3:00:00 AM 2.28 36.104 0.485 10.15 3.45 13.23
12/15/2020 3:15:00 AM 2.23 36.014 0.484 10.13 3.22 13.22
12/15/2020 3:30:00 AM 2.18 35.924 0.483 10.08 3.3 13.24
12/15/2020 3:45:00 AM 2.17 35.906 0.483 10.03 3.31 13.21
12/15/2020 4:00:00 AM 2.12 35.816 0.484 10.03 3.28 13.23
12/15/2020 4:15:00 AM 2.14 35.852 0.485 10.02 3.21 13.22
12/15/2020 4:30:00 AM 2.11 35.798 0.484 9.99 3.27 13.2
12/15/2020 4:45:00 AM 2.04 35.672 0.485 9.98 3.27 13.13
12/15/2020 5:00:00 AM 1.99 35.582 0.486 9.97 3.24 13.15
12/15/2020 5:15:00 AM 1.92 35.456 0.486 9.91 3.23 13.09
12/15/2020 5:30:00 AM 1.84 35.312 0.487 9.89 3.26 13.05
12/15/2020 5:45:00 AM 1.85 35.33 0.486 9.88 3.31 13.04
12/15/2020 6:00:00 AM 1.87 35.366 0.489 9.85 3.51 12.94
12/15/2020 6:15:00 AM 1.82 35.276 0.488 9.85 3.42 12.9
12/15/2020 6:30:00 AM 1.8 35.24 0.49 9.84 3.45 12.87
12/15/2020 6:45:00 AM 1.78 35.204 0.49 9.81 3.37 12.84
12/15/2020 7:00:00 AM 1.75 35.15 0.493 9.79 3.42 12.82
12/15/2020 7:15:00 AM 1.68 35.024 0.492 9.77 3.56 12.78
12/15/2020 7:30:00 AM 1.6 34.88 0.491 9.78 3.78 12.78
12/15/2020 7:45:00 AM 1.55 34.79 0.491 9.75 3.33 12.74
12/15/2020 8:00:00 AM 1.46 34.628 0.493 9.71 3.15 12.78
12/15/2020 8:15:00 AM 1.42 34.556 0.493 9.65 3.29 12.73
12/15/2020 8:30:00 AM 1.38 34.484 0.494 9.64 3.18 12.8
12/15/2020 8:45:00 AM 1.4 34.52 0.495 9.64 3.09 12.82
12/15/2020 9:00:00 AM 1.42 34.556 0.497 9.63 3.2 12.83
12/15/2020 9:15:00 AM 1.4 34.52 0.495 9.61 3.45 12.86
12/15/2020 9:30:00 AM 1.33 34.394 0.497 9.62 3.04 12.9
12/15/2020 9:45:00 AM 1.3 34.34 0.498 9.62 3.06 13.13
12/15/2020 10:00:00 AM 1.3 34.34 0.498 9.64 3.07 13.35
12/15/2020 10:15:00 AM 1.31 34.358 0.497 9.64 2.97 13.48
12/15/2020 10:30:00 AM 1.33 34.394 0.498 9.63 3.02 13.59
12/15/2020 10:45:00 AM 1.38 34.484 0.499 9.6 3.12 13.71
12/15/2020 11:00:00 AM 1.4 34.52 0.497 9.65 3.14 14.07
12/15/2020 11:15:00 AM 1.43 34.574 0.492 9.66 3.21 14.1
12/15/2020 11:30:00 AM 1.52 34.736 0.493 9.69 3.22 14.23
12/15/2020 11:45:00 AM 1.46 34.628 0.492 9.71 3.05 14.31
12/15/2020 12:00:00 PM 1.37 34.466 0.494 9.77 2.95 14.67
12/15/2020 12:15:00 PM 1.28 34.304 0.492 9.78 2.93 14.95
12/15/2020 12:30:00 PM 1.29 34.322 0.492 9.82 2.91 15.3
12/15/2020 12:45:00 PM 1.28 34.304 0.492 9.9 2.93 15.46
12/15/2020 1:00:00 PM 1.29 34.322 0.492 9.96 2.94 15.69
12/15/2020 1:15:00 PM 1.25 34.25 0.491 10.01 2.82 15.85
12/15/2020 1:30:00 PM 1.26 34.268 0.49 10.02 2.85 15.97
12/15/2020 1:45:00 PM 1.27 34.286 0.49 10.04 2.93 16.1
12/15/2020 2:00:00 PM 1.29 34.322 0.488 10.07 2.86 16.17
12/15/2020 2:15:00 PM 1.24 34.232 0.489 10.14 2.86 16.17
12/15/2020 2:30:00 PM 1.25 34.25 0.489 10.17 2.88 16.16
12/15/2020 2:45:00 PM 1.27 34.286 0.49 10.15 2.77 16.26
12/15/2020 3:00:00 PM 1.3 34.34 0.49 10.14 2.78 16.2
12/15/2020 3:15:00 PM 1.37 34.466 0.491 10.12 2.88 16.25
12/15/2020 3:30:00 PM 1.41 34.538 0.491 10.13 2.93 16.33
12/15/2020 3:45:00 PM 1.39 34.502 0.491 10.18 2.84 16.35
12/15/2020 4:00:00 PM 1.43 34.574 0.494 10.15 2.86 16.37
12/15/2020 4:15:00 PM 1.51 34.718 0.494 10.11 2.85 16.41
12/15/2020 4:30:00 PM 1.51 34.718 0.493 10.12 2.96 16.59
12/15/2020 4:45:00 PM 1.4 34.52 0.488 10.2 2.89 16.51
12/15/2020 5:00:00 PM 1.56 34.808 0.493 10.12 2.92 16.54
12/15/2020 5:15:00 PM 1.69 35.042 0.496 10.04 2.91 16.74
12/15/2020 5:30:00 PM 1.71 35.078 0.495 10.05 2.96 16.86
12/15/2020 5:45:00 PM 1.78 35.204 0.496 10.04 2.87 16.97
12/15/2020 6:00:00 PM 1.78 35.204 0.498 10.03 2.95 16.97
12/15/2020 6:15:00 PM 1.79 35.222 0.499 10.06 3.13 16.87
12/15/2020 6:30:00 PM 1.73 35.114 0.498 10.12 3.06 16.77
12/15/2020 6:45:00 PM 1.68 35.024 0.499 10.13 3.06 16.7
12/15/2020 7:00:00 PM 1.67 35.006 0.5 10.13 3.21 16.71
12/15/2020 7:15:00 PM 1.66 34.988 0.499 10.1 2.97 16.67
12/15/2020 7:30:00 PM 1.5 34.7 0.499 10.12 3.06 16.46
12/15/2020 7:45:00 PM 1.53 34.754 0.496 10.15 3.08 16.33
12/15/2020 8:00:00 PM 1.56 34.808 0.499 10.12 3.1 16.32
12/15/2020 8:15:00 PM 1.53 34.754 0.497 10.11 2.92 16.28
12/15/2020 8:30:00 PM 1.47 34.646 0.497 10.11 3 16.25
12/15/2020 8:45:00 PM 1.4 34.52 0.496 10.16 3.08 16.08
12/15/2020 9:00:00 PM 1.36 34.448 0.496 10.19 3.06 15.93
12/15/2020 9:15:00 PM 1.32 34.376 0.494 10.18 3.09 15.77
12/15/2020 9:30:00 PM 1.29 34.322 0.493 10.21 2.95 15.62
12/15/2020 9:45:00 PM 1.27 34.286 0.492 10.19 2.88 15.53
12/15/2020 10:00:00 PM 1.24 34.232 0.493 10.18 2.89 15.37
12/15/2020 10:15:00 PM 1.15 34.07 0.49 10.18 2.88 15.19
12/15/2020 10:30:00 PM 1.18 34.124 0.491 10.16 2.91 15.17
12/15/2020 10:45:00 PM 1.2 34.16 0.49 10.16 2.91 15.17
12/15/2020 11:00:00 PM 1.17 34.106 0.49 10.16 2.86 15.06
12/15/2020 11:15:00 PM 1.1 33.98 0.49 10.14 2.88 14.9
12/15/2020 11:30:00 PM 1.03 33.854 0.492 10.07 2.94 14.69
12/15/2020 11:45:00 PM 0.97 33.746 0.491 10.04 2.93 14.56
12/16/2020 12:00:00 AM 0.93 33.674 0.491 10.03 2.92 14.47
12/16/2020 12:15:00 AM 0.93 33.674 0.493 9.97 2.91 14.38
12/16/2020 12:30:00 AM 0.97 33.746 0.496 9.95 2.88 14.32
12/16/2020 12:45:00 AM 0.92 33.656 0.496 9.91 3.06 14.19
12/16/2020 1:00:00 AM 0.88 33.584 0.499 9.86 3.05 14.11
12/16/2020 1:15:00 AM 0.86 33.548 0.5 9.83 3 14.03
12/16/2020 1:30:00 AM 0.83 33.494 0.499 9.82 3 14
12/16/2020 1:45:00 AM 0.83 33.494 0.499 9.8 3.01 13.99
12/16/2020 2:00:00 AM 0.84 33.512 0.499 9.78 3.1 13.95
12/16/2020 2:15:00 AM 0.87 33.566 0.501 9.76 3.01 13.89
12/16/2020 2:30:00 AM 0.88 33.584 0.503 9.73 3.19 13.84
12/16/2020 2:45:00 AM 0.88 33.584 0.503 9.72 3.12 13.82
12/16/2020 3:00:00 AM 0.86 33.548 0.504 9.7 3.13 13.78
12/16/2020 3:15:00 AM 0.87 33.566 0.504 9.7 3.05 13.76
12/16/2020 3:30:00 AM 0.86 33.548 0.504 9.67 3.02 13.73
12/16/2020 3:45:00 AM 0.86 33.548 0.504 9.65 3.03 13.7
12/16/2020 4:00:00 AM 0.87 33.566 0.505 9.65 3.05 13.65
12/16/2020 4:15:00 AM 0.87 33.566 0.506 9.63 3 13.61
12/16/2020 4:30:00 AM 0.87 33.566 0.507 9.62 3.07 13.57
12/16/2020 4:45:00 AM 0.87 33.566 0.505 9.62 2.98 13.57
12/16/2020 5:00:00 AM 0.87 33.566 0.507 9.6 3.04 13.53
12/16/2020 5:15:00 AM 0.87 33.566 0.507 9.59 3.02 13.52
12/16/2020 5:30:00 AM 0.91 33.638 0.507 9.59 3.05 13.47
12/16/2020 5:45:00 AM 0.85 33.53 0.507 9.58 3.05 13.51
12/16/2020 6:00:00 AM 0.88 33.584 0.508 9.57 3.08 13.48
12/16/2020 6:15:00 AM 0.91 33.638 0.509 9.54 3.13 13.4
12/16/2020 6:30:00 AM 0.89 33.602 0.511 9.55 3.14 13.37
12/16/2020 6:45:00 AM 0.89 33.602 0.511 9.55 3.09 13.35
12/16/2020 7:00:00 AM 0.91 33.638 0.513 9.53 3.2 13.29
12/16/2020 7:15:00 AM 0.88 33.584 0.511 9.52 3.28 13.28
12/16/2020 7:30:00 AM 0.86 33.548 0.513 9.52 3.17 13.33
12/16/2020 7:45:00 AM 0.87 33.566 0.514 9.5 3.16 13.35
12/16/2020 8:00:00 AM 0.82 33.476 0.516 9.49 3.19 13.34
12/16/2020 8:15:00 AM 0.85 33.53 0.517 9.48 3.17 13.29
12/16/2020 8:30:00 AM 0.84 33.512 0.517 9.48 3.1 13.26
12/16/2020 8:45:00 AM 0.85 33.53 0.518 9.46 3.16 13.25
12/16/2020 9:00:00 AM 0.86 33.548 0.518 9.48 3.1 13.27
12/16/2020 9:15:00 AM 0.87 33.566 0.519 9.49 3.12 13.3
12/16/2020 9:30:00 AM 0.88 33.584 0.518 9.48 3.08 13.3
12/16/2020 9:45:00 AM 0.9 33.62 0.519 9.47 3.07 13.32
12/16/2020 10:00:00 AM 0.89 33.602 0.521 9.46 3.15 13.39
12/16/2020 10:15:00 AM 0.95 33.71 0.522 9.46 3.09 13.34
12/16/2020 10:30:00 AM 0.91 33.638 0.522 9.46 3.1 13.51
12/16/2020 10:45:00 AM 0.95 33.71 0.524 9.44 3.11 13.67
12/16/2020 11:00:00 AM 0.98 33.764 0.523 9.44 3.05 13.89
12/16/2020 11:15:00 AM 0.99 33.782 0.524 9.46 3.05 14.2
12/16/2020 11:30:00 AM 1.04 33.872 0.525 9.48 3.05 14.38
12/16/2020 11:45:00 AM 1.07 33.926 0.524 9.49 3.07 14.36
12/16/2020 12:00:00 PM 1.09 33.962 0.523 9.47 3.05 14.23
12/16/2020 12:15:00 PM 1.12 34.016 0.522 9.47 3.07 14.21
12/16/2020 12:30:00 PM 1.13 34.034 0.524 9.48 3.11 14.28
12/16/2020 12:45:00 PM 1.15 34.07 0.523 9.48 3.06 14.39
12/16/2020 1:00:00 PM 1.13 34.034 0.523 9.51 3.11 14.55
12/16/2020 1:15:00 PM 1.1 33.98 0.526 9.53 3.09 14.65
12/16/2020 1:30:00 PM 1.1 33.98 0.527 9.52 3.06 14.66
12/16/2020 1:45:00 PM 1.1 33.98 0.525 9.53 3.17 14.76
12/16/2020 2:00:00 PM 1.07 33.926 0.525 9.55 3.2 14.9
12/16/2020 2:15:00 PM 1.06 33.908 0.526 9.56 3.09 14.96
12/16/2020 2:30:00 PM 1.03 33.854 0.527 9.59 3.04 15.11
12/16/2020 2:45:00 PM 0.99 33.782 0.527 9.6 3.08 15.24
12/16/2020 3:00:00 PM 1.01 33.818 0.527 9.59 3 15.31
12/16/2020 3:15:00 PM 0.95 33.71 0.527 9.65 3 15.45
12/16/2020 3:30:00 PM 0.95 33.71 0.527 9.64 3.06 15.54
12/16/2020 3:45:00 PM 0.97 33.746 0.527 9.64 2.96 15.58
12/16/2020 4:00:00 PM 0.96 33.728 0.529 9.65 2.97 15.57
12/16/2020 4:15:00 PM 0.95 33.71 0.529 9.64 2.91 15.57
12/16/2020 4:30:00 PM 0.94 33.692 0.529 9.65 2.94 15.56
12/16/2020 4:45:00 PM 0.94 33.692 0.53 9.63 2.95 15.54
12/16/2020 5:00:00 PM 0.91 33.638 0.529 9.64 2.94 15.52
12/16/2020 5:15:00 PM 0.94 33.692 0.53 9.61 3.2 15.48
12/16/2020 5:30:00 PM 0.91 33.638 0.529 9.62 3.28 15.4
12/16/2020 5:45:00 PM 0.89 33.602 0.529 9.61 3.08 15.39
12/16/2020 6:00:00 PM 0.87 33.566 0.529 9.61 3 15.32
12/16/2020 6:15:00 PM 0.88 33.584 0.529 9.6 2.96 15.26
12/16/2020 6:30:00 PM 0.87 33.566 0.53 9.59 2.96 15.18
12/16/2020 6:45:00 PM 0.86 33.548 0.528 9.61 2.86 15.17
12/16/2020 7:00:00 PM 0.86 33.548 0.53 9.62 2.89 15.14
12/16/2020 7:15:00 PM 0.86 33.548 0.53 9.59 2.86 15.1
12/16/2020 7:30:00 PM 0.87 33.566 0.531 9.57 3.14 15
12/16/2020 7:45:00 PM 0.86 33.548 0.53 9.59 2.91 14.96
12/16/2020 8:00:00 PM 0.87 33.566 0.529 9.58 2.85 14.91
12/16/2020 8:15:00 PM 0.85 33.53 0.528 9.59 2.82 14.88
12/16/2020 8:30:00 PM 0.87 33.566 0.527 9.58 2.86 14.84
12/16/2020 8:45:00 PM 0.87 33.566 0.528 9.58 2.81 14.8
12/16/2020 9:00:00 PM 0.88 33.584 0.527 9.56 2.8 14.75
12/16/2020 9:15:00 PM 0.84 33.512 0.523 9.61 2.84 14.8
12/16/2020 9:30:00 PM 0.88 33.584 0.526 9.57 2.8 14.72
12/16/2020 9:45:00 PM 0.88 33.584 0.527 9.56 2.81 14.66
12/16/2020 10:00:00 PM 0.89 33.602 0.528 9.53 2.91 14.54
12/16/2020 10:15:00 PM 0.87 33.566 0.526 9.55 2.81 14.57
12/16/2020 10:30:00 PM 0.85 33.53 0.525 9.55 2.79 14.61
12/16/2020 10:45:00 PM 0.88 33.584 0.528 9.53 2.76 14.56
12/16/2020 11:00:00 PM 0.88 33.584 0.527 9.51 2.79 14.53
12/16/2020 11:15:00 PM 0.87 33.566 0.526 9.53 2.81 14.51
12/16/2020 11:30:00 PM 0.88 33.584 0.526 9.51 2.82 14.45
12/16/2020 11:45:00 PM 0.88 33.584 0.526 9.52 2.83 14.4
12/17/2020 12:00:00 AM 0.87 33.566 0.525 9.53 2.81 14.34
12/17/2020 12:15:00 AM 0.87 33.566 0.524 9.52 2.8 14.31
12/17/2020 12:30:00 AM 0.88 33.584 0.526 9.5 2.82 14.26
12/17/2020 12:45:00 AM 0.88 33.584 0.526 9.51 2.79 14.26
12/17/2020 1:00:00 AM 0.88 33.584 0.525 9.5 2.88 14.19
12/17/2020 1:15:00 AM 0.89 33.602 0.527 9.49 2.82 14.1
12/17/2020 1:30:00 AM 0.89 33.602 0.527 9.46 2.83 14.02
12/17/2020 1:45:00 AM 0.89 33.602 0.527 9.48 2.79 14
12/17/2020 2:00:00 AM 0.89 33.602 0.527 9.46 2.82 13.96
12/17/2020 2:15:00 AM 0.89 33.602 0.527 9.49 2.8 13.92
12/17/2020 2:30:00 AM 0.9 33.62 0.528 9.47 2.84 13.89
12/17/2020 2:45:00 AM 0.93 33.674 0.528 9.44 2.83 13.78
12/17/2020 3:00:00 AM 0.94 33.692 0.529 9.43 2.91 13.64
12/17/2020 3:15:00 AM 0.95 33.71 0.528 9.41 2.83 13.51
12/17/2020 3:30:00 AM 0.94 33.692 0.528 9.41 2.95 13.41
12/17/2020 3:45:00 AM 0.95 33.71 0.528 9.4 2.9 13.32
12/17/2020 4:00:00 AM 0.98 33.764 0.53 9.38 2.9 13.16
12/17/2020 4:15:00 AM 0.97 33.746 0.53 9.39 3.04 13.15
12/17/2020 4:30:00 AM 0.99 33.782 0.532 9.38 3.14 13.1
12/17/2020 4:45:00 AM 0.98 33.764 0.531 9.37 3.03 13.06
12/17/2020 5:00:00 AM 0.98 33.764 0.531 9.36 2.99 13.01
12/17/2020 5:15:00 AM 1 33.8 0.531 9.35 3.01 12.95
12/17/2020 5:30:00 AM 1 33.8 0.531 9.34 3.02 12.87
12/17/2020 5:45:00 AM 1.01 33.818 0.533 9.32 3.03 12.8
12/17/2020 6:00:00 AM 1 33.8 0.534 9.32 3.1 12.71
12/17/2020 6:15:00 AM 0.97 33.746 0.535 9.33 5.41 12.69
12/17/2020 6:30:00 AM 1.01 33.818 0.538 9.29 3.19 12.46
12/17/2020 6:45:00 AM 0.99 33.782 0.535 9.3 3.15 12.46
12/17/2020 7:00:00 AM 0.98 33.764 0.535 9.29 3.14 12.46
12/17/2020 7:15:00 AM 0.99 33.782 0.537 9.28 3.24 12.38
12/17/2020 7:30:00 AM 0.98 33.764 0.535 9.27 3.12 12.36
12/17/2020 7:45:00 AM 0.98 33.764 0.536 9.27 3.17 12.38
12/17/2020 8:00:00 AM 0.98 33.764 0.536 9.27 3.41 12.32
12/17/2020 8:15:00 AM 0.98 33.764 0.536 9.25 3.38 12.24
12/17/2020 8:30:00 AM 0.98 33.764 0.539 9.24 3.36 12.17
12/17/2020 8:45:00 AM 0.97 33.746 0.538 9.23 3.26 12.12
12/17/2020 9:00:00 AM 0.95 33.71 0.536 9.22 3.38 12.09
12/17/2020 9:15:00 AM 0.97 33.746 0.537 9.2 3.61 12.02
12/17/2020 9:30:00 AM 0.97 33.746 0.537 9.2 3.53 11.96
12/17/2020 9:45:00 AM 0.99 33.782 0.539 9.19 3.75 11.92
12/17/2020 10:00:00 AM 0.97 33.746 0.539 9.19 3.49 11.96
12/17/2020 10:15:00 AM 0.97 33.746 0.537 9.18 3.81 11.92
12/17/2020 10:30:00 AM 0.98 33.764 0.539 9.16 3.53 11.88
12/17/2020 10:45:00 AM 0.98 33.764 0.539 9.17 3.52 11.84
12/17/2020 11:00:00 AM 0.97 33.746 0.537 9.18 3.38 11.87
12/17/2020 11:15:00 AM 0.96 33.728 0.535 9.18 3.38 12.01
12/17/2020 11:30:00 AM 0.91 33.638 0.532 9.18 3.9 12.05
12/17/2020 11:45:00 AM 0.95 33.71 0.535 9.14 3.58 12
12/17/2020 12:00:00 PM 0.97 33.746 0.537 9.15 3.41 12.08
12/17/2020 12:15:00 PM 0.97 33.746 0.536 9.17 3.31 12.33
12/17/2020 12:30:00 PM 0.98 33.764 0.536 9.15 3.32 12.39
12/17/2020 12:45:00 PM 0.97 33.746 0.534 9.17 3.58 12.43
12/17/2020 1:00:00 PM 1 33.8 0.537 9.16 3.37 12.61
12/17/2020 1:15:00 PM 0.96 33.728 0.533 9.14 3.66 12.43
12/17/2020 1:30:00 PM 0.97 33.746 0.532 9.17 3.26 12.66
12/17/2020 1:45:00 PM 0.99 33.782 0.533 9.19 3.21 12.89
12/17/2020 2:00:00 PM 0.99 33.782 0.531 9.18 3.27 12.9
12/17/2020 2:15:00 PM 0.97 33.746 0.53 9.2 3.22 13.04
12/17/2020 2:30:00 PM 1 33.8 0.532 9.19 3.32 13.09
12/17/2020 2:45:00 PM 1.02 33.836 0.535 9.2 3.3 13.1
12/17/2020 3:00:00 PM 1.01 33.818 0.532 9.2 3.28 13.14
12/17/2020 3:15:00 PM 1.04 33.872 0.533 9.19 3.26 13.23
12/17/2020 3:30:00 PM 1 33.8 0.531 9.24 3.26 13.41
12/17/2020 3:45:00 PM 0.99 33.782 0.532 9.23 3.2 13.49
12/17/2020 4:00:00 PM 1 33.8 0.531 9.21 3.3 13.43
12/17/2020 4:15:00 PM 0.95 33.71 0.529 9.26 3.2 13.58
12/17/2020 4:30:00 PM 0.97 33.746 0.531 9.27 3.14 13.7
12/17/2020 4:45:00 PM 0.97 33.746 0.532 9.23 3.14 13.68
12/17/2020 5:00:00 PM 0.97 33.746 0.534 9.23 3.21 13.73
12/17/2020 5:15:00 PM 0.94 33.692 0.532 9.27 3.1 13.83
12/17/2020 5:30:00 PM 0.9 33.62 0.531 9.28 2.98 13.99
12/17/2020 5:45:00 PM 0.9 33.62 0.533 9.29 3.01 14.1
12/17/2020 6:00:00 PM 0.85 33.53 0.529 9.32 2.88 14.22
12/17/2020 6:15:00 PM 0.8 33.44 0.526 9.36 2.88 14.34
12/17/2020 6:30:00 PM 0.75 33.35 0.524 9.38 2.82 14.49
12/17/2020 6:45:00 PM 0.69 33.242 0.523 9.39 2.84 14.59
12/17/2020 7:00:00 PM 0.63 33.134 0.523 9.42 2.81 14.63
12/17/2020 7:15:00 PM 0.56 33.008 0.521 9.44 2.78 14.71
12/17/2020 7:30:00 PM 0.53 32.954 0.521 9.43 2.79 14.75
12/17/2020 7:45:00 PM 0.47 32.846 0.518 9.45 2.82 14.8
12/17/2020 8:00:00 PM 0.47 32.846 0.52 9.47 2.77 14.83
12/17/2020 8:15:00 PM 0.43 32.774 0.519 9.47 2.9 14.81
12/17/2020 8:30:00 PM 0.33 32.594 0.519 9.49 3.2 14.8
12/17/2020 8:45:00 PM 0.34 32.612 0.52 9.49 3.13 14.78
12/17/2020 9:00:00 PM 0.37 32.666 0.521 9.46 2.96 14.72
12/17/2020 9:15:00 PM 0.35 32.63 0.518 9.48 2.95 14.7
12/17/2020 9:30:00 PM 0.33 32.594 0.519 9.47 2.97 14.71
12/17/2020 9:45:00 PM 0.34 32.612 0.518 9.47 2.96 14.69
12/17/2020 10:00:00 PM 0.33 32.594 0.517 9.47 2.97 14.68
12/17/2020 10:15:00 PM 0.25 32.45 0.517 9.47 3.81 14.65
12/17/2020 10:30:00 PM 0.31 32.558 0.519 9.46 3.26 14.65
12/17/2020 10:45:00 PM 0.33 32.594 0.518 9.45 3.17 14.62
12/17/2020 11:00:00 PM 0.32 32.576 0.517 9.46 2.99 14.63
12/17/2020 11:15:00 PM 0.33 32.594 0.518 9.45 3.03 14.62
12/17/2020 11:30:00 PM 0.33 32.594 0.518 9.44 3.03 14.58
12/17/2020 11:45:00 PM 0.31 32.558 0.518 9.44 2.99 14.54
12/18/2020 12:00:00 AM 0.31 32.558 0.519 9.42 2.97 14.47
12/18/2020 12:15:00 AM 0.32 32.576 0.519 9.41 2.96 14.41
12/18/2020 12:30:00 AM 0.31 32.558 0.52 9.4 3.19 14.35
12/18/2020 12:45:00 AM 0.3 32.54 0.52 9.39 2.98 14.27
12/18/2020 1:00:00 AM 0.28 32.504 0.521 9.36 3.01 14.17
12/18/2020 1:15:00 AM 0.28 32.504 0.522 9.35 3.08 14.06
12/18/2020 1:30:00 AM 0.25 32.45 0.522 9.34 3.02 13.99
12/18/2020 1:45:00 AM 0.28 32.504 0.522 9.32 2.97 13.9
12/18/2020 2:00:00 AM 0.25 32.45 0.523 9.31 3.02 13.83
12/18/2020 2:15:00 AM 0.27 32.486 0.524 9.29 3.09 13.74
12/18/2020 2:30:00 AM 0.25 32.45 0.524 9.27 3.03 13.65
12/18/2020 2:45:00 AM 0.23 32.414 0.525 9.25 2.96 13.56
12/18/2020 3:00:00 AM 0.24 32.432 0.525 9.25 3.13 13.48
12/18/2020 3:15:00 AM 0.2 32.36 0.524 9.23 3.1 13.34
12/18/2020 3:30:00 AM 0.18 32.324 0.523 9.2 3.06 13.29
12/18/2020 3:45:00 AM 0.19 32.342 0.523 9.19 3.02 13.21
12/18/2020 4:00:00 AM 0.18 32.324 0.523 9.18 3.11 13.15
12/18/2020 4:15:00 AM 0.17 32.306 0.521 9.18 3.01 13.1
12/18/2020 4:30:00 AM 0.18 32.324 0.522 9.17 2.98 13.05
12/18/2020 4:45:00 AM 0.18 32.324 0.521 9.16 2.95 13.02
12/18/2020 5:00:00 AM 0.17 32.306 0.519 9.15 2.97 13.01
12/18/2020 5:15:00 AM 0.17 32.306 0.518 9.14 2.98 12.99
12/18/2020 5:30:00 AM 0.18 32.324 0.519 9.14 3.06 12.96
12/18/2020 5:45:00 AM 0.17 32.306 0.518 9.14 3.13 12.94
12/18/2020 6:00:00 AM 0.16 32.288 0.514 9.14 3.28 12.93
12/18/2020 6:15:00 AM 0.14 32.252 0.512 9.14 3.37 12.92
12/18/2020 6:30:00 AM 0.14 32.252 0.511 9.12 3.4 12.91
12/18/2020 6:45:00 AM 0.13 32.234 0.511 9.12 3.34 12.89
12/18/2020 7:00:00 AM 0.16 32.288 0.512 9.12 3.41 12.86
12/18/2020 7:15:00 AM 0.15 32.27 0.506 9.11 3.22 12.83
12/18/2020 7:30:00 AM 0.17 32.306 0.508 9.11 3.27 12.8
12/18/2020 7:45:00 AM 0.15 32.27 0.504 9.11 3.24 12.81
12/18/2020 8:00:00 AM 0.13 32.234 0.503 9.11 3.28 12.81
12/18/2020 8:15:00 AM 0.15 32.27 0.503 9.11 3.15 12.79
12/18/2020 8:30:00 AM 0.15 32.27 0.502 9.11 3.22 12.78
12/18/2020 8:45:00 AM 0.15 32.27 0.501 9.1 3.12 12.77
12/18/2020 9:00:00 AM 0.14 32.252 0.499 9.11 2.98 12.76
12/18/2020 9:15:00 AM 0.14 32.252 0.499 9.1 3.06 12.75
12/18/2020 9:30:00 AM 0.14 32.252 0.499 9.1 2.99 12.74
12/18/2020 9:45:00 AM 0.15 32.27 0.498 9.1 2.91 12.75
12/18/2020 10:00:00 AM 0.16 32.288 0.498 9.09 2.92 12.75
12/18/2020 10:15:00 AM 0.16 32.288 0.498 9.1 2.89 12.77
12/18/2020 10:30:00 AM 0.15 32.27 0.498 9.1 2.87 12.87
12/18/2020 10:45:00 AM 0.16 32.288 0.498 9.11 2.83 12.96
12/18/2020 11:00:00 AM 0.16 32.288 0.499 9.13 2.87 13.07
12/18/2020 11:15:00 AM 0.17 32.306 0.499 9.13 2.83 13.17
12/18/2020 11:30:00 AM 0.17 32.306 0.499 9.15 2.89 13.3
12/18/2020 11:45:00 AM 0.17 32.306 0.5 9.17 2.83 13.45
12/18/2020 12:00:00 PM 0.18 32.324 0.5 9.18 2.91 13.56
12/18/2020 12:15:00 PM 0.19 32.342 0.501 9.21 2.86 13.68
12/18/2020 12:30:00 PM 0.18 32.324 0.502 9.22 2.84 13.81
12/18/2020 12:45:00 PM 0.16 32.288 0.504 9.25 2.85 13.96
12/18/2020 1:00:00 PM 0.16 32.288 0.505 9.26 2.81 14.08
12/18/2020 1:15:00 PM 0.16 32.288 0.506 9.29 2.89 14.22
12/18/2020 1:30:00 PM 0.15 32.27 0.506 9.31 2.86 14.35
12/18/2020 1:45:00 PM 0.15 32.27 0.508 9.33 2.91 14.48
12/18/2020 2:00:00 PM 0.15 32.27 0.508 9.33 2.83 14.6
12/18/2020 2:15:00 PM 0.15 32.27 0.509 9.37 3.06 14.73
12/18/2020 2:30:00 PM 0.14 32.252 0.509 9.38 2.86 14.86
12/18/2020 2:45:00 PM 0.16 32.288 0.509 9.41 2.83 15.03
12/18/2020 3:00:00 PM 0.13 32.234 0.511 9.43 2.89 15.13
12/18/2020 3:15:00 PM 0.12 32.216 0.511 9.46 2.85 15.27
12/18/2020 3:30:00 PM 0.12 32.216 0.512 9.47 2.85 15.41
12/18/2020 3:45:00 PM 0.11 32.198 0.512 9.51 2.88 15.55
12/18/2020 4:00:00 PM 0.1 32.18 0.512 9.52 2.85 15.67
12/18/2020 4:15:00 PM 0.09 32.162 0.512 9.56 2.88 15.81
12/18/2020 4:30:00 PM 0.09 32.162 0.512 9.58 2.87 15.92
12/18/2020 4:45:00 PM 0.08 32.144 0.512 9.61 2.84 16
12/18/2020 5:00:00 PM 0.08 32.144 0.512 9.63 2.86 16.06
12/18/2020 5:15:00 PM 0.07 32.126 0.512 9.64 2.88 16.08
12/18/2020 5:30:00 PM 0.07 32.126 0.512 9.64 2.91 16.1
12/18/2020 5:45:00 PM 0.06 32.108 0.512 9.64 2.97 16.08
12/18/2020 6:00:00 PM 0.07 32.126 0.513 9.63 2.94 16.05
12/18/2020 6:15:00 PM 0.06 32.108 0.513 9.64 2.91 15.99
12/18/2020 6:30:00 PM 0.06 32.108 0.513 9.62 2.95 15.91
12/18/2020 6:45:00 PM 0.06 32.108 0.513 9.62 2.92 15.83
12/18/2020 7:00:00 PM 0.06 32.108 0.514 9.6 2.98 15.74
12/18/2020 7:15:00 PM 0.06 32.108 0.514 9.59 2.94 15.66
12/18/2020 7:30:00 PM 0.06 32.108 0.514 9.58 3.01 15.6
12/18/2020 7:45:00 PM 0.06 32.108 0.514 9.56 3.1 15.54
12/18/2020 8:00:00 PM 0.06 32.108 0.515 9.56 3.22 15.47
12/18/2020 8:15:00 PM 0.05 32.09 0.515 9.54 3.11 15.39
12/18/2020 8:30:00 PM 0.05 32.09 0.515 9.53 3.1 15.29
12/18/2020 8:45:00 PM 0.06 32.108 0.516 9.51 3.04 15.22
12/18/2020 9:00:00 PM 0.06 32.108 0.516 9.48 3.1 15.1
12/18/2020 9:15:00 PM 0.05 32.09 0.516 9.47 3.04 15.01
12/18/2020 9:30:00 PM 0.05 32.09 0.516 9.45 3.06 14.91
12/18/2020 9:45:00 PM 0.05 32.09 0.516 9.42 3.11 14.8
12/18/2020 10:00:00 PM 0.05 32.09 0.516 9.4 3.15 14.68
12/18/2020 10:15:00 PM 0.05 32.09 0.516 9.38 3.05 14.61
12/18/2020 10:30:00 PM 0.05 32.09 0.515 9.37 3 14.51
12/18/2020 10:45:00 PM 0.04 32.072 0.515 9.35 3.02 14.42
12/18/2020 11:00:00 PM 0.05 32.09 0.514 9.33 3.07 14.34
12/18/2020 11:15:00 PM 0.05 32.09 0.514 9.32 3.02 14.25
12/18/2020 11:30:00 PM 0.05 32.09 0.514 9.3 3.08 14.18
12/18/2020 11:45:00 PM 0.05 32.09 0.513 9.28 3.21 14.11
12/19/2020 12:00:00 AM 0.05 32.09 0.513 9.27 3.18 14.05
12/19/2020 12:15:00 AM 0.05 32.09 0.512 9.25 3.41 13.98
12/19/2020 12:30:00 AM 0.04 32.072 0.512 9.24 3.26 13.91
12/19/2020 12:45:00 AM 0.04 32.072 0.511 9.23 3.18 13.87
12/19/2020 1:00:00 AM 0.04 32.072 0.511 9.21 3.14 13.81
12/19/2020 1:15:00 AM 0.05 32.09 0.511 9.2 3.19 13.76
12/19/2020 1:30:00 AM 0.05 32.09 0.511 9.19 3.16 13.73
12/19/2020 1:45:00 AM 0.05 32.09 0.511 9.19 3.18 13.69
12/19/2020 2:00:00 AM 0.05 32.09 0.511 9.18 3.23 13.66
12/19/2020 2:15:00 AM 0.06 32.108 0.511 9.18 3.2 13.64
12/19/2020 2:30:00 AM 0.05 32.09 0.512 9.17 3.15 13.6
12/19/2020 2:45:00 AM 0.06 32.108 0.512 9.17 3.18 13.57
12/19/2020 3:00:00 AM 0.06 32.108 0.512 9.16 3.53 13.54
12/19/2020 3:15:00 AM 0.05 32.09 0.512 9.15 3.66 13.52
12/19/2020 3:30:00 AM 0.05 32.09 0.512 9.15 3.7 13.49
12/19/2020 3:45:00 AM 0.05 32.09 0.512 9.14 3.45 13.47
12/19/2020 4:00:00 AM 0.05 32.09 0.512 9.13 3.43 13.44
12/19/2020 4:15:00 AM 0.05 32.09 0.513 9.13 3.24 13.41
12/19/2020 4:30:00 AM 0.05 32.09 0.513 9.13 3.25 13.38
12/19/2020 4:45:00 AM 0.05 32.09 0.513 9.12 3.24 13.34
12/19/2020 5:00:00 AM 0.05 32.09 0.513 9.12 3.37 13.32
12/19/2020 5:15:00 AM 0.05 32.09 0.513 9.11 3.28 13.29
12/19/2020 5:30:00 AM 0.05 32.09 0.513 9.1 3.29 13.26
12/19/2020 5:45:00 AM 0.05 32.09 0.513 9.09 3.25 13.23
12/19/2020 6:00:00 AM 0.05 32.09 0.513 9.1 3.13 13.2
12/19/2020 6:15:00 AM 0.05 32.09 0.514 9.09 3.15 13.18
12/19/2020 6:30:00 AM 0.05 32.09 0.514 9.08 3.1 13.16
12/19/2020 6:45:00 AM 0.05 32.09 0.514 9.08 3.44 13.14
12/19/2020 7:00:00 AM 0.06 32.108 0.514 9.07 3.07 13.12
12/19/2020 7:15:00 AM 0.05 32.09 0.515 9.07 3.18 13.1
12/19/2020 7:30:00 AM 0.06 32.108 0.515 9.06 3.12 13.07
12/19/2020 7:45:00 AM 0.07 32.126 0.516 9.06 3.16 13.06
12/19/2020 8:00:00 AM 0.07 32.126 0.516 9.06 3.06 13.05
12/19/2020 8:15:00 AM 0.07 32.126 0.517 9.05 2.96 13.04
12/19/2020 8:30:00 AM 0.07 32.126 0.518 9.05 2.95 13.02
12/19/2020 8:45:00 AM 0.07 32.126 0.518 9.05 2.98 13.02
12/19/2020 9:00:00 AM 0.08 32.144 0.519 9.04 2.9 13.02
12/19/2020 9:15:00 AM 0.08 32.144 0.52 9.04 2.88 13.03
12/19/2020 9:30:00 AM 0.08 32.144 0.52 9.04 2.91 13.05
12/19/2020 9:45:00 AM 0.08 32.144 0.521 9.05 2.84 13.16
12/19/2020 10:00:00 AM 0.09 32.162 0.521 9.07 2.86 13.31
12/19/2020 10:15:00 AM 0.09 32.162 0.521 9.08 2.86 13.45
12/19/2020 10:30:00 AM 0.11 32.198 0.521 9.1 2.84 13.62
12/19/2020 10:45:00 AM 0.11 32.198 0.522 9.13 2.88 13.85
12/19/2020 11:00:00 AM 0.11 32.198 0.522 9.15 2.84 14.08
12/19/2020 11:15:00 AM 0.11 32.198 0.522 9.18 2.87 14.28
12/19/2020 11:30:00 AM 0.12 32.216 0.522 9.2 2.93 14.47
12/19/2020 11:45:00 AM 0.12 32.216 0.522 9.23 2.89 14.65
12/19/2020 12:00:00 PM 0.13 32.234 0.522 9.25 2.96 14.82
12/19/2020 12:15:00 PM 0.12 32.216 0.522 9.28 2.89 15
12/19/2020 12:30:00 PM 0.12 32.216 0.521 9.31 2.85 15.2
12/19/2020 12:45:00 PM 0.11 32.198 0.521 9.34 2.92 15.42
12/19/2020 1:00:00 PM 0.11 32.198 0.521 9.38 2.82 15.64
12/19/2020 1:15:00 PM 0.12 32.216 0.52 9.4 2.91 15.81
12/19/2020 1:30:00 PM 0.11 32.198 0.52 9.46 2.9 16.02
12/19/2020 1:45:00 PM 0.12 32.216 0.519 9.48 2.86 16.2
12/19/2020 2:00:00 PM 0.13 32.234 0.519 9.51 2.88 16.32
12/19/2020 2:15:00 PM 0.14 32.252 0.519 9.54 2.87 16.48
12/19/2020 2:30:00 PM 0.12 32.216 0.518 9.6 2.85 16.61
12/19/2020 2:45:00 PM 0.12 32.216 0.517 9.61 2.85 16.76
12/19/2020 3:00:00 PM 0.1 32.18 0.516 9.67 2.87 16.88
12/19/2020 3:15:00 PM 0.1 32.18 0.515 9.7 2.88 16.99
12/19/2020 3:30:00 PM 0.09 32.162 0.515 9.74 2.88 17.09
12/19/2020 3:45:00 PM 0.09 32.162 0.514 9.78 2.92 17.15
12/19/2020 4:00:00 PM 0.09 32.162 0.514 9.78 2.9 17.2
12/19/2020 4:15:00 PM 0.08 32.144 0.514 9.81 2.83 17.22
12/19/2020 4:30:00 PM 0.07 32.126 0.513 9.84 2.9 17.23
12/19/2020 4:45:00 PM 0.07 32.126 0.513 9.85 2.9 17.22
12/19/2020 5:00:00 PM 0.07 32.126 0.513 9.85 2.92 17.18
12/19/2020 5:15:00 PM 0.07 32.126 0.513 9.84 2.94 17.13
12/19/2020 5:30:00 PM 0.06 32.108 0.513 9.86 2.94 17.05
12/19/2020 5:45:00 PM 0.06 32.108 0.513 9.85 2.93 16.96
12/19/2020 6:00:00 PM 0.07 32.126 0.514 9.84 2.91 16.82
12/19/2020 6:15:00 PM 0.06 32.108 0.515 9.83 2.89 16.67
12/19/2020 6:30:00 PM 0.07 32.126 0.515 9.81 3.02 16.51
12/19/2020 6:45:00 PM 0.07 32.126 0.516 9.8 3.08 16.35
12/19/2020 7:00:00 PM 0.07 32.126 0.517 9.77 3.03 16.17
12/19/2020 7:15:00 PM 0.07 32.126 0.517 9.75 3.22 16
12/19/2020 7:30:00 PM 0.07 32.126 0.518 9.74 3.09 15.9
12/19/2020 7:45:00 PM 0.07 32.126 0.519 9.71 3.05 15.76
12/19/2020 8:00:00 PM 0.06 32.108 0.52 9.69 3.25 15.6
12/19/2020 8:15:00 PM 0.06 32.108 0.521 9.66 3.01 15.46
12/19/2020 8:30:00 PM 0.06 32.108 0.521 9.64 3 15.35
12/19/2020 8:45:00 PM 0.06 32.108 0.522 9.61 2.97 15.21
12/19/2020 9:00:00 PM 0.07 32.126 0.523 9.58 2.95 15.07
12/19/2020 9:15:00 PM 0.06 32.108 0.524 9.54 3.04 14.93
12/19/2020 9:30:00 PM 0.06 32.108 0.524 9.51 3.31 14.82
12/19/2020 9:45:00 PM 0.06 32.108 0.525 9.5 3.14 14.71
12/19/2020 10:00:00 PM 0.06 32.108 0.526 9.47 2.97 14.61
12/19/2020 10:15:00 PM 0.06 32.108 0.526 9.44 3.1 14.51
12/19/2020 10:30:00 PM 0.06 32.108 0.526 9.43 3.05 14.44
12/19/2020 10:45:00 PM 0.06 32.108 0.527 9.41 3.18 14.37
12/19/2020 11:00:00 PM 0.05 32.09 0.527 9.38 3.27 14.29
12/19/2020 11:15:00 PM 0.05 32.09 0.528 9.37 3.34 14.25
12/19/2020 11:30:00 PM 0.05 32.09 0.528 9.34 3.33 14.16
12/19/2020 11:45:00 PM 0.05 32.09 0.528 9.33 3.15 14.13
12/20/2020 12:00:00 AM 0.05 32.09 0.528 9.31 3.13 14.08
12/20/2020 12:15:00 AM 0.04 32.072 0.528 9.3 3.06 14.04
12/20/2020 12:30:00 AM 0.04 32.072 0.528 9.29 3.12 14.01
12/20/2020 12:45:00 AM 0.04 32.072 0.527 9.28 3.11 13.99
12/20/2020 1:00:00 AM 0.04 32.072 0.527 9.27 3.05 13.95
12/20/2020 1:15:00 AM 0.04 32.072 0.527 9.26 3.03 13.92
12/20/2020 1:30:00 AM 0.04 32.072 0.527 9.24 3 13.89
12/20/2020 1:45:00 AM 0.04 32.072 0.526 9.24 3 13.87
12/20/2020 2:00:00 AM 0.04 32.072 0.526 9.23 3.08 13.85
12/20/2020 2:15:00 AM 0.04 32.072 0.526 9.23 2.99 13.83
12/20/2020 2:30:00 AM 0.04 32.072 0.525 9.22 2.97 13.8
12/20/2020 2:45:00 AM 0.04 32.072 0.525 9.21 2.96 13.79
12/20/2020 3:00:00 AM 0.04 32.072 0.525 9.2 2.93 13.77
12/20/2020 3:15:00 AM 0.04 32.072 0.525 9.19 3.01 13.75
12/20/2020 3:30:00 AM 0.04 32.072 0.524 9.18 3.07 13.73
12/20/2020 3:45:00 AM 0.04 32.072 0.524 9.17 3.08 13.72
12/20/2020 4:00:00 AM 0.04 32.072 0.523 9.17 3.17 13.69
12/20/2020 4:15:00 AM 0.04 32.072 0.523 9.16 3.33 13.68
12/20/2020 4:30:00 AM 0.03 32.054 0.522 9.15 3.39 13.67
12/20/2020 4:45:00 AM 0.03 32.054 0.521 9.15 3.29 13.66
12/20/2020 5:00:00 AM 0.04 32.072 0.521 9.14 3.23 13.64
12/20/2020 5:15:00 AM 0.03 32.054 0.52 9.13 3.08 13.62
12/20/2020 5:30:00 AM 0.04 32.072 0.519 9.13 3.04 13.6
12/20/2020 5:45:00 AM 0.04 32.072 0.519 9.12 2.97 13.59
12/20/2020 6:00:00 AM 0.04 32.072 0.518 9.12 2.91 13.58
12/20/2020 6:15:00 AM 0.04 32.072 0.517 9.11 2.88 13.57
12/20/2020 6:30:00 AM 0.04 32.072 0.516 9.11 3.02 13.56
12/20/2020 6:45:00 AM 0.04 32.072 0.516 9.1 2.92 13.55
12/20/2020 7:00:00 AM 0.04 32.072 0.515 9.1 2.89 13.53
12/20/2020 7:15:00 AM 0.04 32.072 0.515 9.09 2.85 13.53
12/20/2020 7:30:00 AM 0.04 32.072 0.514 9.09 2.81 13.51
12/20/2020 7:45:00 AM 0.04 32.072 0.514 9.08 2.8 13.5
12/20/2020 8:00:00 AM 0.04 32.072 0.513 9.08 2.78 13.5
12/20/2020 8:15:00 AM 0.04 32.072 0.513 9.08 2.94 13.48
12/20/2020 8:30:00 AM 0.04 32.072 0.513 9.07 2.79 13.48
12/20/2020 8:45:00 AM 0.04 32.072 0.513 9.07 2.78 13.48
12/20/2020 9:00:00 AM 0.05 32.09 0.513 9.06 2.8 13.46
12/20/2020 9:15:00 AM 0.05 32.09 0.513 9.06 2.78 13.46
12/20/2020 9:30:00 AM 0.05 32.09 0.512 9.05 2.81 13.47
12/20/2020 9:45:00 AM 0.05 32.09 0.512 9.05 2.76 13.48
12/20/2020 10:00:00 AM 0.05 32.09 0.512 9.05 2.75 13.51
12/20/2020 10:15:00 AM 0.05 32.09 0.512 9.05 2.76 13.54
12/20/2020 10:30:00 AM 0.05 32.09 0.512 9.05 2.86 13.58
12/20/2020 10:45:00 AM 0.05 32.09 0.512 9.05 2.81 13.63
12/20/2020 11:00:00 AM 0.05 32.09 0.512 9.06 2.76 13.65
12/20/2020 11:15:00 AM 0.06 32.108 0.511 9.04 2.73 13.69
12/20/2020 11:30:00 AM 0.05 32.09 0.511 9.06 2.75 13.74
12/20/2020 11:45:00 AM 0.05 32.09 0.511 9.06 2.8 13.8
12/20/2020 12:00:00 PM 0.05 32.09 0.511 9.07 2.79 13.85
12/20/2020 12:15:00 PM 0.06 32.108 0.51 9.08 2.74 13.92
12/20/2020 12:30:00 PM 0.06 32.108 0.51 9.09 2.76 14.02
12/20/2020 12:45:00 PM 0.05 32.09 0.51 9.1 2.82 14.09
12/20/2020 1:00:00 PM 0.06 32.108 0.509 9.1 2.77 14.15
12/20/2020 1:15:00 PM 0.06 32.108 0.509 9.11 2.72 14.18
12/20/2020 1:30:00 PM 0.06 32.108 0.509 9.12 2.78 14.22
12/20/2020 1:45:00 PM 0.06 32.108 0.508 9.13 2.79 14.26
12/20/2020 2:00:00 PM 0.06 32.108 0.508 9.13 2.77 14.3
12/20/2020 2:15:00 PM 0.05 32.09 0.507 9.14 2.79 14.34
12/20/2020 2:30:00 PM 0.05 32.09 0.507 9.16 2.79 14.42
12/20/2020 2:45:00 PM 0.06 32.108 0.506 9.16 2.81 14.46
12/20/2020 3:00:00 PM 0.06 32.108 0.506 9.17 2.81 14.47
12/20/2020 3:15:00 PM 0.05 32.09 0.505 9.19 2.79 14.49
12/20/2020 3:30:00 PM 0.05 32.09 0.505 9.19 3.12 14.5
12/20/2020 3:45:00 PM 0.05 32.09 0.505 9.2 2.85 14.51
12/20/2020 4:00:00 PM 0.05 32.09 0.504 9.2 2.87 14.52
12/20/2020 4:15:00 PM 0.05 32.09 0.503 9.2 2.8 14.52
12/20/2020 4:30:00 PM 0.05 32.09 0.503 9.21 2.8 14.51
12/20/2020 4:45:00 PM 0.05 32.09 0.503 9.21 2.84 14.5
12/20/2020 5:00:00 PM 0.05 32.09 0.503 9.21 2.86 14.47
12/20/2020 5:15:00 PM 0.05 32.09 0.502 9.21 2.88 14.45
12/20/2020 5:30:00 PM 0.05 32.09 0.502 9.21 2.88 14.42
12/20/2020 5:45:00 PM 0.05 32.09 0.501 9.21 2.85 14.39
12/20/2020 6:00:00 PM 0.05 32.09 0.5 9.2 2.99 14.35
12/20/2020 6:15:00 PM 0.05 32.09 0.5 9.19 2.88 14.32
12/20/2020 6:30:00 PM 0.05 32.09 0.5 9.19 2.9 14.27
12/20/2020 6:45:00 PM 0.05 32.09 0.5 9.19 2.95 14.22
12/20/2020 7:00:00 PM 0.05 32.09 0.499 9.18 2.91 14.17
12/20/2020 7:15:00 PM 0.05 32.09 0.499 9.17 2.92 14.12
12/20/2020 7:30:00 PM 0.05 32.09 0.498 9.16 2.95 14.08
12/20/2020 7:45:00 PM 0.05 32.09 0.498 9.16 2.8 14.04
12/20/2020 8:00:00 PM 0.05 32.09 0.498 9.15 2.84 14
12/20/2020 8:15:00 PM 0.05 32.09 0.497 9.14 2.94 13.97
12/20/2020 8:30:00 PM 0.05 32.09 0.497 9.14 3.04 13.93
12/20/2020 8:45:00 PM 0.05 32.09 0.497 9.13 3.19 13.9
12/20/2020 9:00:00 PM 0.05 32.09 0.497 9.12 3 13.87
12/20/2020 9:15:00 PM 0.05 32.09 0.497 9.12 2.91 13.84
12/20/2020 9:30:00 PM 0.05 32.09 0.496 9.1 3 13.81
12/20/2020 9:45:00 PM 0.05 32.09 0.496 9.11 2.91 13.78
12/20/2020 10:00:00 PM 0.05 32.09 0.495 9.09 2.9 13.75
12/20/2020 10:15:00 PM 0.05 32.09 0.495 9.09 3 13.74
12/20/2020 10:30:00 PM 0.05 32.09 0.495 9.09 2.89 13.72
12/20/2020 10:45:00 PM 0.05 32.09 0.495 9.08 2.92 13.7
12/20/2020 11:00:00 PM 0.05 32.09 0.494 9.07 2.97 13.68
12/20/2020 11:15:00 PM 0.05 32.09 0.494 9.07 2.95 13.67
12/20/2020 11:30:00 PM 0.05 32.09 0.493 9.06 2.89 13.65
12/20/2020 11:45:00 PM 0.05 32.09 0.493 9.06 3.15 13.64
12/21/2020 12:00:00 AM 0.05 32.09 0.493 9.06 2.95 13.63
12/21/2020 12:15:00 AM 0.05 32.09 0.493 9.05 2.99 13.62
12/21/2020 12:30:00 AM 0.05 32.09 0.492 9.05 2.91 13.62
12/21/2020 12:45:00 AM 0.05 32.09 0.492 9.04 2.9 13.61
12/21/2020 1:00:00 AM 0.05 32.09 0.492 9.04 2.82 13.6
12/21/2020 1:15:00 AM 0.06 32.108 0.493 9.04 3.02 13.58
12/21/2020 1:30:00 AM 0.06 32.108 0.493 9.03 2.83 13.57
12/21/2020 1:45:00 AM 0.06 32.108 0.494 9.03 2.81 13.56
12/21/2020 2:00:00 AM 0.07 32.126 0.496 9.03 2.85 13.55
12/21/2020 2:15:00 AM 0.07 32.126 0.497 9.02 2.92 13.55
12/21/2020 2:30:00 AM 0.07 32.126 0.499 9.02 2.96 13.54
12/21/2020 2:45:00 AM 0.07 32.126 0.501 9.02 3.02 13.54
12/21/2020 3:00:00 AM 0.07 32.126 0.502 9.02 3.05 13.52
12/21/2020 3:15:00 AM 0.07 32.126 0.504 9.02 2.98 13.52
12/21/2020 3:30:00 AM 0.07 32.126 0.505 9.01 3.13 13.51
12/21/2020 3:45:00 AM 0.07 32.126 0.507 9.01 3.05 13.51
12/21/2020 4:00:00 AM 0.07 32.126 0.509 9.01 3.03 13.51
12/21/2020 4:15:00 AM 0.07 32.126 0.511 9 3.03 13.51
12/21/2020 4:30:00 AM 0.07 32.126 0.511 9 2.99 13.5
12/21/2020 4:45:00 AM 0.07 32.126 0.512 9 2.95 13.5
12/21/2020 5:00:00 AM 0.07 32.126 0.514 9 2.91 13.49
12/21/2020 5:15:00 AM 0.07 32.126 0.515 8.99 2.91 13.49
12/21/2020 5:30:00 AM 0.07 32.126 0.515 8.99 2.86 13.49
12/21/2020 5:45:00 AM 0.06 32.108 0.516 8.99 2.83 13.49
12/21/2020 6:00:00 AM 0.07 32.126 0.516 9 2.86 13.49
12/21/2020 6:15:00 AM 0.06 32.108 0.516 9 2.83 13.49
12/21/2020 6:30:00 AM 0.06 32.108 0.516 8.99 2.85 13.49
12/21/2020 6:45:00 AM 0.06 32.108 0.516 9 2.88 13.49
12/21/2020 7:00:00 AM 0.05 32.09 0.516 8.99 2.82 13.49
12/21/2020 7:15:00 AM 0.06 32.108 0.515 8.99 2.94 13.49
12/21/2020 7:30:00 AM 0.06 32.108 0.515 8.98 2.84 13.49
12/21/2020 7:45:00 AM 0.05 32.09 0.515 8.98 2.8 13.5
12/21/2020 8:00:00 AM 0.06 32.108 0.515 8.98 2.79 13.49
12/21/2020 8:15:00 AM 0.05 32.09 0.514 8.98 2.78 13.49
12/21/2020 8:30:00 AM 0.05 32.09 0.513 8.98 2.75 13.49
12/21/2020 8:45:00 AM 0.06 32.108 0.513 8.98 2.8 13.49
12/21/2020 9:00:00 AM 0.06 32.108 0.513 8.98 2.69 13.5
12/21/2020 9:15:00 AM 0.06 32.108 0.513 8.98 2.76 13.51
12/21/2020 9:30:00 AM 0.06 32.108 0.512 8.98 2.69 13.55
12/21/2020 9:45:00 AM 0.06 32.108 0.511 8.99 2.75 13.59
12/21/2020 10:00:00 AM 0.06 32.108 0.511 8.99 2.73 13.64
12/21/2020 10:15:00 AM 0.06 32.108 0.51 9 2.72 13.7
12/21/2020 10:30:00 AM 0.06 32.108 0.509 9.01 2.74 13.75
12/21/2020 10:45:00 AM 0.06 32.108 0.508 9.02 3.38 13.82
12/21/2020 11:00:00 AM 0.06 32.108 0.508 9.02 2.75 13.88
12/21/2020 11:15:00 AM 0.06 32.108 0.507 9.04 2.74 13.93
12/21/2020 11:30:00 AM 0.06 32.108 0.507 9.05 2.79 13.97
12/21/2020 11:45:00 AM 0.06 32.108 0.506 9.05 2.75 14.02
12/21/2020 12:00:00 PM 0.06 32.108 0.505 9.07 2.73 14.09
12/21/2020 12:15:00 PM 0.07 32.126 0.505 9.07 2.81 14.14
12/21/2020 12:30:00 PM 0.08 32.144 0.504 9.08 2.71 14.21
12/21/2020 12:45:00 PM 0.07 32.126 0.503 9.1 2.75 14.31
12/21/2020 1:00:00 PM 0.07 32.126 0.502 9.13 2.69 14.42
12/21/2020 1:15:00 PM 0.08 32.144 0.501 9.16 2.74 14.54
12/21/2020 1:30:00 PM 0.08 32.144 0.501 9.18 2.75 14.68
12/21/2020 1:45:00 PM 0.08 32.144 0.5 9.21 2.78 14.79
12/21/2020 2:00:00 PM 0.08 32.144 0.499 9.23 3.14 14.85
12/21/2020 2:15:00 PM 0.08 32.144 0.499 9.26 2.79 14.89
12/21/2020 2:30:00 PM 0.08 32.144 0.498 9.27 2.76 14.97
12/21/2020 2:45:00 PM 0.08 32.144 0.497 9.3 2.75 15.04
12/21/2020 3:00:00 PM 0.07 32.126 0.496 9.33 2.78 15.12
12/21/2020 3:15:00 PM 0.07 32.126 0.496 9.35 2.75 15.18
12/21/2020 3:30:00 PM 0.07 32.126 0.495 9.37 2.74 15.23
12/21/2020 3:45:00 PM 0.07 32.126 0.494 9.39 2.77 15.23
12/21/2020 4:00:00 PM 0.06 32.108 0.494 9.4 2.76 15.22
12/21/2020 4:15:00 PM 0.06 32.108 0.493 9.4 2.67 15.17
12/21/2020 4:30:00 PM 0.06 32.108 0.493 9.4 2.8 15.13
12/21/2020 4:45:00 PM 0.06 32.108 0.492 9.4 2.8 15.08
12/21/2020 5:00:00 PM 0.06 32.108 0.492 9.4 2.78 15.04
12/21/2020 5:15:00 PM 0.06 32.108 0.491 9.4 2.84 14.97
12/21/2020 5:30:00 PM 0.05 32.09 0.49 9.39 2.83 14.9
12/21/2020 5:45:00 PM 0.05 32.09 0.49 9.38 2.85 14.81
12/21/2020 6:00:00 PM 0.05 32.09 0.489 9.37 2.8 14.74
12/21/2020 6:15:00 PM 0.05 32.09 0.489 9.36 2.83 14.68
12/21/2020 6:30:00 PM 0.06 32.108 0.489 9.35 2.85 14.6
12/21/2020 6:45:00 PM 0.05 32.09 0.488 9.33 2.87 14.51
12/21/2020 7:00:00 PM 0.05 32.09 0.488 9.32 3.04 14.45
12/21/2020 7:15:00 PM 0.06 32.108 0.487 9.3 2.89 14.38
12/21/2020 7:30:00 PM 0.05 32.09 0.487 9.29 2.85 14.32
12/21/2020 7:45:00 PM 0.06 32.108 0.487 9.28 2.83 14.27
12/21/2020 8:00:00 PM 0.06 32.108 0.486 9.25 2.94 14.2
12/21/2020 8:15:00 PM 0.06 32.108 0.486 9.24 2.84 14.14
12/21/2020 8:30:00 PM 0.06 32.108 0.486 9.22 2.83 14.08
12/21/2020 8:45:00 PM 0.06 32.108 0.486 9.2 2.89 14.03
12/21/2020 9:00:00 PM 0.06 32.108 0.486 9.18 2.94 13.98
12/21/2020 9:15:00 PM 0.06 32.108 0.485 9.16 2.9 13.93
12/21/2020 9:30:00 PM 0.06 32.108 0.485 9.14 2.84 13.9
12/21/2020 9:45:00 PM 0.06 32.108 0.485 9.13 3.09 13.87
12/21/2020 10:00:00 PM 0.06 32.108 0.485 9.11 3 13.84
12/21/2020 10:15:00 PM 0.06 32.108 0.484 9.11 3.2 13.81
12/21/2020 10:30:00 PM 0.06 32.108 0.484 9.09 3.13 13.78
12/21/2020 10:45:00 PM 0.06 32.108 0.483 9.09 3.11 13.77
12/21/2020 11:00:00 PM 0.05 32.09 0.483 9.08 3.05 13.74
12/21/2020 11:15:00 PM 0.06 32.108 0.482 9.06 3.23 13.73
12/21/2020 11:30:00 PM 0.06 32.108 0.482 9.05 3.05 13.71
12/21/2020 11:45:00 PM 0.06 32.108 0.482 9.05 3.04 13.7
12/22/2020 12:00:00 AM 0.06 32.108 0.482 9.04 3.31 13.69
12/22/2020 12:15:00 AM 0.06 32.108 0.482 9.03 3.04 13.67
12/22/2020 12:30:00 AM 0.06 32.108 0.482 9.03 3.01 13.66
12/22/2020 12:45:00 AM 0.06 32.108 0.483 9.02 2.97 13.65
12/22/2020 1:00:00 AM 0.07 32.126 0.484 9.02 2.98 13.64
12/22/2020 1:15:00 AM 0.07 32.126 0.485 9.02 2.97 13.63
12/22/2020 1:30:00 AM 0.07 32.126 0.486 9.02 2.87 13.62
12/22/2020 1:45:00 AM 0.07 32.126 0.489 9.01 3.07 13.6
12/22/2020 2:00:00 AM 0.07 32.126 0.49 9.01 2.9 13.59
12/22/2020 2:15:00 AM 0.07 32.126 0.493 9.01 2.85 13.58
12/22/2020 2:30:00 AM 0.07 32.126 0.495 9 2.84 13.56
12/22/2020 2:45:00 AM 0.07 32.126 0.498 9 2.79 13.55
12/22/2020 3:00:00 AM 0.07 32.126 0.499 8.99 2.89 13.54
12/22/2020 3:15:00 AM 0.08 32.144 0.501 8.99 2.95 13.53
12/22/2020 3:30:00 AM 0.08 32.144 0.504 8.98 2.99 13.52
12/22/2020 3:45:00 AM 0.07 32.126 0.506 8.97 2.95 13.53
12/22/2020 4:00:00 AM 0.07 32.126 0.507 8.97 2.95 13.52
12/22/2020 4:15:00 AM 0.07 32.126 0.508 8.96 2.95 13.53
12/22/2020 4:30:00 AM 0.07 32.126 0.508 8.96 2.9 13.53
12/22/2020 4:45:00 AM 0.07 32.126 0.508 8.96 3.03 13.52
12/22/2020 5:00:00 AM 0.06 32.108 0.508 8.96 2.94 13.51
12/22/2020 5:15:00 AM 0.06 32.108 0.508 8.96 2.87 13.51
12/22/2020 5:30:00 AM 0.06 32.108 0.507 8.96 2.84 13.52
12/22/2020 5:45:00 AM 0.06 32.108 0.507 8.96 2.83 13.52
12/22/2020 6:00:00 AM 0.05 32.09 0.505 8.95 2.76 13.53
12/22/2020 6:15:00 AM 0.05 32.09 0.505 8.95 2.75 13.54
12/22/2020 6:30:00 AM 0.05 32.09 0.503 8.95 2.8 13.55
12/22/2020 6:45:00 AM 0.05 32.09 0.502 8.95 2.75 13.55
12/22/2020 7:00:00 AM 0.05 32.09 0.5 8.95 2.75 13.56
12/22/2020 7:15:00 AM 0.05 32.09 0.499 8.95 3.23 13.56
12/22/2020 7:30:00 AM 0.05 32.09 0.497 8.94 2.79 13.57
12/22/2020 7:45:00 AM 0.05 32.09 0.496 8.93 2.78 13.57
12/22/2020 8:00:00 AM 0.05 32.09 0.495 8.93 2.77 13.54
12/22/2020 8:15:00 AM 0.05 32.09 0.494 8.93 2.8 13.56
12/22/2020 8:30:00 AM 0.06 32.108 0.494 8.93 2.81 13.53
12/22/2020 8:45:00 AM 0.06 32.108 0.493 8.93 3.29 13.56
12/22/2020 9:00:00 AM 0.06 32.108 0.493 8.93 2.75 13.6
12/22/2020 9:15:00 AM 0.06 32.108 0.492 8.92 3.2 13.61
12/22/2020 9:30:00 AM 0.06 32.108 0.492 8.94 3.13 13.48
12/22/2020 9:45:00 AM 0.07 32.126 0.491 8.93 2.73 13.69
12/22/2020 10:00:00 AM 0.07 32.126 0.49 8.95 2.93 13.77
12/22/2020 10:15:00 AM 0.07 32.126 0.49 8.96 2.76 13.88
12/22/2020 10:30:00 AM 0.08 32.144 0.49 8.97 2.72 13.96
12/22/2020 10:45:00 AM 0.08 32.144 0.489 8.99 2.83 14.08
12/22/2020 11:00:00 AM 0.08 32.144 0.488 9.01 2.71 14.22
12/22/2020 11:15:00 AM 0.09 32.162 0.488 9.04 2.88 14.36
12/22/2020 11:30:00 AM 0.09 32.162 0.487 9.06 2.75 14.49
12/22/2020 11:45:00 AM 0.1 32.18 0.486 9.08 2.75 14.61
12/22/2020 12:00:00 PM 0.1 32.18 0.485 9.1 2.73 14.73
12/22/2020 12:15:00 PM 0.1 32.18 0.485 9.12 2.79 14.8
12/22/2020 12:30:00 PM 0.1 32.18 0.484 9.16 2.72 14.91
12/22/2020 12:45:00 PM 0.1 32.18 0.483 9.17 2.72 14.98
12/22/2020 1:00:00 PM 0.1 32.18 0.482 9.2 2.77 15.07
12/22/2020 1:15:00 PM 0.1 32.18 0.481 9.23 3.23 15.16
12/22/2020 1:30:00 PM 0.1 32.18 0.481 9.25 2.74 15.25
12/22/2020 1:45:00 PM 0.11 32.198 0.48 9.29 2.87 15.36
12/22/2020 2:00:00 PM 0.11 32.198 0.479 9.33 2.79 15.47
12/22/2020 2:15:00 PM 0.1 32.18 0.477 9.39 2.7 15.62
12/22/2020 2:30:00 PM 0.1 32.18 0.476 9.41 2.72 15.68
12/22/2020 2:45:00 PM 0.1 32.18 0.476 9.44 2.75 15.74
12/22/2020 3:00:00 PM 0.1 32.18 0.475 9.47 2.72 15.77
12/22/2020 3:15:00 PM 0.09 32.162 0.474 9.49 2.77 15.78
12/22/2020 3:30:00 PM 0.09 32.162 0.474 9.5 2.82 15.78
12/22/2020 3:45:00 PM 0.09 32.162 0.473 9.51 2.8 15.75
12/22/2020 4:00:00 PM 0.08 32.144 0.473 9.52 2.82 15.69
12/22/2020 4:15:00 PM 0.08 32.144 0.473 9.51 2.78 15.62
12/22/2020 4:30:00 PM 0.08 32.144 0.473 9.51 2.84 15.53
12/22/2020 4:45:00 PM 0.08 32.144 0.472 9.5 2.82 15.47
12/22/2020 5:00:00 PM 0.07 32.126 0.472 9.5 2.84 15.4
12/22/2020 5:15:00 PM 0.07 32.126 0.472 9.5 2.83 15.34
12/22/2020 5:30:00 PM 0.07 32.126 0.472 9.49 2.79 15.27
12/22/2020 5:45:00 PM 0.07 32.126 0.472 9.48 2.86 15.18
12/22/2020 6:00:00 PM 0.07 32.126 0.471 9.46 2.96 15.09
12/22/2020 6:15:00 PM 0.07 32.126 0.472 9.43 2.9 14.98
12/22/2020 6:30:00 PM 0.07 32.126 0.471 9.41 2.89 14.87
12/22/2020 6:45:00 PM 0.07 32.126 0.471 9.37 2.94 14.79
12/22/2020 7:00:00 PM 0.07 32.126 0.471 9.35 3.08 14.69
12/22/2020 7:15:00 PM 0.07 32.126 0.471 9.33 2.96 14.62
12/22/2020 7:30:00 PM 0.07 32.126 0.471 9.3 2.97 14.55
12/22/2020 7:45:00 PM 0.07 32.126 0.471 9.29 2.85 14.51
12/22/2020 8:00:00 PM 0.07 32.126 0.471 9.26 2.87 14.45
12/22/2020 8:15:00 PM 0.07 32.126 0.471 9.23 2.96 14.39
12/22/2020 8:30:00 PM 0.07 32.126 0.471 9.21 2.95 14.35
12/22/2020 8:45:00 PM 0.07 32.126 0.471 9.19 2.9 14.3
12/22/2020 9:00:00 PM 0.07 32.126 0.472 9.17 2.79 14.26
12/22/2020 9:15:00 PM 0.07 32.126 0.471 9.15 2.86 14.22
12/22/2020 9:30:00 PM 0.07 32.126 0.471 9.12 2.94 14.19
12/22/2020 9:45:00 PM 0.07 32.126 0.471 9.1 2.87 14.15
12/22/2020 10:00:00 PM 0.07 32.126 0.472 9.08 2.86 14.13
12/22/2020 10:15:00 PM 0.07 32.126 0.472 9.07 2.87 14.11
12/22/2020 10:30:00 PM 0.07 32.126 0.473 9.05 2.83 14.09
12/22/2020 10:45:00 PM 0.07 32.126 0.474 9.04 2.95 14.07
12/22/2020 11:00:00 PM 0.07 32.126 0.474 9.02 2.82 14.05
12/22/2020 11:15:00 PM 0.07 32.126 0.476 9.01 2.98 14.04
12/22/2020 11:30:00 PM 0.07 32.126 0.477 9 3.03 14.03
12/22/2020 11:45:00 PM 0.08 32.144 0.479 8.99 3.13 14.02
12/23/2020 12:00:00 AM 0.08 32.144 0.48 8.99 2.99 14.01
12/23/2020 12:15:00 AM 0.07 32.126 0.482 8.97 3.23 14
12/23/2020 12:30:00 AM 0.07 32.126 0.484 8.96 3.1 13.99
12/23/2020 12:45:00 AM 0.07 32.126 0.486 8.95 3.2 13.97
12/23/2020 1:00:00 AM 0.07 32.126 0.487 8.95 2.99 13.96
12/23/2020 1:15:00 AM 0.07 32.126 0.489 8.94 3.16 13.96
12/23/2020 1:30:00 AM 0.07 32.126 0.49 8.94 2.98 13.96
12/23/2020 1:45:00 AM 0.07 32.126 0.491 8.93 2.91 13.95
12/23/2020 2:00:00 AM 0.07 32.126 0.492 8.93 2.96 13.95
12/23/2020 2:15:00 AM 0.07 32.126 0.493 8.92 2.91 13.94
12/23/2020 2:30:00 AM 0.07 32.126 0.494 8.91 2.83 13.94
12/23/2020 2:45:00 AM 0.07 32.126 0.494 8.9 2.88 13.92
12/23/2020 3:00:00 AM 0.07 32.126 0.494 8.89 2.91 13.92
12/23/2020 3:15:00 AM 0.07 32.126 0.494 8.9 2.91 13.92
12/23/2020 3:30:00 AM 0.07 32.126 0.494 8.89 2.94 13.92
12/23/2020 3:45:00 AM 0.07 32.126 0.494 8.89 2.99 13.93
12/23/2020 4:00:00 AM 0.06 32.108 0.494 8.88 3.03 13.94
12/23/2020 4:15:00 AM 0.06 32.108 0.493 8.89 3.02 13.94
12/23/2020 4:30:00 AM 0.06 32.108 0.493 8.88 3.18 13.94
12/23/2020 4:45:00 AM 0.06 32.108 0.492 8.88 3.21 13.95
12/23/2020 5:00:00 AM 0.06 32.108 0.491 8.88 3.1 13.95
12/23/2020 5:15:00 AM 0.06 32.108 0.49 8.87 3.08 13.96
12/23/2020 5:30:00 AM 0.06 32.108 0.489 8.87 3.06 13.96
12/23/2020 5:45:00 AM 0.06 32.108 0.488 8.86 2.97 13.96
12/23/2020 6:00:00 AM 0.06 32.108 0.488 8.86 2.93 13.96
12/23/2020 6:15:00 AM 0.06 32.108 0.486 8.85 2.84 13.97
12/23/2020 6:30:00 AM 0.06 32.108 0.486 8.85 2.83 13.97
12/23/2020 6:45:00 AM 0.06 32.108 0.485 8.85 2.88 13.98
12/23/2020 7:00:00 AM 0.06 32.108 0.484 8.85 2.85 13.98
12/23/2020 7:15:00 AM 0.05 32.09 0.483 8.85 2.84 13.99
12/23/2020 7:30:00 AM 0.05 32.09 0.483 8.84 2.88 13.99
12/23/2020 7:45:00 AM 0.05 32.09 0.482 8.84 2.82 13.99
12/23/2020 8:00:00 AM 0.06 32.108 0.482 8.84 2.74 13.99
12/23/2020 8:15:00 AM 0.06 32.108 0.482 8.83 2.74 13.99
12/23/2020 8:30:00 AM 0.06 32.108 0.482 8.83 2.84 13.99
12/23/2020 8:45:00 AM 0.06 32.108 0.481 8.83 2.74 14
12/23/2020 9:00:00 AM 0.06 32.108 0.482 8.83 2.8 14.01
12/23/2020 9:15:00 AM 0.07 32.126 0.482 8.83 2.75 14.03
12/23/2020 9:30:00 AM 0.07 32.126 0.481 8.84 2.75 14.1
12/23/2020 9:45:00 AM 0.07 32.126 0.481 8.85 2.75 14.16
12/23/2020 10:00:00 AM 0.07 32.126 0.481 8.86 2.75 14.27
12/23/2020 10:15:00 AM 0.08 32.144 0.481 8.88 2.79 14.38
12/23/2020 10:30:00 AM 0.09 32.162 0.48 8.9 2.77 14.52
12/23/2020 10:45:00 AM 0.09 32.162 0.48 8.92 2.75 14.63
12/23/2020 11:00:00 AM 0.1 32.18 0.48 8.95 2.73 14.79
12/23/2020 11:15:00 AM 0.11 32.198 0.479 8.98 2.77 14.97
12/23/2020 11:30:00 AM 0.12 32.216 0.479 9.01 2.76 15.1
12/23/2020 11:45:00 AM 0.12 32.216 0.478 9.05 2.75 15.25
12/23/2020 12:00:00 PM 0.12 32.216 0.477 9.09 2.72 15.37
12/23/2020 12:15:00 PM 0.14 32.252 0.476 9.11 2.7 15.47
12/23/2020 12:30:00 PM 0.14 32.252 0.475 9.15 2.73 15.59
12/23/2020 12:45:00 PM 0.14 32.252 0.474 9.17 2.72 15.64
12/23/2020 1:00:00 PM 0.14 32.252 0.473 9.2 2.71 15.71
12/23/2020 1:15:00 PM 0.14 32.252 0.472 9.24 2.73 15.78
12/23/2020 1:30:00 PM 0.15 32.27 0.471 9.28 2.77 15.87
12/23/2020 1:45:00 PM 0.15 32.27 0.47 9.31 2.78 15.91
12/23/2020 2:00:00 PM 0.15 32.27 0.469 9.34 2.75 15.98
12/23/2020 2:15:00 PM 0.15 32.27 0.468 9.37 2.74 16.05
12/23/2020 2:30:00 PM 0.15 32.27 0.467 9.41 2.73 16.09
12/23/2020 2:45:00 PM 0.15 32.27 0.467 9.44 2.79 16.14
12/23/2020 3:00:00 PM 0.15 32.27 0.466 9.47 2.83 16.18
12/23/2020 3:15:00 PM 0.15 32.27 0.465 9.49 2.8 16.2
12/23/2020 3:30:00 PM 0.14 32.252 0.464 9.52 2.8 16.21
12/23/2020 3:45:00 PM 0.14 32.252 0.464 9.54 2.79 16.2
12/23/2020 4:00:00 PM 0.14 32.252 0.464 9.56 2.79 16.18
12/23/2020 4:15:00 PM 0.14 32.252 0.463 9.57 2.77 16.15
12/23/2020 4:30:00 PM 0.13 32.234 0.463 9.58 2.76 16.12
12/23/2020 4:45:00 PM 0.12 32.216 0.462 9.57 2.71 16.09
12/23/2020 5:00:00 PM 0.11 32.198 0.462 9.61 2.77 16.05
12/23/2020 5:15:00 PM 0.11 32.198 0.462 9.6 2.75 15.99
12/23/2020 5:30:00 PM 0.1 32.18 0.462 9.6 2.81 15.87
12/23/2020 5:45:00 PM 0.09 32.162 0.462 9.59 2.81 15.74
12/23/2020 6:00:00 PM 0.09 32.162 0.463 9.56 2.76 15.6
12/23/2020 6:15:00 PM 0.08 32.144 0.463 9.55 2.84 15.46
12/23/2020 6:30:00 PM 0.08 32.144 0.464 9.52 2.81 15.32
12/23/2020 6:45:00 PM 0.08 32.144 0.465 9.5 2.8 15.22
12/23/2020 7:00:00 PM 0.08 32.144 0.465 9.47 2.84 15.1
12/23/2020 7:15:00 PM 0.08 32.144 0.466 9.45 2.83 15.02
12/23/2020 7:30:00 PM 0.07 32.126 0.466 9.42 2.87 14.93
12/23/2020 7:45:00 PM 0.07 32.126 0.467 9.39 2.88 14.84
12/23/2020 8:00:00 PM 0.07 32.126 0.467 9.36 2.89 14.75
12/23/2020 8:15:00 PM 0.08 32.144 0.468 9.32 3.08 14.68
12/23/2020 8:30:00 PM 0.08 32.144 0.469 9.29 2.89 14.59
12/23/2020 8:45:00 PM 0.08 32.144 0.469 9.25 2.87 14.53
12/23/2020 9:00:00 PM 0.08 32.144 0.47 9.21 2.84 14.46
12/23/2020 9:15:00 PM 0.08 32.144 0.47 9.17 2.83 14.4
12/23/2020 9:30:00 PM 0.08 32.144 0.47 9.15 2.98 14.35
12/23/2020 9:45:00 PM 0.08 32.144 0.471 9.12 2.86 14.31
12/23/2020 10:00:00 PM 0.08 32.144 0.471 9.1 2.93 14.26
12/23/2020 10:15:00 PM 0.08 32.144 0.471 9.08 2.98 14.24
12/23/2020 10:30:00 PM 0.07 32.126 0.472 9.05 3.21 14.2
12/23/2020 10:45:00 PM 0.08 32.144 0.472 9.03 3.04 14.18
12/23/2020 11:00:00 PM 0.08 32.144 0.473 9.02 3.22 14.15
12/23/2020 11:15:00 PM 0.08 32.144 0.473 9 2.9 14.13
12/23/2020 11:30:00 PM 0.07 32.126 0.473 8.98 2.93 14.11
12/23/2020 11:45:00 PM 0.07 32.126 0.474 8.97 2.92 14.09
12/24/2020 12:00:00 AM 0.08 32.144 0.474 8.96 2.93 14.07
12/24/2020 12:15:00 AM 0.07 32.126 0.474 8.95 2.88 14.05
12/24/2020 12:30:00 AM 0.07 32.126 0.475 8.93 2.93 14.03
12/24/2020 12:45:00 AM 0.07 32.126 0.476 8.92 2.86 14
12/24/2020 1:00:00 AM 0.07 32.126 0.477 8.91 2.88 13.98
12/24/2020 1:15:00 AM 0.07 32.126 0.478 8.9 2.87 13.97
12/24/2020 1:30:00 AM 0.07 32.126 0.479 8.9 2.89 13.95
12/24/2020 1:45:00 AM 0.07 32.126 0.481 8.89 2.99 13.94
12/24/2020 2:00:00 AM 0.07 32.126 0.482 8.88 3.01 13.93
12/24/2020 2:15:00 AM 0.07 32.126 0.483 8.87 2.93 13.91
12/24/2020 2:30:00 AM 0.07 32.126 0.485 8.87 3.02 13.91
12/24/2020 2:45:00 AM 0.07 32.126 0.487 8.86 2.99 13.9
12/24/2020 3:00:00 AM 0.07 32.126 0.487 8.85 3.06 13.9
12/24/2020 3:15:00 AM 0.07 32.126 0.488 8.85 2.97 13.89
12/24/2020 3:30:00 AM 0.07 32.126 0.489 8.84 3.09 13.89
12/24/2020 3:45:00 AM 0.07 32.126 0.491 8.83 3.03 13.89
12/24/2020 4:00:00 AM 0.07 32.126 0.491 8.84 3.01 13.88
12/24/2020 4:15:00 AM 0.07 32.126 0.492 8.83 3.08 13.87
12/24/2020 4:30:00 AM 0.07 32.126 0.492 8.82 2.92 13.87
12/24/2020 4:45:00 AM 0.07 32.126 0.493 8.82 2.99 13.86
12/24/2020 5:00:00 AM 0.07 32.126 0.494 8.82 3.07 13.86
12/24/2020 5:15:00 AM 0.07 32.126 0.494 8.81 3.16 13.85
12/24/2020 5:30:00 AM 0.06 32.108 0.494 8.81 3.07 13.86
12/24/2020 5:45:00 AM 0.07 32.126 0.495 8.81 2.99 13.85
12/24/2020 6:00:00 AM 0.07 32.126 0.495 8.8 2.92 13.85
12/24/2020 6:15:00 AM 0.07 32.126 0.495 8.8 2.9 13.85
12/24/2020 6:30:00 AM 0.07 32.126 0.496 8.8 3.04 13.84
12/24/2020 6:45:00 AM 0.07 32.126 0.496 8.8 2.83 13.84
12/24/2020 7:00:00 AM 0.07 32.126 0.496 8.79 2.83 13.83
12/24/2020 7:15:00 AM 0.07 32.126 0.497 8.79 2.83 13.83
12/24/2020 7:30:00 AM 0.07 32.126 0.497 8.79 2.8 13.82
12/24/2020 7:45:00 AM 0.07 32.126 0.497 8.78 2.82 13.82
12/24/2020 8:00:00 AM 0.07 32.126 0.498 8.78 2.81 13.81
12/24/2020 8:15:00 AM 0.07 32.126 0.498 8.78 2.74 13.81
12/24/2020 8:30:00 AM 0.07 32.126 0.498 8.78 2.73 13.81
12/24/2020 8:45:00 AM 0.08 32.144 0.499 8.78 2.74 13.82
12/24/2020 9:00:00 AM 0.08 32.144 0.499 8.78 2.74 13.83
12/24/2020 9:15:00 AM 0.09 32.162 0.499 8.79 2.76 13.89
12/24/2020 9:30:00 AM 0.09 32.162 0.499 8.8 2.74 13.96
12/24/2020 9:45:00 AM 0.1 32.18 0.499 8.82 2.79 14.09
12/24/2020 10:00:00 AM 0.11 32.198 0.498 8.84 2.84 14.23
12/24/2020 10:15:00 AM 0.12 32.216 0.498 8.88 2.78 14.41
12/24/2020 10:30:00 AM 0.13 32.234 0.498 8.92 2.78 14.63
12/24/2020 10:45:00 AM 0.14 32.252 0.498 8.96 2.79 14.81
12/24/2020 11:00:00 AM 0.14 32.252 0.498 8.99 2.79 14.95
12/24/2020 11:15:00 AM 0.14 32.252 0.497 9.02 2.8 15.07
12/24/2020 11:30:00 AM 0.14 32.252 0.496 9.06 2.81 15.23
12/24/2020 11:45:00 AM 0.15 32.27 0.495 9.1 2.8 15.38
12/24/2020 12:00:00 PM 0.15 32.27 0.493 9.13 2.83 15.5
12/24/2020 12:15:00 PM 0.15 32.27 0.492 9.17 2.79 15.64
12/24/2020 12:30:00 PM 0.15 32.27 0.49 9.23 2.82 15.77
12/24/2020 12:45:00 PM 0.15 32.27 0.489 9.27 2.84 15.89
12/24/2020 1:00:00 PM 0.14 32.252 0.487 9.33 2.85 15.99
12/24/2020 1:15:00 PM 0.13 32.234 0.484 9.37 2.94 16.09
12/24/2020 1:30:00 PM 0.13 32.234 0.482 9.41 3 16.15
12/24/2020 1:45:00 PM 0.12 32.216 0.479 9.43 2.99 16.17
12/24/2020 2:00:00 PM 0.12 32.216 0.476 9.46 3.16 16.21
12/24/2020 2:15:00 PM 0.12 32.216 0.474 9.49 3 16.24
12/24/2020 2:30:00 PM 0.11 32.198 0.471 9.52 3.12 16.26
12/24/2020 2:45:00 PM 0.11 32.198 0.469 9.53 3.11 16.25
12/24/2020 3:00:00 PM 0.11 32.198 0.466 9.54 3.18 16.21
12/24/2020 3:15:00 PM 0.1 32.18 0.464 9.54 3.23 16.16
12/24/2020 3:30:00 PM 0.1 32.18 0.461 9.53 3.37 16.06
12/24/2020 3:45:00 PM 0.1 32.18 0.459 9.51 3.63 15.97
12/24/2020 4:00:00 PM 0.09 32.162 0.456 9.49 3.9 15.82
12/24/2020 4:15:00 PM 0.09 32.162 0.453 9.46 3.37 15.69
12/24/2020 4:30:00 PM 0.09 32.162 0.45 9.44 3.33 15.56
12/24/2020 4:45:00 PM 0.08 32.144 0.449 9.4 3.55 15.4
12/24/2020 5:00:00 PM 0.08 32.144 0.447 9.36 3.86 15.24
12/24/2020 5:15:00 PM 0.07 32.126 0.446 9.3 3.92 15.06
12/24/2020 5:30:00 PM 0.07 32.126 0.446 9.24 3.79 14.9
12/24/2020 5:45:00 PM 0.06 32.108 0.45 9.17 4.01 14.71
12/24/2020 6:00:00 PM 0.05 32.09 0.458 9.11 4.71 14.55
12/24/2020 6:15:00 PM 0.04 32.072 0.472 9.07 4.89 14.44
12/24/2020 6:30:00 PM 0.04 32.072 0.484 9.03 6.29 14.35
12/24/2020 6:45:00 PM 0.03 32.054 0.503 8.98 7.34 14.27
12/24/2020 7:00:00 PM 0.03 32.054 0.518 8.93 10.41 14.17
12/24/2020 7:15:00 PM 0.02 32.036 0.536 8.86 15.34 14.1
12/24/2020 7:30:00 PM 0.02 32.036 0.553 8.78 19.41 14.01
12/24/2020 7:45:00 PM 0.01 32.018 0.568 8.68 114.08 13.91
12/24/2020 8:00:00 PM 0 32 0.555 8.62 73.01 13.85
12/24/2020 8:15:00 PM 0.01 32.018 0.499 8.62 143.94 13.84
12/24/2020 8:30:00 PM 0.01 32.018 0.446 8.6 175.99 13.87
12/24/2020 8:45:00 PM 0 32 0.38 8.58 253.95 13.84
12/24/2020 9:00:00 PM 0 32 0.343 8.56 361.9 13.84
12/24/2020 9:15:00 PM 0 32 0.341 8.62 276.09 13.92
12/24/2020 9:30:00 PM 0 32 0.335 8.6 304.48 13.91
12/24/2020 9:45:00 PM 0 32 0.346 8.59 362.64 13.93
12/24/2020 10:00:00 PM 0.01 32.018 0.349 8.55 331.7 13.96
12/24/2020 10:15:00 PM 0.01 32.018 0.342 8.53 367.41 13.97
12/24/2020 10:30:00 PM 0.02 32.036 0.333 8.51 286.68 13.97
12/24/2020 10:45:00 PM 0.02 32.036 0.322 8.51 389.37 13.97
12/24/2020 11:00:00 PM 0.04 32.072 0.311 8.51 353.28 13.98
12/24/2020 11:15:00 PM 0.05 32.09 0.297 8.49 349.54 13.97
12/24/2020 11:30:00 PM 0.07 32.126 0.286 8.48 272.23 13.95
12/24/2020 11:45:00 PM 0.1 32.18 0.274 8.43 356.95 13.96
12/25/2020 12:00:00 AM 0.14 32.252 0.264 8.4 320.35 13.95
12/25/2020 12:15:00 AM 0.19 32.342 0.257 8.37 334.08 13.93
12/25/2020 12:30:00 AM 0.26 32.468 0.252 8.36 273.69 13.92
12/25/2020 12:45:00 AM 0.31 32.558 0.247 8.35 227.72 13.91
12/25/2020 1:00:00 AM 0.3 32.54 0.242 8.35 279.79 13.89
12/25/2020 1:15:00 AM 0.41 32.738 0.236 8.34 302.47 13.87
12/25/2020 1:30:00 AM 0.5 32.9 0.23 8.36 305.48 13.85
12/25/2020 1:45:00 AM 0.59 33.062 0.225 8.35 313.03 13.83
12/25/2020 2:00:00 AM 0.65 33.17 0.219 8.33 294.69 13.81
12/25/2020 2:15:00 AM 0.7 33.26 0.213 8.3 309.51 13.81
12/25/2020 2:30:00 AM 0.77 33.386 0.206 8.29 284.73 13.8
12/25/2020 2:45:00 AM 0.81 33.458 0.202 8.29 317.7 13.8
12/25/2020 3:00:00 AM 0.85 33.53 0.198 8.28 289.13 13.79
12/25/2020 3:15:00 AM 0.88 33.584 0.194 8.31 336.85 13.79
12/25/2020 3:30:00 AM 0.91 33.638 0.19 8.28 329.41 13.78
12/25/2020 3:45:00 AM 0.91 33.638 0.187 8.28 297.59 13.78
12/25/2020 4:00:00 AM 0.92 33.656 0.184 8.28 279.84 13.78
12/25/2020 4:15:00 AM 0.92 33.656 0.181 8.27 359 13.79
12/25/2020 4:30:00 AM 0.93 33.674 0.178 8.27 340 13.79
12/25/2020 4:45:00 AM 0.94 33.692 0.089 8.3 76.49 13.79
12/25/2020 5:00:00 AM 0.96 33.728 0.047 8.27 4832.36 13.8
12/25/2020 5:15:00 AM 1 33.8 0.135 8.34 462.53 13.78
12/25/2020 5:30:00 AM 1.02 33.836 0.133 8.22 538.42 13.78
12/25/2020 5:45:00 AM 1.05 33.89 0.127 8.21 739.75 13.78
12/25/2020 6:00:00 AM 1.07 33.926 0.121 8.15 980.79 13.78
12/25/2020 6:15:00 AM 1.08 33.944 0.116 8.17 739.5 13.77
12/25/2020 6:30:00 AM 1.09 33.962 0.111 8.15 724.94 13.77
12/25/2020 6:45:00 AM 1.11 33.998 0.107 8.16 645.8 13.77
12/25/2020 7:00:00 AM 1.13 34.034 0.103 8.15 922.34 13.76
12/25/2020 7:15:00 AM 1.15 34.07 0.1 8.16 1127.25 13.76
12/25/2020 7:30:00 AM 1.17 34.106 0.098 8.18 1255.17 13.76
12/25/2020 7:45:00 AM 1.19 34.142 0.096 8.18 1407.25 13.75
12/25/2020 8:00:00 AM 1.21 34.178 0.094 8.19 1646.02 13.74
12/25/2020 8:15:00 AM 1.24 34.232 0.091 8.2 1699.52 13.74
12/25/2020 8:30:00 AM 1.26 34.268 0.089 8.21 1953.55 13.73
12/25/2020 8:45:00 AM 1.28 34.304 0.086 8.23 2241.22 13.73
12/25/2020 9:00:00 AM 1.3 34.34 0.082 8.25 2513.6 13.72
12/25/2020 9:15:00 AM 1.33 34.394 0.079 8.26 2821.76 13.72
12/25/2020 9:30:00 AM 1.35 34.43 0.073 8.25 3618.27 13.71
12/25/2020 9:45:00 AM 1.37 34.466 0.067 8.26 4198.67 13.7
12/25/2020 10:00:00 AM 1.39 34.502 0.062 8.3 4574.27 13.7
12/25/2020 10:15:00 AM 1.42 34.556 0.058 8.29 5382.2 13.69
12/25/2020 10:30:00 AM 1.43 34.574 0.052 8.33 6437.72 13.69
12/25/2020 10:45:00 AM 1.44 34.592 0.049 8.32 9160.42 13.68
12/25/2020 11:00:00 AM 1.46 34.628 0.144 8.36 28.33 13.67
12/25/2020 11:15:00 AM 1.48 34.664 0.138 8.28 133.92 13.67
12/25/2020 11:30:00 AM 1.5 34.7 0.131 8.32 150 13.66
12/25/2020 11:45:00 AM 1.52 34.736 0.123 8.35 151.38 13.66
12/25/2020 12:00:00 PM 1.54 34.772 0.118 8.37 143.69 13.65
12/25/2020 12:15:00 PM 1.56 34.808 0.114 8.4 134.25 13.64
12/25/2020 12:30:00 PM 1.58 34.844 0.104 8.37 100.41 13.64
12/25/2020 12:45:00 PM 1.61 34.898 0.142 8.34 133.19 13.63
12/25/2020 1:00:00 PM 1.63 34.934 0.117 8.35 55.74 13.61
12/25/2020 1:15:00 PM 1.65 34.97 0.092 8.37 63.73 13.61
12/25/2020 1:30:00 PM 1.67 35.006 0.193 8.51 46.55 13.6
12/25/2020 1:45:00 PM 1.69 35.042 0.179 8.48 43.08 13.6
12/25/2020 2:00:00 PM 1.72 35.096 0.168 8.43 465.13 13.59
12/25/2020 2:15:00 PM 1.76 35.168 0.198 8.44 39.01 13.58
12/25/2020 2:30:00 PM 1.78 35.204 0.199 8.44 46.97 13.58
12/25/2020 2:45:00 PM 1.79 35.222 0.181 8.44 50.67 13.57
12/25/2020 3:00:00 PM 1.81 35.258 0.197 8.42 31.32 13.56
12/25/2020 3:15:00 PM 1.83 35.294 0.199 8.43 32.49 13.55
12/25/2020 3:30:00 PM 1.83 35.294 0.204 8.42 38.31 13.54
12/25/2020 3:45:00 PM 1.83 35.294 0.206 8.41 43.51 13.54
12/25/2020 4:00:00 PM 1.82 35.276 0.205 8.42 33.64 13.54
12/25/2020 4:15:00 PM 1.82 35.276 0.208 8.41 33.11 13.53
12/25/2020 4:30:00 PM 1.81 35.258 0.208 8.4 34.93 13.53
12/25/2020 4:45:00 PM 1.79 35.222 0.209 8.41 35.11 13.53
12/25/2020 5:00:00 PM 1.78 35.204 0.211 8.41 29.5 13.53
12/25/2020 5:15:00 PM 1.76 35.168 0.213 8.4 26.98 13.54
12/25/2020 5:30:00 PM 1.73 35.114 0.214 8.41 27.72 13.54
12/25/2020 5:45:00 PM 1.71 35.078 0.212 8.39 27.91 13.55
12/25/2020 6:00:00 PM 1.68 35.024 0.216 8.4 29.28 13.56
12/25/2020 6:15:00 PM 1.65 34.97 0.217 8.39 27.55 13.56
12/25/2020 6:30:00 PM 1.62 34.916 0.219 8.37 29.59 13.57
12/25/2020 6:45:00 PM 1.58 34.844 0.217 8.39 25.21 13.59
12/25/2020 7:00:00 PM 1.54 34.772 0.221 8.39 24.13 13.59
12/25/2020 7:15:00 PM 1.5 34.7 0.217 8.38 23.84 13.6
12/25/2020 7:30:00 PM 1.46 34.628 0.22 8.38 22.63 13.62
12/25/2020 7:45:00 PM 1.42 34.556 0.223 8.37 24.92 13.64
12/25/2020 8:00:00 PM 1.38 34.484 0.225 8.37 23.04 13.66
12/25/2020 8:15:00 PM 1.34 34.412 0.225 8.36 22.9 13.67
12/25/2020 8:30:00 PM 1.29 34.322 0.221 8.37 68.69 13.69
12/25/2020 8:45:00 PM 1.25 34.25 0.225 8.37 26.01 13.71
12/25/2020 9:00:00 PM 1.22 34.196 0.227 8.36 23.21 13.72
12/25/2020 9:15:00 PM 1.16 34.088 0.224 8.37 24.23 13.75
12/25/2020 9:30:00 PM 1.11 33.998 0.226 8.36 23.59 13.76
12/25/2020 9:45:00 PM 1.08 33.944 0.231 8.35 21.24 13.78
12/25/2020 10:00:00 PM 1.02 33.836 0.229 8.35 22.58 13.8
12/25/2020 10:15:00 PM 0.97 33.746 0.23 8.34 20.54 13.81
12/25/2020 10:30:00 PM 0.93 33.674 0.233 8.33 22.32 13.84
12/25/2020 10:45:00 PM 0.87 33.566 0.232 8.33 20.53 13.85
12/25/2020 11:00:00 PM 0.81 33.458 0.228 8.36 20.83 13.88
12/25/2020 11:15:00 PM 0.76 33.368 0.23 8.35 20.47 13.89
12/25/2020 11:30:00 PM 0.73 33.314 0.226 8.32 19.43 13.9
12/25/2020 11:45:00 PM 0.67 33.206 0.231 8.33 20.62 13.93
12/26/2020 12:00:00 AM 0.61 33.098 0.232 8.34 20.16 13.96
12/26/2020 12:15:00 AM 0.58 33.044 0.234 8.32 19.04 13.97
12/26/2020 12:30:00 AM 0.55 32.99 0.238 8.32 19.06 13.99
12/26/2020 12:45:00 AM 0.51 32.918 0.238 8.31 177.42 13.99
12/26/2020 1:00:00 AM 0.47 32.846 0.24 8.31 19.62 14
12/26/2020 1:15:00 AM 0.43 32.774 0.239 8.32 17.55 14.03
12/26/2020 1:30:00 AM 0.39 32.702 0.239 8.31 18.92 14.04
12/26/2020 1:45:00 AM 0.34 32.612 0.238 8.32 17.5 14.07
12/26/2020 2:00:00 AM 0.3 32.54 0.237 8.32 18.19 14.08
12/26/2020 2:15:00 AM 0.27 32.486 0.242 8.31 17.49 14.09
12/26/2020 2:30:00 AM 0.24 32.432 0.243 8.3 17.51 14.1
12/26/2020 2:45:00 AM 0.21 32.378 0.24 8.31 16.66 14.12
12/26/2020 3:00:00 AM 0.16 32.288 0.242 8.32 16.42 14.15
12/26/2020 3:15:00 AM 0.14 32.252 0.245 8.3 15.77 14.15
12/26/2020 3:30:00 AM 0.11 32.198 0.245 8.29 16.28 14.16
12/26/2020 3:45:00 AM 0.08 32.144 0.245 8.29 17.11 14.17
12/26/2020 4:00:00 AM 0.05 32.09 0.245 8.3 16.15 14.19
12/26/2020 4:15:00 AM 0.05 32.09 0.246 8.29 15.37 14.2
12/26/2020 4:30:00 AM 0.05 32.09 0.246 8.29 14.99 14.21
12/26/2020 4:45:00 AM 0.03 32.054 0.245 8.3 16.35 14.22
12/26/2020 5:00:00 AM 0.04 32.072 0.248 8.29 14.75 14.23
12/26/2020 5:15:00 AM 0.04 32.072 0.249 8.29 14.04 14.23
12/26/2020 5:30:00 AM 0.04 32.072 0.249 8.3 15.4 14.24
12/26/2020 5:45:00 AM 0.04 32.072 0.25 8.29 14.61 14.24
12/26/2020 6:00:00 AM 0.04 32.072 0.249 8.29 15.21 14.24
12/26/2020 6:15:00 AM 0.05 32.09 0.254 8.29 14.43 14.24
12/26/2020 6:30:00 AM 0.04 32.072 0.252 8.3 14.36 14.25
12/26/2020 6:45:00 AM 0.04 32.072 0.25 8.31 13.93 14.27
12/26/2020 7:00:00 AM 0.05 32.09 0.252 8.31 13.58 14.27
12/26/2020 7:15:00 AM 0.06 32.108 0.254 8.31 13.54 14.26
12/26/2020 7:30:00 AM 0.05 32.09 0.255 8.31 13.16 14.26
12/26/2020 7:45:00 AM 0.05 32.09 0.254 8.31 12.8 14.27
12/26/2020 8:00:00 AM 0.07 32.126 0.255 8.31 14.49 14.26
12/26/2020 8:15:00 AM 0.08 32.144 0.258 8.3 13.94 14.28
12/26/2020 8:30:00 AM 0.06 32.108 0.256 8.31 13.55 14.29
12/26/2020 8:45:00 AM 0.07 32.126 0.259 8.3 13.48 14.28
12/26/2020 9:00:00 AM 0.08 32.144 0.258 8.3 13.64 14.28
12/26/2020 9:15:00 AM 0.09 32.162 0.26 8.31 13.99 14.29
12/26/2020 9:30:00 AM 0.08 32.144 0.257 8.32 17.09 14.31
12/26/2020 9:45:00 AM 0.09 32.162 0.243 8.31 14.03 14.31
12/26/2020 10:00:00 AM 0.1 32.18 0.26 8.32 13.38 14.3
12/26/2020 10:15:00 AM 0.1 32.18 0.258 8.31 12.99 14.3
12/26/2020 10:30:00 AM 0.1 32.18 0.26 8.33 14.88 14.31
12/26/2020 10:45:00 AM 0.11 32.198 0.262 8.33 13.54 14.31
12/26/2020 11:00:00 AM 0.1 32.18 0.26 8.34 13.92 14.32
12/26/2020 11:15:00 AM 0.13 32.234 0.264 8.33 12.98 14.3
12/26/2020 11:30:00 AM 0.12 32.216 0.263 8.34 13.6 14.31
12/26/2020 11:45:00 AM 0.12 32.216 0.262 8.33 13.15 14.3
12/26/2020 12:00:00 PM 0.11 32.198 0.262 8.35 14.18 14.32
12/26/2020 12:15:00 PM 0.12 32.216 0.261 8.35 13.56 14.31
12/26/2020 12:30:00 PM 0.13 32.234 0.262 8.35 13.28 14.31
12/26/2020 12:45:00 PM 0.13 32.234 0.259 8.36 14.1 14.33
12/26/2020 1:00:00 PM 0.15 32.27 0.259 8.36 13.68 14.31
12/26/2020 1:15:00 PM 0.18 32.324 0.262 8.35 14.05 14.31
12/26/2020 1:30:00 PM 0.2 32.36 0.262 8.35 14.16 14.3
12/26/2020 1:45:00 PM 0.24 32.432 0.262 8.35 14.33 14.29
12/26/2020 2:00:00 PM 0.26 32.468 0.259 8.37 13.4 14.28
12/26/2020 2:15:00 PM 0.28 32.504 0.259 8.37 13.01 14.28
12/26/2020 2:30:00 PM 0.3 32.54 0.259 8.38 13.38 14.28
12/26/2020 2:45:00 PM 0.34 32.612 0.26 8.38 13.58 14.26
12/26/2020 3:00:00 PM 0.34 32.612 0.259 8.39 13.03 14.26
12/26/2020 3:15:00 PM 0.34 32.612 0.26 8.39 12.51 14.26
12/26/2020 3:30:00 PM 0.34 32.612 0.261 8.38 13.64 14.25
12/26/2020 3:45:00 PM 0.31 32.558 0.261 8.38 13.81 14.25
12/26/2020 4:00:00 PM 0.28 32.504 0.26 8.39 13.49 14.25
12/26/2020 4:15:00 PM 0.27 32.486 0.262 8.37 12.81 14.24
12/26/2020 4:30:00 PM 0.23 32.414 0.26 8.38 13.62 14.26
12/26/2020 4:45:00 PM 0.21 32.378 0.259 8.38 13.58 14.26
12/26/2020 5:00:00 PM 0.2 32.36 0.263 8.37 13.16 14.25
12/26/2020 5:15:00 PM 0.17 32.306 0.261 8.37 14.12 14.24
12/26/2020 5:30:00 PM 0.14 32.252 0.26 8.36 13.12 14.24
12/26/2020 5:45:00 PM 0.13 32.234 0.263 8.36 13.5 14.25
12/26/2020 6:00:00 PM 0.12 32.216 0.262 8.35 12.57 14.25
12/26/2020 6:15:00 PM 0.1 32.18 0.263 8.36 12.75 14.26
12/26/2020 6:30:00 PM 0.08 32.144 0.262 8.35 12.79 14.26
12/26/2020 6:45:00 PM 0.05 32.09 0.261 8.37 12.5 14.28
12/26/2020 7:00:00 PM 0.05 32.09 0.263 8.36 13.62 14.28
12/26/2020 7:15:00 PM 0.06 32.108 0.265 8.35 12.83 14.29
12/26/2020 7:30:00 PM 0.04 32.072 0.262 8.37 12.71 14.33
12/26/2020 7:45:00 PM 0.06 32.108 0.264 8.36 12.99 14.31
12/26/2020 8:00:00 PM 0.07 32.126 0.266 8.36 13 14.31
12/26/2020 8:15:00 PM 0.07 32.126 0.267 8.36 12.24 14.32
12/26/2020 8:30:00 PM 0.05 32.09 0.265 8.38 12.48 14.33
12/26/2020 8:45:00 PM 0.07 32.126 0.268 8.36 11.59 14.32
12/26/2020 9:00:00 PM 0.08 32.144 0.268 8.36 11.77 14.32
12/26/2020 9:15:00 PM 0.09 32.162 0.271 8.35 11.69 14.31
12/26/2020 9:30:00 PM 0.07 32.126 0.268 8.36 11.86 14.32
12/26/2020 9:45:00 PM 0.07 32.126 0.269 8.37 12.18 14.33
12/26/2020 10:00:00 PM 0.07 32.126 0.27 8.37 11.7 14.33
12/26/2020 10:15:00 PM 0.07 32.126 0.271 8.37 11.87 14.33
12/26/2020 10:30:00 PM 0.08 32.144 0.271 8.37 12.17 14.32
12/26/2020 10:45:00 PM 0.08 32.144 0.273 8.36 11.79 14.32
12/26/2020 11:00:00 PM 0.08 32.144 0.272 8.37 12.41 14.33
12/26/2020 11:15:00 PM 0.06 32.108 0.27 8.39 11.77 14.36
12/26/2020 11:30:00 PM 0.08 32.144 0.274 8.37 11.53 14.34
12/26/2020 11:45:00 PM 0.08 32.144 0.274 8.38 13.86 14.34
12/27/2020 12:00:00 AM 0.08 32.144 0.274 8.39 12.38 14.35
12/27/2020 12:15:00 AM 0.08 32.144 0.274 8.38 11.41 14.35
12/27/2020 12:30:00 AM 0.08 32.144 0.275 8.38 11.93 14.34
12/27/2020 12:45:00 AM 0.08 32.144 0.274 8.39 11.05 14.35
12/27/2020 1:00:00 AM 0.08 32.144 0.275 8.39 11.89 14.35
12/27/2020 1:15:00 AM 0.09 32.162 0.276 8.38 10.91 14.34
12/27/2020 1:30:00 AM 0.09 32.162 0.277 8.39 11.31 14.34
12/27/2020 1:45:00 AM 0.09 32.162 0.276 8.38 11.23 14.35
12/27/2020 2:00:00 AM 0.09 32.162 0.277 8.38 11.12 14.35
12/27/2020 2:15:00 AM 0.08 32.144 0.276 8.39 11.65 14.35
12/27/2020 2:30:00 AM 0.09 32.162 0.278 8.39 10.08 14.36
12/27/2020 2:45:00 AM 0.08 32.144 0.277 8.39 10.66 14.37
12/27/2020 3:00:00 AM 0.09 32.162 0.278 8.39 10.89 14.36
12/27/2020 3:15:00 AM 0.08 32.144 0.278 8.4 10.66 14.37
12/27/2020 3:30:00 AM 0.08 32.144 0.277 8.4 10.87 14.37
12/27/2020 3:45:00 AM 0.09 32.162 0.278 8.4 10.85 14.37
12/27/2020 4:00:00 AM 0.09 32.162 0.28 8.39 10.39 14.37
12/27/2020 4:15:00 AM 0.09 32.162 0.279 8.39 9.98 14.37
12/27/2020 4:30:00 AM 0.08 32.144 0.277 8.4 9.97 14.38
12/27/2020 4:45:00 AM 0.08 32.144 0.278 8.41 10.07 14.39
12/27/2020 5:00:00 AM 0.09 32.162 0.278 8.39 9.83 14.38
12/27/2020 5:15:00 AM 0.1 32.18 0.279 8.39 10.17 14.37
12/27/2020 5:30:00 AM 0.09 32.162 0.279 8.4 10.54 14.39
12/27/2020 5:45:00 AM 0.09 32.162 0.279 8.41 10.12 14.39
12/27/2020 6:00:00 AM 0.09 32.162 0.28 8.4 10.1 14.38
12/27/2020 6:15:00 AM 0.09 32.162 0.279 8.41 10.25 14.39
12/27/2020 6:30:00 AM 0.09 32.162 0.28 8.41 10 14.39
12/27/2020 6:45:00 AM 0.09 32.162 0.279 8.42 10.42 14.39
12/27/2020 7:00:00 AM 0.09 32.162 0.281 8.41 9.52 14.39
12/27/2020 7:15:00 AM 0.1 32.18 0.282 8.41 10.26 14.39
12/27/2020 7:30:00 AM 0.09 32.162 0.281 8.41 9.71 14.4
12/27/2020 7:45:00 AM 0.09 32.162 0.281 8.42 9.84 14.41
12/27/2020 8:00:00 AM 0.09 32.162 0.28 8.43 10.03 14.41
12/27/2020 8:15:00 AM 0.09 32.162 0.28 8.42 10.01 14.42
12/27/2020 8:30:00 AM 0.1 32.18 0.281 8.43 9.71 14.42
12/27/2020 8:45:00 AM 0.09 32.162 0.28 8.44 9.83 14.45
12/27/2020 9:00:00 AM 0.11 32.198 0.282 8.43 10.12 14.44
12/27/2020 9:15:00 AM 0.11 32.198 0.282 8.44 9.75 14.46
12/27/2020 9:30:00 AM 0.1 32.18 0.281 8.44 9.48 14.47
12/27/2020 9:45:00 AM 0.1 32.18 0.28 8.46 9.63 14.49
12/27/2020 10:00:00 AM 0.14 32.252 0.282 8.44 10.22 14.47
12/27/2020 10:15:00 AM 0.13 32.234 0.281 8.45 9.64 14.49
12/27/2020 10:30:00 AM 0.14 32.252 0.281 8.46 10.2 14.49
12/27/2020 10:45:00 AM 0.18 32.324 0.28 8.47 10.16 14.49
12/27/2020 11:00:00 AM 0.25 32.45 0.281 8.47 10.69 14.49
12/27/2020 11:15:00 AM 0.3 32.54 0.28 8.49 10.23 14.5
12/27/2020 11:30:00 AM 0.34 32.612 0.282 8.48 10.07 14.47
12/27/2020 11:45:00 AM 0.36 32.648 0.28 8.48 10.21 14.48
12/27/2020 12:00:00 PM 0.41 32.738 0.28 8.49 9.91 14.47
12/27/2020 12:15:00 PM 0.49 32.882 0.28 8.5 9.91 14.44
12/27/2020 12:30:00 PM 0.62 33.116 0.28 8.52 9.59 14.42
12/27/2020 12:45:00 PM 0.73 33.314 0.28 8.53 9.53 14.38
12/27/2020 1:00:00 PM 0.82 33.476 0.281 8.55 9.96 14.36
12/27/2020 1:15:00 PM 0.9 33.62 0.282 8.54 10.02 14.32
12/27/2020 1:30:00 PM 0.98 33.764 0.281 8.57 10.34 14.3
12/27/2020 1:45:00 PM 1.05 33.89 0.283 8.56 10.21 14.26
12/27/2020 2:00:00 PM 1.09 33.962 0.281 8.58 9.53 14.25
12/27/2020 2:15:00 PM 1.11 33.998 0.281 8.58 9.91 14.23
12/27/2020 2:30:00 PM 1.15 34.07 0.282 8.59 10.16 14.2
12/27/2020 2:45:00 PM 1.17 34.106 0.282 8.59 9.57 14.18
12/27/2020 3:00:00 PM 1.17 34.106 0.282 8.58 10.11 14.16
12/27/2020 3:15:00 PM 1.17 34.106 0.283 8.58 9.18 14.15
12/27/2020 3:30:00 PM 1.15 34.07 0.28 8.6 10.14 14.16
12/27/2020 3:45:00 PM 1.16 34.088 0.281 8.59 9.32 14.14
12/27/2020 4:00:00 PM 1.14 34.052 0.28 8.59 10.02 14.14
12/27/2020 4:15:00 PM 1.11 33.998 0.281 8.6 9.46 14.13
12/27/2020 4:30:00 PM 1.1 33.98 0.28 8.58 10.4 14.11
12/27/2020 4:45:00 PM 1.05 33.89 0.279 8.59 10.43 14.11
12/27/2020 5:00:00 PM 1.01 33.818 0.28 8.58 9.69 14.1
12/27/2020 5:15:00 PM 0.98 33.764 0.281 8.57 9.96 14.09
12/27/2020 5:30:00 PM 0.93 33.674 0.28 8.58 9.98 14.1
12/27/2020 5:45:00 PM 0.91 33.638 0.28 8.57 10.05 14.1
12/27/2020 6:00:00 PM 0.88 33.584 0.281 8.57 9.47 14.1
12/27/2020 6:15:00 PM 0.86 33.548 0.281 8.57 10.67 14.09
12/27/2020 6:30:00 PM 0.82 33.476 0.281 8.57 9.77 14.1
12/27/2020 6:45:00 PM 0.8 33.44 0.281 8.56 10.32 14.1
12/27/2020 7:00:00 PM 0.76 33.368 0.281 8.57 9.59 14.12
12/27/2020 7:15:00 PM 0.73 33.314 0.281 8.58 9.86 14.14
12/27/2020 7:30:00 PM 0.71 33.278 0.283 8.57 10.11 14.13
12/27/2020 7:45:00 PM 0.68 33.224 0.283 8.57 9.9 14.14
12/27/2020 8:00:00 PM 0.65 33.17 0.283 8.57 9.98 14.16
12/27/2020 8:15:00 PM 0.63 33.134 0.283 8.55 9.78 14.14
12/27/2020 8:30:00 PM 0.6 33.08 0.283 8.57 9.76 14.16
12/27/2020 8:45:00 PM 0.58 33.044 0.284 8.57 9.67 14.18
12/27/2020 9:00:00 PM 0.57 33.026 0.284 8.56 9.87 14.17
12/27/2020 9:15:00 PM 0.54 32.972 0.284 8.57 9.37 14.19
12/27/2020 9:30:00 PM 0.52 32.936 0.285 8.58 10.12 14.19
12/27/2020 9:45:00 PM 0.51 32.918 0.286 8.57 9.18 14.19
12/27/2020 10:00:00 PM 0.5 32.9 0.286 8.57 8.89 14.19
12/27/2020 10:15:00 PM 0.48 32.864 0.286 8.58 9.12 14.21
12/27/2020 10:30:00 PM 0.48 32.864 0.286 8.58 9.12 14.2
12/27/2020 10:45:00 PM 0.47 32.846 0.286 8.58 9.89 14.22
12/27/2020 11:00:00 PM 0.47 32.846 0.286 8.58 9.37 14.22
12/27/2020 11:15:00 PM 0.47 32.846 0.287 8.59 9.24 14.23
12/27/2020 11:30:00 PM 0.47 32.846 0.288 8.59 9.08 14.23
12/27/2020 11:45:00 PM 0.44 32.792 0.287 8.6 9.4 14.24
12/28/2020 12:00:00 AM 0.45 32.81 0.289 8.58 9.27 14.22
12/28/2020 12:15:00 AM 0.44 32.792 0.289 8.59 9.3 14.23
12/28/2020 12:30:00 AM 0.42 32.756 0.289 8.59 9.06 14.24
12/28/2020 12:45:00 AM 0.41 32.738 0.289 8.58 8.95 14.23
12/28/2020 1:00:00 AM 0.4 32.72 0.29 8.59 9.14 14.23
12/28/2020 1:15:00 AM 0.38 32.684 0.29 8.59 9.13 14.24
12/28/2020 1:30:00 AM 0.37 32.666 0.291 8.59 9.12 14.24
12/28/2020 1:45:00 AM 0.36 32.648 0.291 8.59 8.71 14.23
12/28/2020 2:00:00 AM 0.34 32.612 0.29 8.59 9.7 14.24
12/28/2020 2:15:00 AM 0.34 32.612 0.291 8.59 9.48 14.24
12/28/2020 2:30:00 AM 0.34 32.612 0.292 8.58 9.24 14.24
12/28/2020 2:45:00 AM 0.33 32.594 0.291 8.58 9.06 14.24
12/28/2020 3:00:00 AM 0.34 32.612 0.292 8.58 9.47 14.24
12/28/2020 3:15:00 AM 0.34 32.612 0.292 8.57 9.39 14.23
12/28/2020 3:30:00 AM 0.34 32.612 0.292 8.58 8.71 14.24
12/28/2020 3:45:00 AM 0.34 32.612 0.291 8.59 8.76 14.24
12/28/2020 4:00:00 AM 0.35 32.63 0.292 8.58 8.63 14.24
12/28/2020 4:15:00 AM 0.35 32.63 0.292 8.59 8.65 14.23
12/28/2020 4:30:00 AM 0.37 32.666 0.293 8.59 8.47 14.22
12/28/2020 4:45:00 AM 0.37 32.666 0.292 8.6 8.3 14.23
12/28/2020 5:00:00 AM 0.35 32.63 0.292 8.6 8.66 14.23
12/28/2020 5:15:00 AM 0.31 32.558 0.292 8.59 8.3 14.22
12/28/2020 5:30:00 AM 0.29 32.522 0.292 8.6 8.47 14.23
12/28/2020 5:45:00 AM 0.31 32.558 0.292 8.59 8.49 14.21
12/28/2020 6:00:00 AM 0.32 32.576 0.294 8.59 8.52 14.22
12/28/2020 6:15:00 AM 0.3 32.54 0.292 8.6 8.43 14.24
12/28/2020 6:30:00 AM 0.31 32.558 0.291 8.6 8.3 14.23
12/28/2020 6:45:00 AM 0.32 32.576 0.292 8.6 8.24 14.22
12/28/2020 7:00:00 AM 0.35 32.63 0.293 8.6 8.73 14.22
12/28/2020 7:15:00 AM 0.36 32.648 0.293 8.59 8.34 14.21
12/28/2020 7:30:00 AM 0.37 32.666 0.293 8.6 8.52 14.22
12/28/2020 7:45:00 AM 0.39 32.702 0.294 8.6 8.39 14.22
12/28/2020 8:00:00 AM 0.41 32.738 0.294 8.6 8.14 14.21
12/28/2020 8:15:00 AM 0.41 32.738 0.293 8.61 8.43 14.23
12/28/2020 8:30:00 AM 0.41 32.738 0.292 8.62 8.33 14.25
12/28/2020 8:45:00 AM 0.46 32.828 0.294 8.61